<?xml version="1.0" encoding="UTF-8" standalone="no" ?>
<gpx xmlns="http://www.topografix.com/GPX/1/1" xmlns:xsi="http://www.w3.org/2001/XMLSchema-instance" xsi:schemaLocation="http://www.topografix.com/GPX/1/1 http://www.topografix.com/GPX/1/1/gpx.xsd" version="1.1" creator="VisuGPX - https://www.visugpx.com">
  <metadata>
    <name>fil31 mas villeneuve top!!!!</name>
    <desc><![CDATA[Sortie VTT ds le Lauragais peaufinée Par Fil31, du lourd en single!]]></desc>
  </metadata>
  <trk>
    <name><![CDATA[8730578-fil31 mas villeneuve top!!!!]]></name>
    <trkseg>
      <trkpt lat="43.31342" lon="1.87746">
        <ele>202</ele>
        <time>2020-06-05T19:06:47Z</time>
      </trkpt>
      <trkpt lat="43.31339" lon="1.87735">
        <ele>203</ele>
        <time>2020-06-05T19:06:49Z</time>
      </trkpt>
      <trkpt lat="43.31322" lon="1.87743">
        <ele>203</ele>
        <time>2020-06-05T19:06:53Z</time>
      </trkpt>
      <trkpt lat="43.31306" lon="1.87741">
        <ele>203</ele>
        <time>2020-06-05T19:06:57Z</time>
      </trkpt>
      <trkpt lat="43.31274" lon="1.87715">
        <ele>206</ele>
        <time>2020-06-05T19:07:06Z</time>
      </trkpt>
      <trkpt lat="43.31259" lon="1.87707">
        <ele>206</ele>
        <time>2020-06-05T19:07:09Z</time>
      </trkpt>
      <trkpt lat="43.31251" lon="1.87706">
        <ele>207</ele>
        <time>2020-06-05T19:07:11Z</time>
      </trkpt>
      <trkpt lat="43.31247" lon="1.8771">
        <ele>207</ele>
        <time>2020-06-05T19:07:12Z</time>
      </trkpt>
      <trkpt lat="43.31238" lon="1.8773">
        <ele>206</ele>
        <time>2020-06-05T19:07:16Z</time>
      </trkpt>
      <trkpt lat="43.31225" lon="1.87738">
        <ele>207</ele>
        <time>2020-06-05T19:07:20Z</time>
      </trkpt>
      <trkpt lat="43.31174" lon="1.87706">
        <ele>211</ele>
        <time>2020-06-05T19:07:33Z</time>
      </trkpt>
      <trkpt lat="43.31162" lon="1.8771">
        <ele>211</ele>
        <time>2020-06-05T19:07:36Z</time>
      </trkpt>
      <trkpt lat="43.31131" lon="1.87742">
        <ele>215</ele>
        <time>2020-06-05T19:07:45Z</time>
      </trkpt>
      <trkpt lat="43.311" lon="1.8778">
        <ele>218</ele>
        <time>2020-06-05T19:07:54Z</time>
      </trkpt>
      <trkpt lat="43.31066" lon="1.87813">
        <ele>222</ele>
        <time>2020-06-05T19:08:04Z</time>
      </trkpt>
      <trkpt lat="43.31051" lon="1.87821">
        <ele>224</ele>
        <time>2020-06-05T19:08:08Z</time>
      </trkpt>
      <trkpt lat="43.31021" lon="1.87829">
        <ele>228</ele>
        <time>2020-06-05T19:08:15Z</time>
      </trkpt>
      <trkpt lat="43.30969" lon="1.87832">
        <ele>233</ele>
        <time>2020-06-05T19:08:27Z</time>
      </trkpt>
      <trkpt lat="43.30955" lon="1.87835">
        <ele>234</ele>
        <time>2020-06-05T19:08:31Z</time>
      </trkpt>
      <trkpt lat="43.30877" lon="1.87875">
        <ele>238</ele>
        <time>2020-06-05T19:08:50Z</time>
      </trkpt>
      <trkpt lat="43.30847" lon="1.87883">
        <ele>240</ele>
        <time>2020-06-05T19:08:57Z</time>
      </trkpt>
      <trkpt lat="43.3083" lon="1.87884">
        <ele>241</ele>
        <time>2020-06-05T19:09:01Z</time>
      </trkpt>
      <trkpt lat="43.30811" lon="1.87879">
        <ele>244</ele>
        <time>2020-06-05T19:09:06Z</time>
      </trkpt>
      <trkpt lat="43.30788" lon="1.87883">
        <ele>247</ele>
        <time>2020-06-05T19:09:11Z</time>
      </trkpt>
      <trkpt lat="43.30757" lon="1.87896">
        <ele>250</ele>
        <time>2020-06-05T19:09:19Z</time>
      </trkpt>
      <trkpt lat="43.30696" lon="1.87896">
        <ele>262</ele>
        <time>2020-06-05T19:09:33Z</time>
      </trkpt>
      <trkpt lat="43.30684" lon="1.879">
        <ele>265</ele>
        <time>2020-06-05T19:09:36Z</time>
      </trkpt>
      <trkpt lat="43.30645" lon="1.87932">
        <ele>270</ele>
        <time>2020-06-05T19:09:46Z</time>
      </trkpt>
      <trkpt lat="43.306" lon="1.87957">
        <ele>275</ele>
        <time>2020-06-05T19:09:58Z</time>
      </trkpt>
      <trkpt lat="43.30573" lon="1.87985">
        <ele>278</ele>
        <time>2020-06-05T19:10:06Z</time>
      </trkpt>
      <trkpt lat="43.30532" lon="1.88015">
        <ele>283</ele>
        <time>2020-06-05T19:10:16Z</time>
      </trkpt>
      <trkpt lat="43.30512" lon="1.88022">
        <ele>285</ele>
        <time>2020-06-05T19:10:21Z</time>
      </trkpt>
      <trkpt lat="43.305" lon="1.88029">
        <ele>287</ele>
        <time>2020-06-05T19:10:24Z</time>
      </trkpt>
      <trkpt lat="43.30488" lon="1.88041">
        <ele>287</ele>
        <time>2020-06-05T19:10:28Z</time>
      </trkpt>
      <trkpt lat="43.30426" lon="1.88126">
        <ele>282</ele>
        <time>2020-06-05T19:10:48Z</time>
      </trkpt>
      <trkpt lat="43.30399" lon="1.88141">
        <ele>282</ele>
        <time>2020-06-05T19:10:55Z</time>
      </trkpt>
      <trkpt lat="43.30347" lon="1.8816">
        <ele>282</ele>
        <time>2020-06-05T19:11:08Z</time>
      </trkpt>
      <trkpt lat="43.3032" lon="1.88167">
        <ele>281</ele>
        <time>2020-06-05T19:11:14Z</time>
      </trkpt>
      <trkpt lat="43.30295" lon="1.88184">
        <ele>279</ele>
        <time>2020-06-05T19:11:20Z</time>
      </trkpt>
      <trkpt lat="43.30289" lon="1.88193">
        <ele>278</ele>
        <time>2020-06-05T19:11:23Z</time>
      </trkpt>
      <trkpt lat="43.30272" lon="1.88238">
        <ele>276</ele>
        <time>2020-06-05T19:11:31Z</time>
      </trkpt>
      <trkpt lat="43.30271" lon="1.88293">
        <ele>275</ele>
        <time>2020-06-05T19:11:41Z</time>
      </trkpt>
      <trkpt lat="43.30224" lon="1.88405">
        <ele>271</ele>
        <time>2020-06-05T19:12:03Z</time>
      </trkpt>
      <trkpt lat="43.30207" lon="1.88484">
        <ele>267</ele>
        <time>2020-06-05T19:12:17Z</time>
      </trkpt>
      <trkpt lat="43.302" lon="1.88535">
        <ele>267</ele>
        <time>2020-06-05T19:12:25Z</time>
      </trkpt>
      <trkpt lat="43.30197" lon="1.88618">
        <ele>266</ele>
        <time>2020-06-05T19:12:39Z</time>
      </trkpt>
      <trkpt lat="43.30199" lon="1.88633">
        <ele>266</ele>
        <time>2020-06-05T19:12:42Z</time>
      </trkpt>
      <trkpt lat="43.3022" lon="1.88677">
        <ele>264</ele>
        <time>2020-06-05T19:12:51Z</time>
      </trkpt>
      <trkpt lat="43.30218" lon="1.88719">
        <ele>265</ele>
        <time>2020-06-05T19:12:58Z</time>
      </trkpt>
      <trkpt lat="43.30223" lon="1.88744">
        <ele>265</ele>
        <time>2020-06-05T19:13:03Z</time>
      </trkpt>
      <trkpt lat="43.30246" lon="1.88791">
        <ele>266</ele>
        <time>2020-06-05T19:13:12Z</time>
      </trkpt>
      <trkpt lat="43.30253" lon="1.88821">
        <ele>266</ele>
        <time>2020-06-05T19:13:18Z</time>
      </trkpt>
      <trkpt lat="43.30254" lon="1.88831">
        <ele>266</ele>
        <time>2020-06-05T19:13:19Z</time>
      </trkpt>
      <trkpt lat="43.30246" lon="1.88877">
        <ele>265</ele>
        <time>2020-06-05T19:13:27Z</time>
      </trkpt>
      <trkpt lat="43.30246" lon="1.88929">
        <ele>263</ele>
        <time>2020-06-05T19:13:36Z</time>
      </trkpt>
      <trkpt lat="43.3025" lon="1.8898">
        <ele>261</ele>
        <time>2020-06-05T19:13:45Z</time>
      </trkpt>
      <trkpt lat="43.30257" lon="1.89013">
        <ele>258</ele>
        <time>2020-06-05T19:13:51Z</time>
      </trkpt>
      <trkpt lat="43.30265" lon="1.89027">
        <ele>257</ele>
        <time>2020-06-05T19:13:54Z</time>
      </trkpt>
      <trkpt lat="43.30291" lon="1.89047">
        <ele>251</ele>
        <time>2020-06-05T19:14:01Z</time>
      </trkpt>
      <trkpt lat="43.3031" lon="1.89068">
        <ele>248</ele>
        <time>2020-06-05T19:14:06Z</time>
      </trkpt>
      <trkpt lat="43.3032" lon="1.891">
        <ele>247</ele>
        <time>2020-06-05T19:14:12Z</time>
      </trkpt>
      <trkpt lat="43.30324" lon="1.89134">
        <ele>246</ele>
        <time>2020-06-05T19:14:18Z</time>
      </trkpt>
      <trkpt lat="43.30323" lon="1.89158">
        <ele>246</ele>
        <time>2020-06-05T19:14:22Z</time>
      </trkpt>
      <trkpt lat="43.30314" lon="1.89216">
        <ele>241</ele>
        <time>2020-06-05T19:14:32Z</time>
      </trkpt>
      <trkpt lat="43.3031" lon="1.89224">
        <ele>240</ele>
        <time>2020-06-05T19:14:34Z</time>
      </trkpt>
      <trkpt lat="43.30304" lon="1.89227">
        <ele>239</ele>
        <time>2020-06-05T19:14:35Z</time>
      </trkpt>
      <trkpt lat="43.30297" lon="1.89227">
        <ele>239</ele>
        <time>2020-06-05T19:14:37Z</time>
      </trkpt>
      <trkpt lat="43.30291" lon="1.89223">
        <ele>239</ele>
        <time>2020-06-05T19:14:39Z</time>
      </trkpt>
      <trkpt lat="43.30279" lon="1.89213">
        <ele>240</ele>
        <time>2020-06-05T19:14:42Z</time>
      </trkpt>
      <trkpt lat="43.30235" lon="1.89166">
        <ele>246</ele>
        <time>2020-06-05T19:14:55Z</time>
      </trkpt>
      <trkpt lat="43.30223" lon="1.8916">
        <ele>244</ele>
        <time>2020-06-05T19:14:58Z</time>
      </trkpt>
      <trkpt lat="43.30191" lon="1.89152">
        <ele>241</ele>
        <time>2020-06-05T19:15:05Z</time>
      </trkpt>
      <trkpt lat="43.30138" lon="1.89121">
        <ele>239</ele>
        <time>2020-06-05T19:15:19Z</time>
      </trkpt>
      <trkpt lat="43.30122" lon="1.8912">
        <ele>236</ele>
        <time>2020-06-05T19:15:23Z</time>
      </trkpt>
      <trkpt lat="43.30115" lon="1.89117">
        <ele>236</ele>
        <time>2020-06-05T19:15:24Z</time>
      </trkpt>
      <trkpt lat="43.30108" lon="1.89111">
        <ele>236</ele>
        <time>2020-06-05T19:15:26Z</time>
      </trkpt>
      <trkpt lat="43.30066" lon="1.89056">
        <ele>236</ele>
        <time>2020-06-05T19:15:40Z</time>
      </trkpt>
      <trkpt lat="43.30044" lon="1.89022">
        <ele>235</ele>
        <time>2020-06-05T19:15:48Z</time>
      </trkpt>
      <trkpt lat="43.30028" lon="1.88964">
        <ele>233</ele>
        <time>2020-06-05T19:15:58Z</time>
      </trkpt>
      <trkpt lat="43.30031" lon="1.88952">
        <ele>234</ele>
        <time>2020-06-05T19:16:00Z</time>
      </trkpt>
      <trkpt lat="43.30049" lon="1.88928">
        <ele>236</ele>
        <time>2020-06-05T19:16:06Z</time>
      </trkpt>
      <trkpt lat="43.30059" lon="1.88925">
        <ele>238</ele>
        <time>2020-06-05T19:16:09Z</time>
      </trkpt>
      <trkpt lat="43.30072" lon="1.88931">
        <ele>241</ele>
        <time>2020-06-05T19:16:12Z</time>
      </trkpt>
      <trkpt lat="43.30084" lon="1.88925">
        <ele>243</ele>
        <time>2020-06-05T19:16:15Z</time>
      </trkpt>
      <trkpt lat="43.3009" lon="1.88916">
        <ele>243</ele>
        <time>2020-06-05T19:16:17Z</time>
      </trkpt>
      <trkpt lat="43.30093" lon="1.88904">
        <ele>244</ele>
        <time>2020-06-05T19:16:19Z</time>
      </trkpt>
      <trkpt lat="43.30089" lon="1.88883">
        <ele>244</ele>
        <time>2020-06-05T19:16:23Z</time>
      </trkpt>
      <trkpt lat="43.30075" lon="1.88868">
        <ele>241</ele>
        <time>2020-06-05T19:16:27Z</time>
      </trkpt>
      <trkpt lat="43.30052" lon="1.88856">
        <ele>238</ele>
        <time>2020-06-05T19:16:33Z</time>
      </trkpt>
      <trkpt lat="43.30027" lon="1.88828">
        <ele>234</ele>
        <time>2020-06-05T19:16:40Z</time>
      </trkpt>
      <trkpt lat="43.30023" lon="1.88814">
        <ele>234</ele>
        <time>2020-06-05T19:16:43Z</time>
      </trkpt>
      <trkpt lat="43.3001" lon="1.8873">
        <ele>234</ele>
        <time>2020-06-05T19:16:57Z</time>
      </trkpt>
      <trkpt lat="43.30005" lon="1.88719">
        <ele>233</ele>
        <time>2020-06-05T19:16:59Z</time>
      </trkpt>
      <trkpt lat="43.29952" lon="1.88722">
        <ele>232</ele>
        <time>2020-06-05T19:17:12Z</time>
      </trkpt>
      <trkpt lat="43.29931" lon="1.8873">
        <ele>232</ele>
        <time>2020-06-05T19:17:17Z</time>
      </trkpt>
      <trkpt lat="43.29927" lon="1.88735">
        <ele>232</ele>
        <time>2020-06-05T19:17:18Z</time>
      </trkpt>
      <trkpt lat="43.29924" lon="1.88745">
        <ele>232</ele>
        <time>2020-06-05T19:17:20Z</time>
      </trkpt>
      <trkpt lat="43.29927" lon="1.88845">
        <ele>230</ele>
        <time>2020-06-05T19:17:37Z</time>
      </trkpt>
      <trkpt lat="43.29934" lon="1.88912">
        <ele>230</ele>
        <time>2020-06-05T19:17:49Z</time>
      </trkpt>
      <trkpt lat="43.29943" lon="1.89066">
        <ele>230</ele>
        <time>2020-06-05T19:18:15Z</time>
      </trkpt>
      <trkpt lat="43.29958" lon="1.89178">
        <ele>226</ele>
        <time>2020-06-05T19:18:34Z</time>
      </trkpt>
      <trkpt lat="43.2995" lon="1.89204">
        <ele>226</ele>
        <time>2020-06-05T19:18:39Z</time>
      </trkpt>
      <trkpt lat="43.29952" lon="1.89216">
        <ele>224</ele>
        <time>2020-06-05T19:18:41Z</time>
      </trkpt>
      <trkpt lat="43.29946" lon="1.89227">
        <ele>224</ele>
        <time>2020-06-05T19:18:43Z</time>
      </trkpt>
      <trkpt lat="43.29944" lon="1.89227">
        <ele>225</ele>
        <time>2020-06-05T19:18:44Z</time>
      </trkpt>
      <trkpt lat="43.2994" lon="1.89219">
        <ele>226</ele>
        <time>2020-06-05T19:18:45Z</time>
      </trkpt>
      <trkpt lat="43.29915" lon="1.891">
        <ele>235</ele>
        <time>2020-06-05T19:19:07Z</time>
      </trkpt>
      <trkpt lat="43.29898" lon="1.89003">
        <ele>235</ele>
        <time>2020-06-05T19:19:23Z</time>
      </trkpt>
      <trkpt lat="43.2989" lon="1.88925">
        <ele>234</ele>
        <time>2020-06-05T19:19:37Z</time>
      </trkpt>
      <trkpt lat="43.29885" lon="1.88923">
        <ele>234</ele>
        <time>2020-06-05T19:19:38Z</time>
      </trkpt>
      <trkpt lat="43.29878" lon="1.88928">
        <ele>235</ele>
        <time>2020-06-05T19:19:40Z</time>
      </trkpt>
      <trkpt lat="43.29866" lon="1.88956">
        <ele>238</ele>
        <time>2020-06-05T19:19:45Z</time>
      </trkpt>
      <trkpt lat="43.29818" lon="1.89043">
        <ele>251</ele>
        <time>2020-06-05T19:20:04Z</time>
      </trkpt>
      <trkpt lat="43.29804" lon="1.89056">
        <ele>252</ele>
        <time>2020-06-05T19:20:08Z</time>
      </trkpt>
      <trkpt lat="43.29771" lon="1.89079">
        <ele>254</ele>
        <time>2020-06-05T19:20:17Z</time>
      </trkpt>
      <trkpt lat="43.29752" lon="1.89085">
        <ele>254</ele>
        <time>2020-06-05T19:20:21Z</time>
      </trkpt>
      <trkpt lat="43.29747" lon="1.89083">
        <ele>254</ele>
        <time>2020-06-05T19:20:22Z</time>
      </trkpt>
      <trkpt lat="43.2968" lon="1.89018">
        <ele>261</ele>
        <time>2020-06-05T19:20:42Z</time>
      </trkpt>
      <trkpt lat="43.29663" lon="1.89005">
        <ele>266</ele>
        <time>2020-06-05T19:20:46Z</time>
      </trkpt>
      <trkpt lat="43.29647" lon="1.89">
        <ele>268</ele>
        <time>2020-06-05T19:20:50Z</time>
      </trkpt>
      <trkpt lat="43.29633" lon="1.89005">
        <ele>269</ele>
        <time>2020-06-05T19:20:53Z</time>
      </trkpt>
      <trkpt lat="43.2962" lon="1.89027">
        <ele>268</ele>
        <time>2020-06-05T19:20:58Z</time>
      </trkpt>
      <trkpt lat="43.29608" lon="1.89058">
        <ele>266</ele>
        <time>2020-06-05T19:21:04Z</time>
      </trkpt>
      <trkpt lat="43.29592" lon="1.89068">
        <ele>268</ele>
        <time>2020-06-05T19:21:08Z</time>
      </trkpt>
      <trkpt lat="43.29536" lon="1.89127">
        <ele>269</ele>
        <time>2020-06-05T19:21:25Z</time>
      </trkpt>
      <trkpt lat="43.29503" lon="1.89182">
        <ele>271</ele>
        <time>2020-06-05T19:21:37Z</time>
      </trkpt>
      <trkpt lat="43.29493" lon="1.89215">
        <ele>270</ele>
        <time>2020-06-05T19:21:43Z</time>
      </trkpt>
      <trkpt lat="43.29489" lon="1.89259">
        <ele>267</ele>
        <time>2020-06-05T19:21:50Z</time>
      </trkpt>
      <trkpt lat="43.29485" lon="1.8927">
        <ele>265</ele>
        <time>2020-06-05T19:21:52Z</time>
      </trkpt>
      <trkpt lat="43.29477" lon="1.89278">
        <ele>264</ele>
        <time>2020-06-05T19:21:55Z</time>
      </trkpt>
      <trkpt lat="43.29462" lon="1.89275">
        <ele>265</ele>
        <time>2020-06-05T19:21:58Z</time>
      </trkpt>
      <trkpt lat="43.29439" lon="1.89246">
        <ele>268</ele>
        <time>2020-06-05T19:22:06Z</time>
      </trkpt>
      <trkpt lat="43.29367" lon="1.89184">
        <ele>273</ele>
        <time>2020-06-05T19:22:25Z</time>
      </trkpt>
      <trkpt lat="43.29359" lon="1.89181">
        <ele>273</ele>
        <time>2020-06-05T19:22:27Z</time>
      </trkpt>
      <trkpt lat="43.29326" lon="1.89178">
        <ele>274</ele>
        <time>2020-06-05T19:22:35Z</time>
      </trkpt>
      <trkpt lat="43.293" lon="1.89187">
        <ele>277</ele>
        <time>2020-06-05T19:22:41Z</time>
      </trkpt>
      <trkpt lat="43.29235" lon="1.89254">
        <ele>280</ele>
        <time>2020-06-05T19:23:00Z</time>
      </trkpt>
      <trkpt lat="43.29224" lon="1.89275">
        <ele>280</ele>
        <time>2020-06-05T19:23:05Z</time>
      </trkpt>
      <trkpt lat="43.29218" lon="1.89302">
        <ele>280</ele>
        <time>2020-06-05T19:23:10Z</time>
      </trkpt>
      <trkpt lat="43.29205" lon="1.89339">
        <ele>279</ele>
        <time>2020-06-05T19:23:17Z</time>
      </trkpt>
      <trkpt lat="43.29164" lon="1.89407">
        <ele>278</ele>
        <time>2020-06-05T19:23:32Z</time>
      </trkpt>
      <trkpt lat="43.2916" lon="1.89419">
        <ele>278</ele>
        <time>2020-06-05T19:23:34Z</time>
      </trkpt>
      <trkpt lat="43.29156" lon="1.89448">
        <ele>276</ele>
        <time>2020-06-05T19:23:39Z</time>
      </trkpt>
      <trkpt lat="43.29164" lon="1.8951">
        <ele>273</ele>
        <time>2020-06-05T19:23:50Z</time>
      </trkpt>
      <trkpt lat="43.29162" lon="1.89528">
        <ele>273</ele>
        <time>2020-06-05T19:23:53Z</time>
      </trkpt>
      <trkpt lat="43.29154" lon="1.89555">
        <ele>273</ele>
        <time>2020-06-05T19:23:58Z</time>
      </trkpt>
      <trkpt lat="43.29152" lon="1.89591">
        <ele>274</ele>
        <time>2020-06-05T19:24:04Z</time>
      </trkpt>
      <trkpt lat="43.29156" lon="1.89632">
        <ele>273</ele>
        <time>2020-06-05T19:24:11Z</time>
      </trkpt>
      <trkpt lat="43.29165" lon="1.89657">
        <ele>273</ele>
        <time>2020-06-05T19:24:15Z</time>
      </trkpt>
      <trkpt lat="43.29189" lon="1.89699">
        <ele>272</ele>
        <time>2020-06-05T19:24:25Z</time>
      </trkpt>
      <trkpt lat="43.29242" lon="1.89803">
        <ele>269</ele>
        <time>2020-06-05T19:24:46Z</time>
      </trkpt>
      <trkpt lat="43.2926" lon="1.89843">
        <ele>268</ele>
        <time>2020-06-05T19:24:54Z</time>
      </trkpt>
      <trkpt lat="43.29276" lon="1.89889">
        <ele>268</ele>
        <time>2020-06-05T19:25:03Z</time>
      </trkpt>
      <trkpt lat="43.29288" lon="1.89959">
        <ele>271</ele>
        <time>2020-06-05T19:25:15Z</time>
      </trkpt>
      <trkpt lat="43.2929" lon="1.89997">
        <ele>274</ele>
        <time>2020-06-05T19:25:21Z</time>
      </trkpt>
      <trkpt lat="43.29286" lon="1.90094">
        <ele>281</ele>
        <time>2020-06-05T19:25:38Z</time>
      </trkpt>
      <trkpt lat="43.29288" lon="1.90121">
        <ele>283</ele>
        <time>2020-06-05T19:25:43Z</time>
      </trkpt>
      <trkpt lat="43.29297" lon="1.90148">
        <ele>286</ele>
        <time>2020-06-05T19:25:48Z</time>
      </trkpt>
      <trkpt lat="43.29306" lon="1.90163">
        <ele>288</ele>
        <time>2020-06-05T19:25:51Z</time>
      </trkpt>
      <trkpt lat="43.29317" lon="1.90156">
        <ele>289</ele>
        <time>2020-06-05T19:25:54Z</time>
      </trkpt>
      <trkpt lat="43.29346" lon="1.9012">
        <ele>288</ele>
        <time>2020-06-05T19:26:03Z</time>
      </trkpt>
      <trkpt lat="43.29362" lon="1.9009">
        <ele>287</ele>
        <time>2020-06-05T19:26:09Z</time>
      </trkpt>
      <trkpt lat="43.29369" lon="1.90066">
        <ele>285</ele>
        <time>2020-06-05T19:26:14Z</time>
      </trkpt>
      <trkpt lat="43.294" lon="1.90018">
        <ele>284</ele>
        <time>2020-06-05T19:26:25Z</time>
      </trkpt>
      <trkpt lat="43.29421" lon="1.8997">
        <ele>281</ele>
        <time>2020-06-05T19:26:34Z</time>
      </trkpt>
      <trkpt lat="43.29469" lon="1.89874">
        <ele>272</ele>
        <time>2020-06-05T19:26:54Z</time>
      </trkpt>
      <trkpt lat="43.29498" lon="1.89794">
        <ele>274</ele>
        <time>2020-06-05T19:27:09Z</time>
      </trkpt>
      <trkpt lat="43.29555" lon="1.89688">
        <ele>265</ele>
        <time>2020-06-05T19:27:31Z</time>
      </trkpt>
      <trkpt lat="43.29589" lon="1.89616">
        <ele>260</ele>
        <time>2020-06-05T19:27:46Z</time>
      </trkpt>
      <trkpt lat="43.29612" lon="1.89558">
        <ele>251</ele>
        <time>2020-06-05T19:27:57Z</time>
      </trkpt>
      <trkpt lat="43.29621" lon="1.89541">
        <ele>248</ele>
        <time>2020-06-05T19:28:01Z</time>
      </trkpt>
      <trkpt lat="43.29639" lon="1.89535">
        <ele>247</ele>
        <time>2020-06-05T19:28:05Z</time>
      </trkpt>
      <trkpt lat="43.29651" lon="1.89528">
        <ele>246</ele>
        <time>2020-06-05T19:28:08Z</time>
      </trkpt>
      <trkpt lat="43.29661" lon="1.89515">
        <ele>245</ele>
        <time>2020-06-05T19:28:11Z</time>
      </trkpt>
      <trkpt lat="43.29683" lon="1.89496">
        <ele>242</ele>
        <time>2020-06-05T19:28:17Z</time>
      </trkpt>
      <trkpt lat="43.2969" lon="1.89484">
        <ele>240</ele>
        <time>2020-06-05T19:28:20Z</time>
      </trkpt>
      <trkpt lat="43.29699" lon="1.89477">
        <ele>239</ele>
        <time>2020-06-05T19:28:23Z</time>
      </trkpt>
      <trkpt lat="43.2971" lon="1.89444">
        <ele>236</ele>
        <time>2020-06-05T19:28:29Z</time>
      </trkpt>
      <trkpt lat="43.29719" lon="1.89439">
        <ele>235</ele>
        <time>2020-06-05T19:28:31Z</time>
      </trkpt>
      <trkpt lat="43.29723" lon="1.89443">
        <ele>235</ele>
        <time>2020-06-05T19:28:32Z</time>
      </trkpt>
      <trkpt lat="43.2973" lon="1.89441">
        <ele>234</ele>
        <time>2020-06-05T19:28:34Z</time>
      </trkpt>
      <trkpt lat="43.29724" lon="1.89451">
        <ele>235</ele>
        <time>2020-06-05T19:28:36Z</time>
      </trkpt>
      <trkpt lat="43.29718" lon="1.89439">
        <ele>235</ele>
        <time>2020-06-05T19:28:38Z</time>
      </trkpt>
      <trkpt lat="43.29719" lon="1.89449">
        <ele>235</ele>
        <time>2020-06-05T19:28:40Z</time>
      </trkpt>
      <trkpt lat="43.29721" lon="1.89453">
        <ele>236</ele>
        <time>2020-06-05T19:28:41Z</time>
      </trkpt>
      <trkpt lat="43.29723" lon="1.89451">
        <ele>235</ele>
        <time>2020-06-05T19:28:42Z</time>
      </trkpt>
      <trkpt lat="43.2972" lon="1.8944">
        <ele>235</ele>
        <time>2020-06-05T19:28:44Z</time>
      </trkpt>
      <trkpt lat="43.29713" lon="1.8944">
        <ele>235</ele>
        <time>2020-06-05T19:28:45Z</time>
      </trkpt>
      <trkpt lat="43.29707" lon="1.89454">
        <ele>236</ele>
        <time>2020-06-05T19:28:48Z</time>
      </trkpt>
      <trkpt lat="43.29721" lon="1.89454">
        <ele>236</ele>
        <time>2020-06-05T19:28:51Z</time>
      </trkpt>
      <trkpt lat="43.29729" lon="1.8944">
        <ele>234</ele>
        <time>2020-06-05T19:28:54Z</time>
      </trkpt>
      <trkpt lat="43.2973" lon="1.89425">
        <ele>233</ele>
        <time>2020-06-05T19:28:57Z</time>
      </trkpt>
      <trkpt lat="43.29727" lon="1.89397">
        <ele>232</ele>
        <time>2020-06-05T19:29:02Z</time>
      </trkpt>
      <trkpt lat="43.29739" lon="1.8939">
        <ele>232</ele>
        <time>2020-06-05T19:29:05Z</time>
      </trkpt>
      <trkpt lat="43.29761" lon="1.89392">
        <ele>231</ele>
        <time>2020-06-05T19:29:10Z</time>
      </trkpt>
      <trkpt lat="43.29787" lon="1.89386">
        <ele>231</ele>
        <time>2020-06-05T19:29:16Z</time>
      </trkpt>
      <trkpt lat="43.29825" lon="1.8937">
        <ele>229</ele>
        <time>2020-06-05T19:29:25Z</time>
      </trkpt>
      <trkpt lat="43.29838" lon="1.89367">
        <ele>229</ele>
        <time>2020-06-05T19:29:28Z</time>
      </trkpt>
      <trkpt lat="43.29849" lon="1.89377">
        <ele>230</ele>
        <time>2020-06-05T19:29:31Z</time>
      </trkpt>
      <trkpt lat="43.29867" lon="1.89383">
        <ele>231</ele>
        <time>2020-06-05T19:29:36Z</time>
      </trkpt>
      <trkpt lat="43.29862" lon="1.89403">
        <ele>233</ele>
        <time>2020-06-05T19:29:39Z</time>
      </trkpt>
      <trkpt lat="43.29858" lon="1.89407">
        <ele>233</ele>
        <time>2020-06-05T19:29:41Z</time>
      </trkpt>
      <trkpt lat="43.29858" lon="1.89437">
        <ele>237</ele>
        <time>2020-06-05T19:29:46Z</time>
      </trkpt>
      <trkpt lat="43.29862" lon="1.89448">
        <ele>238</ele>
        <time>2020-06-05T19:29:48Z</time>
      </trkpt>
      <trkpt lat="43.29876" lon="1.89445">
        <ele>239</ele>
        <time>2020-06-05T19:29:51Z</time>
      </trkpt>
      <trkpt lat="43.2988" lon="1.89456">
        <ele>241</ele>
        <time>2020-06-05T19:29:53Z</time>
      </trkpt>
      <trkpt lat="43.29882" lon="1.89498">
        <ele>246</ele>
        <time>2020-06-05T19:30:00Z</time>
      </trkpt>
      <trkpt lat="43.29872" lon="1.89532">
        <ele>249</ele>
        <time>2020-06-05T19:30:06Z</time>
      </trkpt>
      <trkpt lat="43.29866" lon="1.89568">
        <ele>252</ele>
        <time>2020-06-05T19:30:13Z</time>
      </trkpt>
      <trkpt lat="43.29866" lon="1.89587">
        <ele>254</ele>
        <time>2020-06-05T19:30:16Z</time>
      </trkpt>
      <trkpt lat="43.29858" lon="1.89656">
        <ele>259</ele>
        <time>2020-06-05T19:30:28Z</time>
      </trkpt>
      <trkpt lat="43.29895" lon="1.89789">
        <ele>267</ele>
        <time>2020-06-05T19:30:52Z</time>
      </trkpt>
      <trkpt lat="43.29901" lon="1.89797">
        <ele>266</ele>
        <time>2020-06-05T19:30:54Z</time>
      </trkpt>
      <trkpt lat="43.29903" lon="1.89806">
        <ele>266</ele>
        <time>2020-06-05T19:30:56Z</time>
      </trkpt>
      <trkpt lat="43.29903" lon="1.89818">
        <ele>266</ele>
        <time>2020-06-05T19:30:58Z</time>
      </trkpt>
      <trkpt lat="43.29895" lon="1.89847">
        <ele>267</ele>
        <time>2020-06-05T19:31:03Z</time>
      </trkpt>
      <trkpt lat="43.29889" lon="1.89899">
        <ele>264</ele>
        <time>2020-06-05T19:31:12Z</time>
      </trkpt>
      <trkpt lat="43.29891" lon="1.89909">
        <ele>263</ele>
        <time>2020-06-05T19:31:14Z</time>
      </trkpt>
      <trkpt lat="43.29884" lon="1.89936">
        <ele>262</ele>
        <time>2020-06-05T19:31:19Z</time>
      </trkpt>
      <trkpt lat="43.29897" lon="1.89989">
        <ele>255</ele>
        <time>2020-06-05T19:31:28Z</time>
      </trkpt>
      <trkpt lat="43.29914" lon="1.90032">
        <ele>249</ele>
        <time>2020-06-05T19:31:36Z</time>
      </trkpt>
      <trkpt lat="43.29915" lon="1.90049">
        <ele>247</ele>
        <time>2020-06-05T19:31:39Z</time>
      </trkpt>
      <trkpt lat="43.2991" lon="1.90084">
        <ele>245</ele>
        <time>2020-06-05T19:31:45Z</time>
      </trkpt>
      <trkpt lat="43.29896" lon="1.90115">
        <ele>242</ele>
        <time>2020-06-05T19:31:51Z</time>
      </trkpt>
      <trkpt lat="43.2989" lon="1.90144">
        <ele>239</ele>
        <time>2020-06-05T19:31:57Z</time>
      </trkpt>
      <trkpt lat="43.29889" lon="1.90173">
        <ele>237</ele>
        <time>2020-06-05T19:32:02Z</time>
      </trkpt>
      <trkpt lat="43.29885" lon="1.90199">
        <ele>237</ele>
        <time>2020-06-05T19:32:06Z</time>
      </trkpt>
      <trkpt lat="43.29902" lon="1.90216">
        <ele>236</ele>
        <time>2020-06-05T19:32:11Z</time>
      </trkpt>
      <trkpt lat="43.29904" lon="1.90224">
        <ele>236</ele>
        <time>2020-06-05T19:32:12Z</time>
      </trkpt>
      <trkpt lat="43.29901" lon="1.90235">
        <ele>236</ele>
        <time>2020-06-05T19:32:14Z</time>
      </trkpt>
      <trkpt lat="43.29915" lon="1.90254">
        <ele>236</ele>
        <time>2020-06-05T19:32:19Z</time>
      </trkpt>
      <trkpt lat="43.29918" lon="1.90255">
        <ele>236</ele>
        <time>2020-06-05T19:32:20Z</time>
      </trkpt>
      <trkpt lat="43.29926" lon="1.90248">
        <ele>235</ele>
        <time>2020-06-05T19:32:22Z</time>
      </trkpt>
      <trkpt lat="43.29935" lon="1.90246">
        <ele>235</ele>
        <time>2020-06-05T19:32:24Z</time>
      </trkpt>
      <trkpt lat="43.2998" lon="1.90255">
        <ele>234</ele>
        <time>2020-06-05T19:32:35Z</time>
      </trkpt>
      <trkpt lat="43.30037" lon="1.90234">
        <ele>232</ele>
        <time>2020-06-05T19:32:48Z</time>
      </trkpt>
      <trkpt lat="43.30067" lon="1.90232">
        <ele>230</ele>
        <time>2020-06-05T19:32:55Z</time>
      </trkpt>
      <trkpt lat="43.30102" lon="1.90223">
        <ele>227</ele>
        <time>2020-06-05T19:33:04Z</time>
      </trkpt>
      <trkpt lat="43.30116" lon="1.90216">
        <ele>226</ele>
        <time>2020-06-05T19:33:07Z</time>
      </trkpt>
      <trkpt lat="43.30138" lon="1.90195">
        <ele>223</ele>
        <time>2020-06-05T19:33:14Z</time>
      </trkpt>
      <trkpt lat="43.30152" lon="1.90185">
        <ele>221</ele>
        <time>2020-06-05T19:33:17Z</time>
      </trkpt>
      <trkpt lat="43.30173" lon="1.90178">
        <ele>220</ele>
        <time>2020-06-05T19:33:22Z</time>
      </trkpt>
      <trkpt lat="43.30179" lon="1.90178">
        <ele>220</ele>
        <time>2020-06-05T19:33:24Z</time>
      </trkpt>
      <trkpt lat="43.30185" lon="1.90182">
        <ele>220</ele>
        <time>2020-06-05T19:33:25Z</time>
      </trkpt>
      <trkpt lat="43.30208" lon="1.90237">
        <ele>220</ele>
        <time>2020-06-05T19:33:36Z</time>
      </trkpt>
      <trkpt lat="43.30211" lon="1.90266">
        <ele>221</ele>
        <time>2020-06-05T19:33:41Z</time>
      </trkpt>
      <trkpt lat="43.30208" lon="1.90291">
        <ele>221</ele>
        <time>2020-06-05T19:33:45Z</time>
      </trkpt>
      <trkpt lat="43.30196" lon="1.90299">
        <ele>222</ele>
        <time>2020-06-05T19:33:48Z</time>
      </trkpt>
      <trkpt lat="43.30163" lon="1.903">
        <ele>225</ele>
        <time>2020-06-05T19:33:56Z</time>
      </trkpt>
      <trkpt lat="43.3014" lon="1.90298">
        <ele>227</ele>
        <time>2020-06-05T19:34:01Z</time>
      </trkpt>
      <trkpt lat="43.30113" lon="1.90288">
        <ele>230</ele>
        <time>2020-06-05T19:34:08Z</time>
      </trkpt>
      <trkpt lat="43.30099" lon="1.90306">
        <ele>233</ele>
        <time>2020-06-05T19:34:13Z</time>
      </trkpt>
      <trkpt lat="43.30089" lon="1.9031">
        <ele>234</ele>
        <time>2020-06-05T19:34:15Z</time>
      </trkpt>
      <trkpt lat="43.30061" lon="1.90309">
        <ele>236</ele>
        <time>2020-06-05T19:34:21Z</time>
      </trkpt>
      <trkpt lat="43.30034" lon="1.9032">
        <ele>239</ele>
        <time>2020-06-05T19:34:28Z</time>
      </trkpt>
      <trkpt lat="43.3" lon="1.90324">
        <ele>242</ele>
        <time>2020-06-05T19:34:36Z</time>
      </trkpt>
      <trkpt lat="43.29953" lon="1.90342">
        <ele>245</ele>
        <time>2020-06-05T19:34:47Z</time>
      </trkpt>
      <trkpt lat="43.29937" lon="1.90352">
        <ele>246</ele>
        <time>2020-06-05T19:34:52Z</time>
      </trkpt>
      <trkpt lat="43.29854" lon="1.90449">
        <ele>252</ele>
        <time>2020-06-05T19:35:17Z</time>
      </trkpt>
      <trkpt lat="43.29835" lon="1.9047">
        <ele>254</ele>
        <time>2020-06-05T19:35:23Z</time>
      </trkpt>
      <trkpt lat="43.29814" lon="1.90487">
        <ele>257</ele>
        <time>2020-06-05T19:35:28Z</time>
      </trkpt>
      <trkpt lat="43.29777" lon="1.90529">
        <ele>261</ele>
        <time>2020-06-05T19:35:40Z</time>
      </trkpt>
      <trkpt lat="43.29763" lon="1.90552">
        <ele>262</ele>
        <time>2020-06-05T19:35:45Z</time>
      </trkpt>
      <trkpt lat="43.29752" lon="1.90562">
        <ele>263</ele>
        <time>2020-06-05T19:35:48Z</time>
      </trkpt>
      <trkpt lat="43.2974" lon="1.90553">
        <ele>265</ele>
        <time>2020-06-05T19:35:51Z</time>
      </trkpt>
      <trkpt lat="43.29734" lon="1.90554">
        <ele>265</ele>
        <time>2020-06-05T19:35:52Z</time>
      </trkpt>
      <trkpt lat="43.29713" lon="1.90574">
        <ele>266</ele>
        <time>2020-06-05T19:35:58Z</time>
      </trkpt>
      <trkpt lat="43.29701" lon="1.90605">
        <ele>265</ele>
        <time>2020-06-05T19:36:04Z</time>
      </trkpt>
      <trkpt lat="43.29702" lon="1.90616">
        <ele>265</ele>
        <time>2020-06-05T19:36:06Z</time>
      </trkpt>
      <trkpt lat="43.29726" lon="1.90648">
        <ele>262</ele>
        <time>2020-06-05T19:36:14Z</time>
      </trkpt>
      <trkpt lat="43.29788" lon="1.9071">
        <ele>256</ele>
        <time>2020-06-05T19:36:32Z</time>
      </trkpt>
      <trkpt lat="43.29792" lon="1.90722">
        <ele>256</ele>
        <time>2020-06-05T19:36:34Z</time>
      </trkpt>
      <trkpt lat="43.29793" lon="1.90754">
        <ele>255</ele>
        <time>2020-06-05T19:36:40Z</time>
      </trkpt>
      <trkpt lat="43.2979" lon="1.9085">
        <ele>250</ele>
        <time>2020-06-05T19:36:56Z</time>
      </trkpt>
      <trkpt lat="43.29786" lon="1.90872">
        <ele>249</ele>
        <time>2020-06-05T19:37:00Z</time>
      </trkpt>
      <trkpt lat="43.29773" lon="1.90891">
        <ele>248</ele>
        <time>2020-06-05T19:37:04Z</time>
      </trkpt>
      <trkpt lat="43.29768" lon="1.90919">
        <ele>246</ele>
        <time>2020-06-05T19:37:09Z</time>
      </trkpt>
      <trkpt lat="43.29769" lon="1.90934">
        <ele>244</ele>
        <time>2020-06-05T19:37:12Z</time>
      </trkpt>
      <trkpt lat="43.29766" lon="1.9094">
        <ele>244</ele>
        <time>2020-06-05T19:37:13Z</time>
      </trkpt>
      <trkpt lat="43.29767" lon="1.90944">
        <ele>243</ele>
        <time>2020-06-05T19:37:14Z</time>
      </trkpt>
      <trkpt lat="43.29773" lon="1.90949">
        <ele>242</ele>
        <time>2020-06-05T19:37:15Z</time>
      </trkpt>
      <trkpt lat="43.29776" lon="1.90964">
        <ele>241</ele>
        <time>2020-06-05T19:37:18Z</time>
      </trkpt>
      <trkpt lat="43.29769" lon="1.9098">
        <ele>239</ele>
        <time>2020-06-05T19:37:21Z</time>
      </trkpt>
      <trkpt lat="43.29761" lon="1.91016">
        <ele>237</ele>
        <time>2020-06-05T19:37:27Z</time>
      </trkpt>
      <trkpt lat="43.29755" lon="1.9106">
        <ele>234</ele>
        <time>2020-06-05T19:37:35Z</time>
      </trkpt>
      <trkpt lat="43.29757" lon="1.91116">
        <ele>230</ele>
        <time>2020-06-05T19:37:45Z</time>
      </trkpt>
      <trkpt lat="43.29761" lon="1.91126">
        <ele>229</ele>
        <time>2020-06-05T19:37:47Z</time>
      </trkpt>
      <trkpt lat="43.29762" lon="1.91148">
        <ele>227</ele>
        <time>2020-06-05T19:37:50Z</time>
      </trkpt>
      <trkpt lat="43.29769" lon="1.91174">
        <ele>226</ele>
        <time>2020-06-05T19:37:55Z</time>
      </trkpt>
      <trkpt lat="43.29767" lon="1.91214">
        <ele>225</ele>
        <time>2020-06-05T19:38:02Z</time>
      </trkpt>
      <trkpt lat="43.29769" lon="1.91243">
        <ele>225</ele>
        <time>2020-06-05T19:38:07Z</time>
      </trkpt>
      <trkpt lat="43.29766" lon="1.91258">
        <ele>224</ele>
        <time>2020-06-05T19:38:09Z</time>
      </trkpt>
      <trkpt lat="43.29769" lon="1.91268">
        <ele>224</ele>
        <time>2020-06-05T19:38:11Z</time>
      </trkpt>
      <trkpt lat="43.29769" lon="1.91294">
        <ele>223</ele>
        <time>2020-06-05T19:38:16Z</time>
      </trkpt>
      <trkpt lat="43.29785" lon="1.91345">
        <ele>221</ele>
        <time>2020-06-05T19:38:25Z</time>
      </trkpt>
      <trkpt lat="43.29795" lon="1.91366">
        <ele>220</ele>
        <time>2020-06-05T19:38:29Z</time>
      </trkpt>
      <trkpt lat="43.29801" lon="1.91394">
        <ele>219</ele>
        <time>2020-06-05T19:38:34Z</time>
      </trkpt>
      <trkpt lat="43.29801" lon="1.91405">
        <ele>218</ele>
        <time>2020-06-05T19:38:36Z</time>
      </trkpt>
      <trkpt lat="43.29792" lon="1.91417">
        <ele>217</ele>
        <time>2020-06-05T19:38:39Z</time>
      </trkpt>
      <trkpt lat="43.29795" lon="1.91427">
        <ele>216</ele>
        <time>2020-06-05T19:38:41Z</time>
      </trkpt>
      <trkpt lat="43.29792" lon="1.91476">
        <ele>210</ele>
        <time>2020-06-05T19:38:49Z</time>
      </trkpt>
      <trkpt lat="43.29791" lon="1.91483">
        <ele>209</ele>
        <time>2020-06-05T19:38:51Z</time>
      </trkpt>
      <trkpt lat="43.29787" lon="1.91487">
        <ele>209</ele>
        <time>2020-06-05T19:38:52Z</time>
      </trkpt>
      <trkpt lat="43.29771" lon="1.91488">
        <ele>209</ele>
        <time>2020-06-05T19:38:55Z</time>
      </trkpt>
      <trkpt lat="43.29757" lon="1.9148">
        <ele>211</ele>
        <time>2020-06-05T19:38:59Z</time>
      </trkpt>
      <trkpt lat="43.2973" lon="1.91476">
        <ele>210</ele>
        <time>2020-06-05T19:39:05Z</time>
      </trkpt>
      <trkpt lat="43.29727" lon="1.91478">
        <ele>210</ele>
        <time>2020-06-05T19:39:06Z</time>
      </trkpt>
      <trkpt lat="43.29727" lon="1.91489">
        <ele>209</ele>
        <time>2020-06-05T19:39:08Z</time>
      </trkpt>
      <trkpt lat="43.29769" lon="1.91548">
        <ele>204</ele>
        <time>2020-06-05T19:39:22Z</time>
      </trkpt>
      <trkpt lat="43.2977" lon="1.91555">
        <ele>203</ele>
        <time>2020-06-05T19:39:23Z</time>
      </trkpt>
      <trkpt lat="43.29762" lon="1.91569">
        <ele>202</ele>
        <time>2020-06-05T19:39:26Z</time>
      </trkpt>
      <trkpt lat="43.29719" lon="1.91602">
        <ele>202</ele>
        <time>2020-06-05T19:39:38Z</time>
      </trkpt>
      <trkpt lat="43.29711" lon="1.91604">
        <ele>202</ele>
        <time>2020-06-05T19:39:40Z</time>
      </trkpt>
      <trkpt lat="43.29677" lon="1.91601">
        <ele>204</ele>
        <time>2020-06-05T19:39:48Z</time>
      </trkpt>
      <trkpt lat="43.29646" lon="1.91611">
        <ele>206</ele>
        <time>2020-06-05T19:39:55Z</time>
      </trkpt>
      <trkpt lat="43.29628" lon="1.9161">
        <ele>208</ele>
        <time>2020-06-05T19:39:59Z</time>
      </trkpt>
      <trkpt lat="43.29584" lon="1.91599">
        <ele>212</ele>
        <time>2020-06-05T19:40:10Z</time>
      </trkpt>
      <trkpt lat="43.29551" lon="1.91594">
        <ele>214</ele>
        <time>2020-06-05T19:40:17Z</time>
      </trkpt>
      <trkpt lat="43.29515" lon="1.91593">
        <ele>216</ele>
        <time>2020-06-05T19:40:26Z</time>
      </trkpt>
      <trkpt lat="43.29444" lon="1.91576">
        <ele>223</ele>
        <time>2020-06-05T19:40:43Z</time>
      </trkpt>
      <trkpt lat="43.29426" lon="1.91568">
        <ele>225</ele>
        <time>2020-06-05T19:40:47Z</time>
      </trkpt>
      <trkpt lat="43.29405" lon="1.91542">
        <ele>224</ele>
        <time>2020-06-05T19:40:54Z</time>
      </trkpt>
      <trkpt lat="43.2939" lon="1.91533">
        <ele>225</ele>
        <time>2020-06-05T19:40:57Z</time>
      </trkpt>
      <trkpt lat="43.29375" lon="1.91539">
        <ele>226</ele>
        <time>2020-06-05T19:41:01Z</time>
      </trkpt>
      <trkpt lat="43.29357" lon="1.91554">
        <ele>229</ele>
        <time>2020-06-05T19:41:06Z</time>
      </trkpt>
      <trkpt lat="43.2934" lon="1.91576">
        <ele>232</ele>
        <time>2020-06-05T19:41:12Z</time>
      </trkpt>
      <trkpt lat="43.29309" lon="1.91629">
        <ele>240</ele>
        <time>2020-06-05T19:41:23Z</time>
      </trkpt>
      <trkpt lat="43.29286" lon="1.91656">
        <ele>243</ele>
        <time>2020-06-05T19:41:30Z</time>
      </trkpt>
      <trkpt lat="43.29256" lon="1.91678">
        <ele>246</ele>
        <time>2020-06-05T19:41:38Z</time>
      </trkpt>
      <trkpt lat="43.29217" lon="1.91716">
        <ele>252</ele>
        <time>2020-06-05T19:41:49Z</time>
      </trkpt>
      <trkpt lat="43.29203" lon="1.9172">
        <ele>253</ele>
        <time>2020-06-05T19:41:53Z</time>
      </trkpt>
      <trkpt lat="43.29199" lon="1.91725">
        <ele>254</ele>
        <time>2020-06-05T19:41:54Z</time>
      </trkpt>
      <trkpt lat="43.29202" lon="1.91743">
        <ele>255</ele>
        <time>2020-06-05T19:41:57Z</time>
      </trkpt>
      <trkpt lat="43.29196" lon="1.91767">
        <ele>254</ele>
        <time>2020-06-05T19:42:01Z</time>
      </trkpt>
      <trkpt lat="43.29164" lon="1.91769">
        <ele>254</ele>
        <time>2020-06-05T19:42:09Z</time>
      </trkpt>
      <trkpt lat="43.29157" lon="1.91764">
        <ele>254</ele>
        <time>2020-06-05T19:42:11Z</time>
      </trkpt>
      <trkpt lat="43.2915" lon="1.91754">
        <ele>255</ele>
        <time>2020-06-05T19:42:13Z</time>
      </trkpt>
      <trkpt lat="43.29124" lon="1.9171">
        <ele>255</ele>
        <time>2020-06-05T19:42:23Z</time>
      </trkpt>
      <trkpt lat="43.29075" lon="1.91662">
        <ele>260</ele>
        <time>2020-06-05T19:42:37Z</time>
      </trkpt>
      <trkpt lat="43.29057" lon="1.91656">
        <ele>257</ele>
        <time>2020-06-05T19:42:41Z</time>
      </trkpt>
      <trkpt lat="43.29034" lon="1.91655">
        <ele>252</ele>
        <time>2020-06-05T19:42:46Z</time>
      </trkpt>
      <trkpt lat="43.29023" lon="1.91652">
        <ele>250</ele>
        <time>2020-06-05T19:42:49Z</time>
      </trkpt>
      <trkpt lat="43.29013" lon="1.91642">
        <ele>250</ele>
        <time>2020-06-05T19:42:52Z</time>
      </trkpt>
      <trkpt lat="43.29013" lon="1.9163">
        <ele>251</ele>
        <time>2020-06-05T19:42:54Z</time>
      </trkpt>
      <trkpt lat="43.29018" lon="1.91604">
        <ele>255</ele>
        <time>2020-06-05T19:42:58Z</time>
      </trkpt>
      <trkpt lat="43.29012" lon="1.91573">
        <ele>257</ele>
        <time>2020-06-05T19:43:04Z</time>
      </trkpt>
      <trkpt lat="43.29004" lon="1.91554">
        <ele>257</ele>
        <time>2020-06-05T19:43:08Z</time>
      </trkpt>
      <trkpt lat="43.28987" lon="1.91497">
        <ele>256</ele>
        <time>2020-06-05T19:43:18Z</time>
      </trkpt>
      <trkpt lat="43.2898" lon="1.91496">
        <ele>255</ele>
        <time>2020-06-05T19:43:20Z</time>
      </trkpt>
      <trkpt lat="43.28963" lon="1.91483">
        <ele>251</ele>
        <time>2020-06-05T19:43:24Z</time>
      </trkpt>
      <trkpt lat="43.28928" lon="1.91482">
        <ele>243</ele>
        <time>2020-06-05T19:43:33Z</time>
      </trkpt>
      <trkpt lat="43.28915" lon="1.91485">
        <ele>241</ele>
        <time>2020-06-05T19:43:36Z</time>
      </trkpt>
      <trkpt lat="43.28906" lon="1.91493">
        <ele>239</ele>
        <time>2020-06-05T19:43:38Z</time>
      </trkpt>
      <trkpt lat="43.28898" lon="1.91492">
        <ele>238</ele>
        <time>2020-06-05T19:43:40Z</time>
      </trkpt>
      <trkpt lat="43.28884" lon="1.91495">
        <ele>235</ele>
        <time>2020-06-05T19:43:43Z</time>
      </trkpt>
      <trkpt lat="43.28877" lon="1.91499">
        <ele>233</ele>
        <time>2020-06-05T19:43:45Z</time>
      </trkpt>
      <trkpt lat="43.28869" lon="1.91499">
        <ele>232</ele>
        <time>2020-06-05T19:43:47Z</time>
      </trkpt>
      <trkpt lat="43.28858" lon="1.91495">
        <ele>230</ele>
        <time>2020-06-05T19:43:50Z</time>
      </trkpt>
      <trkpt lat="43.28835" lon="1.91513">
        <ele>225</ele>
        <time>2020-06-05T19:43:56Z</time>
      </trkpt>
      <trkpt lat="43.28825" lon="1.91545">
        <ele>222</ele>
        <time>2020-06-05T19:44:02Z</time>
      </trkpt>
      <trkpt lat="43.28806" lon="1.91574">
        <ele>220</ele>
        <time>2020-06-05T19:44:08Z</time>
      </trkpt>
      <trkpt lat="43.28804" lon="1.91575">
        <ele>220</ele>
        <time>2020-06-05T19:44:09Z</time>
      </trkpt>
      <trkpt lat="43.28801" lon="1.91572">
        <ele>219</ele>
        <time>2020-06-05T19:44:10Z</time>
      </trkpt>
      <trkpt lat="43.2881" lon="1.91545">
        <ele>221</ele>
        <time>2020-06-05T19:44:15Z</time>
      </trkpt>
      <trkpt lat="43.28849" lon="1.91466">
        <ele>228</ele>
        <time>2020-06-05T19:44:31Z</time>
      </trkpt>
      <trkpt lat="43.28858" lon="1.9145">
        <ele>230</ele>
        <time>2020-06-05T19:44:34Z</time>
      </trkpt>
      <trkpt lat="43.2887" lon="1.9144">
        <ele>233</ele>
        <time>2020-06-05T19:44:38Z</time>
      </trkpt>
      <trkpt lat="43.2891" lon="1.91421">
        <ele>241</ele>
        <time>2020-06-05T19:44:48Z</time>
      </trkpt>
      <trkpt lat="43.28922" lon="1.91418">
        <ele>243</ele>
        <time>2020-06-05T19:44:50Z</time>
      </trkpt>
      <trkpt lat="43.28934" lon="1.9142">
        <ele>245</ele>
        <time>2020-06-05T19:44:53Z</time>
      </trkpt>
      <trkpt lat="43.28976" lon="1.91443">
        <ele>252</ele>
        <time>2020-06-05T19:45:04Z</time>
      </trkpt>
      <trkpt lat="43.29027" lon="1.91439">
        <ele>261</ele>
        <time>2020-06-05T19:45:16Z</time>
      </trkpt>
      <trkpt lat="43.29037" lon="1.91436">
        <ele>263</ele>
        <time>2020-06-05T19:45:18Z</time>
      </trkpt>
      <trkpt lat="43.2905" lon="1.91413">
        <ele>264</ele>
        <time>2020-06-05T19:45:23Z</time>
      </trkpt>
      <trkpt lat="43.29056" lon="1.91391">
        <ele>264</ele>
        <time>2020-06-05T19:45:27Z</time>
      </trkpt>
      <trkpt lat="43.29058" lon="1.9135">
        <ele>263</ele>
        <time>2020-06-05T19:45:34Z</time>
      </trkpt>
      <trkpt lat="43.29053" lon="1.91283">
        <ele>260</ele>
        <time>2020-06-05T19:45:45Z</time>
      </trkpt>
      <trkpt lat="43.29056" lon="1.91198">
        <ele>260</ele>
        <time>2020-06-05T19:46:00Z</time>
      </trkpt>
      <trkpt lat="43.29052" lon="1.9115">
        <ele>261</ele>
        <time>2020-06-05T19:46:08Z</time>
      </trkpt>
      <trkpt lat="43.29048" lon="1.91146">
        <ele>262</ele>
        <time>2020-06-05T19:46:09Z</time>
      </trkpt>
      <trkpt lat="43.29023" lon="1.91075">
        <ele>268</ele>
        <time>2020-06-05T19:46:23Z</time>
      </trkpt>
      <trkpt lat="43.29014" lon="1.91056">
        <ele>269</ele>
        <time>2020-06-05T19:46:27Z</time>
      </trkpt>
      <trkpt lat="43.29017" lon="1.9103">
        <ele>270</ele>
        <time>2020-06-05T19:46:31Z</time>
      </trkpt>
      <trkpt lat="43.29021" lon="1.91025">
        <ele>270</ele>
        <time>2020-06-05T19:46:32Z</time>
      </trkpt>
      <trkpt lat="43.2902" lon="1.91016">
        <ele>271</ele>
        <time>2020-06-05T19:46:34Z</time>
      </trkpt>
      <trkpt lat="43.29014" lon="1.91009">
        <ele>271</ele>
        <time>2020-06-05T19:46:36Z</time>
      </trkpt>
      <trkpt lat="43.28997" lon="1.91005">
        <ele>273</ele>
        <time>2020-06-05T19:46:40Z</time>
      </trkpt>
      <trkpt lat="43.28918" lon="1.90972">
        <ele>271</ele>
        <time>2020-06-05T19:46:59Z</time>
      </trkpt>
      <trkpt lat="43.28886" lon="1.9094">
        <ele>269</ele>
        <time>2020-06-05T19:47:08Z</time>
      </trkpt>
      <trkpt lat="43.28874" lon="1.90934">
        <ele>269</ele>
        <time>2020-06-05T19:47:11Z</time>
      </trkpt>
      <trkpt lat="43.2885" lon="1.9093">
        <ele>269</ele>
        <time>2020-06-05T19:47:17Z</time>
      </trkpt>
      <trkpt lat="43.28845" lon="1.90919">
        <ele>270</ele>
        <time>2020-06-05T19:47:19Z</time>
      </trkpt>
      <trkpt lat="43.28836" lon="1.90882">
        <ele>265</ele>
        <time>2020-06-05T19:47:26Z</time>
      </trkpt>
      <trkpt lat="43.28811" lon="1.90842">
        <ele>252</ele>
        <time>2020-06-05T19:47:35Z</time>
      </trkpt>
      <trkpt lat="43.28804" lon="1.90815">
        <ele>246</ele>
        <time>2020-06-05T19:47:40Z</time>
      </trkpt>
      <trkpt lat="43.28806" lon="1.90814">
        <ele>247</ele>
        <time>2020-06-05T19:47:40Z</time>
      </trkpt>
      <trkpt lat="43.28804" lon="1.90801">
        <ele>244</ele>
        <time>2020-06-05T19:47:42Z</time>
      </trkpt>
      <trkpt lat="43.288" lon="1.9079">
        <ele>241</ele>
        <time>2020-06-05T19:47:44Z</time>
      </trkpt>
      <trkpt lat="43.28808" lon="1.90782">
        <ele>242</ele>
        <time>2020-06-05T19:47:47Z</time>
      </trkpt>
      <trkpt lat="43.2881" lon="1.90776">
        <ele>241</ele>
        <time>2020-06-05T19:47:48Z</time>
      </trkpt>
      <trkpt lat="43.28805" lon="1.90774">
        <ele>240</ele>
        <time>2020-06-05T19:47:49Z</time>
      </trkpt>
      <trkpt lat="43.28793" lon="1.90734">
        <ele>232</ele>
        <time>2020-06-05T19:47:56Z</time>
      </trkpt>
      <trkpt lat="43.28786" lon="1.90671">
        <ele>226</ele>
        <time>2020-06-05T19:48:07Z</time>
      </trkpt>
      <trkpt lat="43.28803" lon="1.90668">
        <ele>226</ele>
        <time>2020-06-05T19:48:11Z</time>
      </trkpt>
      <trkpt lat="43.28825" lon="1.90676">
        <ele>229</ele>
        <time>2020-06-05T19:48:17Z</time>
      </trkpt>
      <trkpt lat="43.28856" lon="1.90707">
        <ele>235</ele>
        <time>2020-06-05T19:48:25Z</time>
      </trkpt>
      <trkpt lat="43.2888" lon="1.90735">
        <ele>240</ele>
        <time>2020-06-05T19:48:33Z</time>
      </trkpt>
      <trkpt lat="43.28897" lon="1.90748">
        <ele>241</ele>
        <time>2020-06-05T19:48:37Z</time>
      </trkpt>
      <trkpt lat="43.28917" lon="1.90757">
        <ele>243</ele>
        <time>2020-06-05T19:48:42Z</time>
      </trkpt>
      <trkpt lat="43.28937" lon="1.90752">
        <ele>244</ele>
        <time>2020-06-05T19:48:47Z</time>
      </trkpt>
      <trkpt lat="43.28956" lon="1.90739">
        <ele>245</ele>
        <time>2020-06-05T19:48:52Z</time>
      </trkpt>
      <trkpt lat="43.28995" lon="1.90721">
        <ele>248</ele>
        <time>2020-06-05T19:49:02Z</time>
      </trkpt>
      <trkpt lat="43.2904" lon="1.90733">
        <ele>250</ele>
        <time>2020-06-05T19:49:12Z</time>
      </trkpt>
      <trkpt lat="43.29063" lon="1.90742">
        <ele>250</ele>
        <time>2020-06-05T19:49:18Z</time>
      </trkpt>
      <trkpt lat="43.29072" lon="1.90747">
        <ele>250</ele>
        <time>2020-06-05T19:49:20Z</time>
      </trkpt>
      <trkpt lat="43.29093" lon="1.90767">
        <ele>252</ele>
        <time>2020-06-05T19:49:26Z</time>
      </trkpt>
      <trkpt lat="43.29098" lon="1.90783">
        <ele>253</ele>
        <time>2020-06-05T19:49:29Z</time>
      </trkpt>
      <trkpt lat="43.29097" lon="1.90803">
        <ele>253</ele>
        <time>2020-06-05T19:49:33Z</time>
      </trkpt>
      <trkpt lat="43.29092" lon="1.90825">
        <ele>253</ele>
        <time>2020-06-05T19:49:36Z</time>
      </trkpt>
      <trkpt lat="43.29093" lon="1.90851">
        <ele>255</ele>
        <time>2020-06-05T19:49:41Z</time>
      </trkpt>
      <trkpt lat="43.29104" lon="1.90956">
        <ele>264</ele>
        <time>2020-06-05T19:49:59Z</time>
      </trkpt>
      <trkpt lat="43.29105" lon="1.91001">
        <ele>265</ele>
        <time>2020-06-05T19:50:07Z</time>
      </trkpt>
      <trkpt lat="43.29097" lon="1.91037">
        <ele>266</ele>
        <time>2020-06-05T19:50:13Z</time>
      </trkpt>
      <trkpt lat="43.29099" lon="1.91038">
        <ele>266</ele>
        <time>2020-06-05T19:50:13Z</time>
      </trkpt>
      <trkpt lat="43.29118" lon="1.91016">
        <ele>265</ele>
        <time>2020-06-05T19:50:19Z</time>
      </trkpt>
      <trkpt lat="43.29149" lon="1.90961">
        <ele>266</ele>
        <time>2020-06-05T19:50:31Z</time>
      </trkpt>
      <trkpt lat="43.29155" lon="1.90944">
        <ele>268</ele>
        <time>2020-06-05T19:50:34Z</time>
      </trkpt>
      <trkpt lat="43.29159" lon="1.90918">
        <ele>270</ele>
        <time>2020-06-05T19:50:39Z</time>
      </trkpt>
      <trkpt lat="43.2916" lon="1.90889">
        <ele>269</ele>
        <time>2020-06-05T19:50:44Z</time>
      </trkpt>
      <trkpt lat="43.29164" lon="1.90863">
        <ele>268</ele>
        <time>2020-06-05T19:50:48Z</time>
      </trkpt>
      <trkpt lat="43.29179" lon="1.90846">
        <ele>269</ele>
        <time>2020-06-05T19:50:53Z</time>
      </trkpt>
      <trkpt lat="43.29196" lon="1.90839">
        <ele>271</ele>
        <time>2020-06-05T19:50:57Z</time>
      </trkpt>
      <trkpt lat="43.29221" lon="1.90822">
        <ele>273</ele>
        <time>2020-06-05T19:51:03Z</time>
      </trkpt>
      <trkpt lat="43.29243" lon="1.90811">
        <ele>276</ele>
        <time>2020-06-05T19:51:09Z</time>
      </trkpt>
      <trkpt lat="43.29253" lon="1.90799">
        <ele>276</ele>
        <time>2020-06-05T19:51:12Z</time>
      </trkpt>
      <trkpt lat="43.29264" lon="1.90777">
        <ele>274</ele>
        <time>2020-06-05T19:51:17Z</time>
      </trkpt>
      <trkpt lat="43.29302" lon="1.90676">
        <ele>276</ele>
        <time>2020-06-05T19:51:36Z</time>
      </trkpt>
      <trkpt lat="43.29341" lon="1.90594">
        <ele>287</ele>
        <time>2020-06-05T19:51:53Z</time>
      </trkpt>
      <trkpt lat="43.29358" lon="1.90563">
        <ele>287</ele>
        <time>2020-06-05T19:51:59Z</time>
      </trkpt>
      <trkpt lat="43.29376" lon="1.90539">
        <ele>287</ele>
        <time>2020-06-05T19:52:05Z</time>
      </trkpt>
      <trkpt lat="43.294" lon="1.90488">
        <ele>289</ele>
        <time>2020-06-05T19:52:15Z</time>
      </trkpt>
      <trkpt lat="43.29418" lon="1.90469">
        <ele>289</ele>
        <time>2020-06-05T19:52:21Z</time>
      </trkpt>
      <trkpt lat="43.29438" lon="1.90464">
        <ele>286</ele>
        <time>2020-06-05T19:52:25Z</time>
      </trkpt>
      <trkpt lat="43.29457" lon="1.90455">
        <ele>284</ele>
        <time>2020-06-05T19:52:30Z</time>
      </trkpt>
      <trkpt lat="43.29465" lon="1.90445">
        <ele>283</ele>
        <time>2020-06-05T19:52:33Z</time>
      </trkpt>
      <trkpt lat="43.29488" lon="1.90398">
        <ele>280</ele>
        <time>2020-06-05T19:52:42Z</time>
      </trkpt>
      <trkpt lat="43.29485" lon="1.90392">
        <ele>280</ele>
        <time>2020-06-05T19:52:43Z</time>
      </trkpt>
      <trkpt lat="43.29468" lon="1.90377">
        <ele>282</ele>
        <time>2020-06-05T19:52:48Z</time>
      </trkpt>
      <trkpt lat="43.29442" lon="1.90361">
        <ele>287</ele>
        <time>2020-06-05T19:52:55Z</time>
      </trkpt>
      <trkpt lat="43.29429" lon="1.90349">
        <ele>289</ele>
        <time>2020-06-05T19:52:58Z</time>
      </trkpt>
      <trkpt lat="43.2936" lon="1.90256">
        <ele>294</ele>
        <time>2020-06-05T19:53:21Z</time>
      </trkpt>
      <trkpt lat="43.2934" lon="1.90223">
        <ele>293</ele>
        <time>2020-06-05T19:53:28Z</time>
      </trkpt>
      <trkpt lat="43.29309" lon="1.90183">
        <ele>289</ele>
        <time>2020-06-05T19:53:38Z</time>
      </trkpt>
      <trkpt lat="43.29303" lon="1.9018">
        <ele>289</ele>
        <time>2020-06-05T19:53:40Z</time>
      </trkpt>
      <trkpt lat="43.29273" lon="1.90181">
        <ele>286</ele>
        <time>2020-06-05T19:53:47Z</time>
      </trkpt>
      <trkpt lat="43.29264" lon="1.90188">
        <ele>285</ele>
        <time>2020-06-05T19:53:49Z</time>
      </trkpt>
      <trkpt lat="43.29247" lon="1.90251">
        <ele>286</ele>
        <time>2020-06-05T19:54:01Z</time>
      </trkpt>
      <trkpt lat="43.29239" lon="1.9027">
        <ele>285</ele>
        <time>2020-06-05T19:54:04Z</time>
      </trkpt>
      <trkpt lat="43.29231" lon="1.90269">
        <ele>285</ele>
        <time>2020-06-05T19:54:06Z</time>
      </trkpt>
      <trkpt lat="43.29211" lon="1.90256">
        <ele>285</ele>
        <time>2020-06-05T19:54:11Z</time>
      </trkpt>
      <trkpt lat="43.29196" lon="1.90258">
        <ele>284</ele>
        <time>2020-06-05T19:54:15Z</time>
      </trkpt>
      <trkpt lat="43.29184" lon="1.90278">
        <ele>284</ele>
        <time>2020-06-05T19:54:19Z</time>
      </trkpt>
      <trkpt lat="43.29174" lon="1.90309">
        <ele>284</ele>
        <time>2020-06-05T19:54:25Z</time>
      </trkpt>
      <trkpt lat="43.29164" lon="1.90345">
        <ele>284</ele>
        <time>2020-06-05T19:54:32Z</time>
      </trkpt>
      <trkpt lat="43.29159" lon="1.90373">
        <ele>283</ele>
        <time>2020-06-05T19:54:37Z</time>
      </trkpt>
      <trkpt lat="43.29146" lon="1.90382">
        <ele>282</ele>
        <time>2020-06-05T19:54:40Z</time>
      </trkpt>
      <trkpt lat="43.29113" lon="1.90382">
        <ele>277</ele>
        <time>2020-06-05T19:54:48Z</time>
      </trkpt>
      <trkpt lat="43.29058" lon="1.90366">
        <ele>268</ele>
        <time>2020-06-05T19:55:01Z</time>
      </trkpt>
      <trkpt lat="43.2904" lon="1.90367">
        <ele>266</ele>
        <time>2020-06-05T19:55:05Z</time>
      </trkpt>
      <trkpt lat="43.28993" lon="1.90358">
        <ele>260</ele>
        <time>2020-06-05T19:55:16Z</time>
      </trkpt>
      <trkpt lat="43.28978" lon="1.90364">
        <ele>259</ele>
        <time>2020-06-05T19:55:20Z</time>
      </trkpt>
      <trkpt lat="43.28953" lon="1.90405">
        <ele>257</ele>
        <time>2020-06-05T19:55:29Z</time>
      </trkpt>
      <trkpt lat="43.28944" lon="1.90416">
        <ele>257</ele>
        <time>2020-06-05T19:55:32Z</time>
      </trkpt>
      <trkpt lat="43.28926" lon="1.90461">
        <ele>254</ele>
        <time>2020-06-05T19:55:40Z</time>
      </trkpt>
      <trkpt lat="43.28914" lon="1.90482">
        <ele>252</ele>
        <time>2020-06-05T19:55:45Z</time>
      </trkpt>
      <trkpt lat="43.28891" lon="1.90511">
        <ele>247</ele>
        <time>2020-06-05T19:55:52Z</time>
      </trkpt>
      <trkpt lat="43.28872" lon="1.90542">
        <ele>242</ele>
        <time>2020-06-05T19:55:59Z</time>
      </trkpt>
      <trkpt lat="43.28853" lon="1.90537">
        <ele>239</ele>
        <time>2020-06-05T19:56:04Z</time>
      </trkpt>
      <trkpt lat="43.28842" lon="1.90526">
        <ele>239</ele>
        <time>2020-06-05T19:56:07Z</time>
      </trkpt>
      <trkpt lat="43.28826" lon="1.90494">
        <ele>238</ele>
        <time>2020-06-05T19:56:13Z</time>
      </trkpt>
      <trkpt lat="43.28821" lon="1.905">
        <ele>237</ele>
        <time>2020-06-05T19:56:15Z</time>
      </trkpt>
      <trkpt lat="43.28802" lon="1.90528">
        <ele>233</ele>
        <time>2020-06-05T19:56:21Z</time>
      </trkpt>
      <trkpt lat="43.28793" lon="1.90574">
        <ele>230</ele>
        <time>2020-06-05T19:56:29Z</time>
      </trkpt>
      <trkpt lat="43.2878" lon="1.90583">
        <ele>228</ele>
        <time>2020-06-05T19:56:33Z</time>
      </trkpt>
      <trkpt lat="43.28774" lon="1.90593">
        <ele>227</ele>
        <time>2020-06-05T19:56:35Z</time>
      </trkpt>
      <trkpt lat="43.28757" lon="1.90681">
        <ele>224</ele>
        <time>2020-06-05T19:56:51Z</time>
      </trkpt>
      <trkpt lat="43.28727" lon="1.90797">
        <ele>228</ele>
        <time>2020-06-05T19:57:11Z</time>
      </trkpt>
      <trkpt lat="43.28714" lon="1.90882">
        <ele>229</ele>
        <time>2020-06-05T19:57:26Z</time>
      </trkpt>
      <trkpt lat="43.28708" lon="1.90946">
        <ele>227</ele>
        <time>2020-06-05T19:57:37Z</time>
      </trkpt>
      <trkpt lat="43.28705" lon="1.90944">
        <ele>226</ele>
        <time>2020-06-05T19:57:38Z</time>
      </trkpt>
      <trkpt lat="43.28708" lon="1.90844">
        <ele>227</ele>
        <time>2020-06-05T19:57:55Z</time>
      </trkpt>
      <trkpt lat="43.28705" lon="1.90825">
        <ele>225</ele>
        <time>2020-06-05T19:57:58Z</time>
      </trkpt>
      <trkpt lat="43.28693" lon="1.9081">
        <ele>223</ele>
        <time>2020-06-05T19:58:02Z</time>
      </trkpt>
      <trkpt lat="43.28657" lon="1.90781">
        <ele>219</ele>
        <time>2020-06-05T19:58:12Z</time>
      </trkpt>
      <trkpt lat="43.28647" lon="1.90769">
        <ele>219</ele>
        <time>2020-06-05T19:58:15Z</time>
      </trkpt>
      <trkpt lat="43.28627" lon="1.90724">
        <ele>221</ele>
        <time>2020-06-05T19:58:24Z</time>
      </trkpt>
      <trkpt lat="43.28557" lon="1.90608">
        <ele>233</ele>
        <time>2020-06-05T19:58:50Z</time>
      </trkpt>
      <trkpt lat="43.28537" lon="1.9058">
        <ele>233</ele>
        <time>2020-06-05T19:58:56Z</time>
      </trkpt>
      <trkpt lat="43.28518" lon="1.90546">
        <ele>233</ele>
        <time>2020-06-05T19:59:03Z</time>
      </trkpt>
      <trkpt lat="43.28512" lon="1.90519">
        <ele>234</ele>
        <time>2020-06-05T19:59:08Z</time>
      </trkpt>
      <trkpt lat="43.28502" lon="1.90419">
        <ele>235</ele>
        <time>2020-06-05T19:59:25Z</time>
      </trkpt>
      <trkpt lat="43.28492" lon="1.90394">
        <ele>236</ele>
        <time>2020-06-05T19:59:30Z</time>
      </trkpt>
      <trkpt lat="43.28471" lon="1.90375">
        <ele>237</ele>
        <time>2020-06-05T19:59:36Z</time>
      </trkpt>
      <trkpt lat="43.28449" lon="1.9036">
        <ele>237</ele>
        <time>2020-06-05T19:59:42Z</time>
      </trkpt>
      <trkpt lat="43.28412" lon="1.90308">
        <ele>240</ele>
        <time>2020-06-05T19:59:54Z</time>
      </trkpt>
      <trkpt lat="43.28375" lon="1.90277">
        <ele>243</ele>
        <time>2020-06-05T20:00:04Z</time>
      </trkpt>
      <trkpt lat="43.28356" lon="1.90265">
        <ele>243</ele>
        <time>2020-06-05T20:00:09Z</time>
      </trkpt>
      <trkpt lat="43.28314" lon="1.90247">
        <ele>244</ele>
        <time>2020-06-05T20:00:20Z</time>
      </trkpt>
      <trkpt lat="43.28252" lon="1.90212">
        <ele>251</ele>
        <time>2020-06-05T20:00:35Z</time>
      </trkpt>
      <trkpt lat="43.28211" lon="1.90193">
        <ele>254</ele>
        <time>2020-06-05T20:00:45Z</time>
      </trkpt>
      <trkpt lat="43.28171" lon="1.90156">
        <ele>255</ele>
        <time>2020-06-05T20:00:57Z</time>
      </trkpt>
      <trkpt lat="43.28145" lon="1.90099">
        <ele>260</ele>
        <time>2020-06-05T20:01:08Z</time>
      </trkpt>
      <trkpt lat="43.2813" lon="1.90086">
        <ele>260</ele>
        <time>2020-06-05T20:01:12Z</time>
      </trkpt>
      <trkpt lat="43.28091" lon="1.90076">
        <ele>262</ele>
        <time>2020-06-05T20:01:21Z</time>
      </trkpt>
      <trkpt lat="43.2807" lon="1.90068">
        <ele>263</ele>
        <time>2020-06-05T20:01:26Z</time>
      </trkpt>
      <trkpt lat="43.28043" lon="1.90032">
        <ele>267</ele>
        <time>2020-06-05T20:01:35Z</time>
      </trkpt>
      <trkpt lat="43.28045" lon="1.90068">
        <ele>265</ele>
        <time>2020-06-05T20:01:41Z</time>
      </trkpt>
      <trkpt lat="43.2805" lon="1.90078">
        <ele>264</ele>
        <time>2020-06-05T20:01:43Z</time>
      </trkpt>
      <trkpt lat="43.28051" lon="1.90089">
        <ele>264</ele>
        <time>2020-06-05T20:01:45Z</time>
      </trkpt>
      <trkpt lat="43.28055" lon="1.90098">
        <ele>264</ele>
        <time>2020-06-05T20:01:47Z</time>
      </trkpt>
      <trkpt lat="43.28055" lon="1.90113">
        <ele>264</ele>
        <time>2020-06-05T20:01:50Z</time>
      </trkpt>
      <trkpt lat="43.28066" lon="1.90134">
        <ele>265</ele>
        <time>2020-06-05T20:01:54Z</time>
      </trkpt>
      <trkpt lat="43.28074" lon="1.9014">
        <ele>265</ele>
        <time>2020-06-05T20:01:56Z</time>
      </trkpt>
      <trkpt lat="43.28096" lon="1.90149">
        <ele>263</ele>
        <time>2020-06-05T20:02:02Z</time>
      </trkpt>
      <trkpt lat="43.28106" lon="1.9016">
        <ele>263</ele>
        <time>2020-06-05T20:02:05Z</time>
      </trkpt>
      <trkpt lat="43.28104" lon="1.90164">
        <ele>263</ele>
        <time>2020-06-05T20:02:05Z</time>
      </trkpt>
      <trkpt lat="43.28097" lon="1.90162">
        <ele>264</ele>
        <time>2020-06-05T20:02:07Z</time>
      </trkpt>
      <trkpt lat="43.28098" lon="1.90159">
        <ele>264</ele>
        <time>2020-06-05T20:02:08Z</time>
      </trkpt>
      <trkpt lat="43.28064" lon="1.90166">
        <ele>267</ele>
        <time>2020-06-05T20:02:16Z</time>
      </trkpt>
      <trkpt lat="43.28056" lon="1.90187">
        <ele>268</ele>
        <time>2020-06-05T20:02:20Z</time>
      </trkpt>
      <trkpt lat="43.28047" lon="1.90223">
        <ele>270</ele>
        <time>2020-06-05T20:02:26Z</time>
      </trkpt>
      <trkpt lat="43.28057" lon="1.90255">
        <ele>272</ele>
        <time>2020-06-05T20:02:32Z</time>
      </trkpt>
      <trkpt lat="43.28066" lon="1.9027">
        <ele>273</ele>
        <time>2020-06-05T20:02:35Z</time>
      </trkpt>
      <trkpt lat="43.28076" lon="1.90295">
        <ele>275</ele>
        <time>2020-06-05T20:02:40Z</time>
      </trkpt>
      <trkpt lat="43.28087" lon="1.90301">
        <ele>274</ele>
        <time>2020-06-05T20:02:43Z</time>
      </trkpt>
      <trkpt lat="43.28096" lon="1.90302">
        <ele>274</ele>
        <time>2020-06-05T20:02:45Z</time>
      </trkpt>
      <trkpt lat="43.28116" lon="1.9031">
        <ele>272</ele>
        <time>2020-06-05T20:02:50Z</time>
      </trkpt>
      <trkpt lat="43.28149" lon="1.90347">
        <ele>273</ele>
        <time>2020-06-05T20:03:00Z</time>
      </trkpt>
      <trkpt lat="43.28156" lon="1.90347">
        <ele>273</ele>
        <time>2020-06-05T20:03:02Z</time>
      </trkpt>
      <trkpt lat="43.2817" lon="1.90356">
        <ele>272</ele>
        <time>2020-06-05T20:03:05Z</time>
      </trkpt>
      <trkpt lat="43.28172" lon="1.9036">
        <ele>272</ele>
        <time>2020-06-05T20:03:06Z</time>
      </trkpt>
      <trkpt lat="43.28163" lon="1.90399">
        <ele>276</ele>
        <time>2020-06-05T20:03:13Z</time>
      </trkpt>
      <trkpt lat="43.28152" lon="1.90418">
        <ele>278</ele>
        <time>2020-06-05T20:03:17Z</time>
      </trkpt>
      <trkpt lat="43.28141" lon="1.90442">
        <ele>278</ele>
        <time>2020-06-05T20:03:22Z</time>
      </trkpt>
      <trkpt lat="43.28134" lon="1.90466">
        <ele>278</ele>
        <time>2020-06-05T20:03:26Z</time>
      </trkpt>
      <trkpt lat="43.28124" lon="1.90483">
        <ele>278</ele>
        <time>2020-06-05T20:03:30Z</time>
      </trkpt>
      <trkpt lat="43.2812" lon="1.90508">
        <ele>277</ele>
        <time>2020-06-05T20:03:34Z</time>
      </trkpt>
      <trkpt lat="43.28125" lon="1.9065">
        <ele>278</ele>
        <time>2020-06-05T20:03:59Z</time>
      </trkpt>
      <trkpt lat="43.28133" lon="1.90678">
        <ele>279</ele>
        <time>2020-06-05T20:04:04Z</time>
      </trkpt>
      <trkpt lat="43.28147" lon="1.90704">
        <ele>282</ele>
        <time>2020-06-05T20:04:09Z</time>
      </trkpt>
      <trkpt lat="43.28164" lon="1.90724">
        <ele>286</ele>
        <time>2020-06-05T20:04:14Z</time>
      </trkpt>
      <trkpt lat="43.2818" lon="1.90739">
        <ele>288</ele>
        <time>2020-06-05T20:04:19Z</time>
      </trkpt>
      <trkpt lat="43.28196" lon="1.90749">
        <ele>288</ele>
        <time>2020-06-05T20:04:23Z</time>
      </trkpt>
      <trkpt lat="43.28221" lon="1.90778">
        <ele>285</ele>
        <time>2020-06-05T20:04:31Z</time>
      </trkpt>
      <trkpt lat="43.28247" lon="1.90783">
        <ele>282</ele>
        <time>2020-06-05T20:04:37Z</time>
      </trkpt>
      <trkpt lat="43.28259" lon="1.90815">
        <ele>278</ele>
        <time>2020-06-05T20:04:43Z</time>
      </trkpt>
      <trkpt lat="43.28272" lon="1.90861">
        <ele>271</ele>
        <time>2020-06-05T20:04:51Z</time>
      </trkpt>
      <trkpt lat="43.28274" lon="1.90876">
        <ele>270</ele>
        <time>2020-06-05T20:04:54Z</time>
      </trkpt>
      <trkpt lat="43.28291" lon="1.90909">
        <ele>267</ele>
        <time>2020-06-05T20:05:01Z</time>
      </trkpt>
      <trkpt lat="43.28306" lon="1.90926">
        <ele>267</ele>
        <time>2020-06-05T20:05:05Z</time>
      </trkpt>
      <trkpt lat="43.28318" lon="1.90934">
        <ele>268</ele>
        <time>2020-06-05T20:05:08Z</time>
      </trkpt>
      <trkpt lat="43.28339" lon="1.90954">
        <ele>269</ele>
        <time>2020-06-05T20:05:14Z</time>
      </trkpt>
      <trkpt lat="43.28356" lon="1.90965">
        <ele>268</ele>
        <time>2020-06-05T20:05:19Z</time>
      </trkpt>
      <trkpt lat="43.2837" lon="1.90991">
        <ele>267</ele>
        <time>2020-06-05T20:05:24Z</time>
      </trkpt>
      <trkpt lat="43.2838" lon="1.91018">
        <ele>264</ele>
        <time>2020-06-05T20:05:29Z</time>
      </trkpt>
      <trkpt lat="43.28414" lon="1.91055">
        <ele>258</ele>
        <time>2020-06-05T20:05:40Z</time>
      </trkpt>
      <trkpt lat="43.28425" lon="1.91077">
        <ele>254</ele>
        <time>2020-06-05T20:05:44Z</time>
      </trkpt>
      <trkpt lat="43.28439" lon="1.91098">
        <ele>247</ele>
        <time>2020-06-05T20:05:49Z</time>
      </trkpt>
      <trkpt lat="43.28451" lon="1.91134">
        <ele>239</ele>
        <time>2020-06-05T20:05:56Z</time>
      </trkpt>
      <trkpt lat="43.28452" lon="1.91164">
        <ele>234</ele>
        <time>2020-06-05T20:06:01Z</time>
      </trkpt>
      <trkpt lat="43.2846" lon="1.91195">
        <ele>228</ele>
        <time>2020-06-05T20:06:06Z</time>
      </trkpt>
      <trkpt lat="43.2847" lon="1.91214">
        <ele>225</ele>
        <time>2020-06-05T20:06:10Z</time>
      </trkpt>
      <trkpt lat="43.28477" lon="1.91217">
        <ele>224</ele>
        <time>2020-06-05T20:06:12Z</time>
      </trkpt>
      <trkpt lat="43.28475" lon="1.91229">
        <ele>223</ele>
        <time>2020-06-05T20:06:14Z</time>
      </trkpt>
      <trkpt lat="43.2848" lon="1.91254">
        <ele>220</ele>
        <time>2020-06-05T20:06:19Z</time>
      </trkpt>
      <trkpt lat="43.28475" lon="1.9126">
        <ele>219</ele>
        <time>2020-06-05T20:06:20Z</time>
      </trkpt>
      <trkpt lat="43.28475" lon="1.91267">
        <ele>219</ele>
        <time>2020-06-05T20:06:21Z</time>
      </trkpt>
      <trkpt lat="43.28479" lon="1.91275">
        <ele>218</ele>
        <time>2020-06-05T20:06:23Z</time>
      </trkpt>
      <trkpt lat="43.28484" lon="1.91279">
        <ele>218</ele>
        <time>2020-06-05T20:06:24Z</time>
      </trkpt>
      <trkpt lat="43.28491" lon="1.91279">
        <ele>218</ele>
        <time>2020-06-05T20:06:26Z</time>
      </trkpt>
      <trkpt lat="43.28507" lon="1.91271">
        <ele>218</ele>
        <time>2020-06-05T20:06:30Z</time>
      </trkpt>
      <trkpt lat="43.28512" lon="1.91273">
        <ele>217</ele>
        <time>2020-06-05T20:06:31Z</time>
      </trkpt>
      <trkpt lat="43.28513" lon="1.91276">
        <ele>216</ele>
        <time>2020-06-05T20:06:32Z</time>
      </trkpt>
      <trkpt lat="43.28512" lon="1.91284">
        <ele>216</ele>
        <time>2020-06-05T20:06:33Z</time>
      </trkpt>
      <trkpt lat="43.28506" lon="1.91297">
        <ele>216</ele>
        <time>2020-06-05T20:06:36Z</time>
      </trkpt>
      <trkpt lat="43.28493" lon="1.91308">
        <ele>215</ele>
        <time>2020-06-05T20:06:39Z</time>
      </trkpt>
      <trkpt lat="43.28459" lon="1.9131">
        <ele>215</ele>
        <time>2020-06-05T20:06:47Z</time>
      </trkpt>
      <trkpt lat="43.28446" lon="1.91312">
        <ele>215</ele>
        <time>2020-06-05T20:06:50Z</time>
      </trkpt>
      <trkpt lat="43.28445" lon="1.91314">
        <ele>215</ele>
        <time>2020-06-05T20:06:51Z</time>
      </trkpt>
      <trkpt lat="43.28445" lon="1.91312">
        <ele>215</ele>
        <time>2020-06-05T20:06:51Z</time>
      </trkpt>
      <trkpt lat="43.28432" lon="1.91308">
        <ele>215</ele>
        <time>2020-06-05T20:06:54Z</time>
      </trkpt>
      <trkpt lat="43.28421" lon="1.91299">
        <ele>216</ele>
        <time>2020-06-05T20:06:57Z</time>
      </trkpt>
      <trkpt lat="43.28418" lon="1.91293">
        <ele>216</ele>
        <time>2020-06-05T20:06:58Z</time>
      </trkpt>
      <trkpt lat="43.28419" lon="1.91279">
        <ele>218</ele>
        <time>2020-06-05T20:07:01Z</time>
      </trkpt>
      <trkpt lat="43.28413" lon="1.91271">
        <ele>218</ele>
        <time>2020-06-05T20:07:03Z</time>
      </trkpt>
      <trkpt lat="43.28397" lon="1.91275">
        <ele>217</ele>
        <time>2020-06-05T20:07:06Z</time>
      </trkpt>
      <trkpt lat="43.28378" lon="1.91268">
        <ele>216</ele>
        <time>2020-06-05T20:07:11Z</time>
      </trkpt>
      <trkpt lat="43.28344" lon="1.91245">
        <ele>216</ele>
        <time>2020-06-05T20:07:20Z</time>
      </trkpt>
      <trkpt lat="43.28325" lon="1.91237">
        <ele>216</ele>
        <time>2020-06-05T20:07:25Z</time>
      </trkpt>
      <trkpt lat="43.28314" lon="1.91249">
        <ele>214</ele>
        <time>2020-06-05T20:07:28Z</time>
      </trkpt>
      <trkpt lat="43.28307" lon="1.91253">
        <ele>214</ele>
        <time>2020-06-05T20:07:30Z</time>
      </trkpt>
      <trkpt lat="43.28293" lon="1.91248">
        <ele>214</ele>
        <time>2020-06-05T20:07:33Z</time>
      </trkpt>
      <trkpt lat="43.28281" lon="1.91237">
        <ele>216</ele>
        <time>2020-06-05T20:07:36Z</time>
      </trkpt>
      <trkpt lat="43.28267" lon="1.91229">
        <ele>217</ele>
        <time>2020-06-05T20:07:40Z</time>
      </trkpt>
      <trkpt lat="43.28253" lon="1.9123">
        <ele>217</ele>
        <time>2020-06-05T20:07:43Z</time>
      </trkpt>
      <trkpt lat="43.28233" lon="1.91246">
        <ele>215</ele>
        <time>2020-06-05T20:07:49Z</time>
      </trkpt>
      <trkpt lat="43.28207" lon="1.91235">
        <ele>216</ele>
        <time>2020-06-05T20:07:55Z</time>
      </trkpt>
      <trkpt lat="43.28175" lon="1.9123">
        <ele>217</ele>
        <time>2020-06-05T20:08:02Z</time>
      </trkpt>
      <trkpt lat="43.28159" lon="1.91232">
        <ele>217</ele>
        <time>2020-06-05T20:08:06Z</time>
      </trkpt>
      <trkpt lat="43.28151" lon="1.91238">
        <ele>217</ele>
        <time>2020-06-05T20:08:08Z</time>
      </trkpt>
      <trkpt lat="43.28138" lon="1.91243">
        <ele>217</ele>
        <time>2020-06-05T20:08:11Z</time>
      </trkpt>
      <trkpt lat="43.28123" lon="1.91242">
        <ele>217</ele>
        <time>2020-06-05T20:08:15Z</time>
      </trkpt>
      <trkpt lat="43.28119" lon="1.9125">
        <ele>217</ele>
        <time>2020-06-05T20:08:17Z</time>
      </trkpt>
      <trkpt lat="43.28115" lon="1.9125">
        <ele>217</ele>
        <time>2020-06-05T20:08:18Z</time>
      </trkpt>
      <trkpt lat="43.28104" lon="1.91243">
        <ele>218</ele>
        <time>2020-06-05T20:08:20Z</time>
      </trkpt>
      <trkpt lat="43.28035" lon="1.91228">
        <ele>222</ele>
        <time>2020-06-05T20:08:37Z</time>
      </trkpt>
      <trkpt lat="43.28014" lon="1.91219">
        <ele>224</ele>
        <time>2020-06-05T20:08:42Z</time>
      </trkpt>
      <trkpt lat="43.27991" lon="1.91201">
        <ele>226</ele>
        <time>2020-06-05T20:08:48Z</time>
      </trkpt>
      <trkpt lat="43.27968" lon="1.91171">
        <ele>228</ele>
        <time>2020-06-05T20:08:55Z</time>
      </trkpt>
      <trkpt lat="43.27937" lon="1.91117">
        <ele>229</ele>
        <time>2020-06-05T20:09:07Z</time>
      </trkpt>
      <trkpt lat="43.27902" lon="1.91067">
        <ele>230</ele>
        <time>2020-06-05T20:09:19Z</time>
      </trkpt>
      <trkpt lat="43.27897" lon="1.91055">
        <ele>230</ele>
        <time>2020-06-05T20:09:21Z</time>
      </trkpt>
      <trkpt lat="43.27899" lon="1.91051">
        <ele>230</ele>
        <time>2020-06-05T20:09:22Z</time>
      </trkpt>
      <trkpt lat="43.27891" lon="1.91032">
        <ele>231</ele>
        <time>2020-06-05T20:09:26Z</time>
      </trkpt>
      <trkpt lat="43.27873" lon="1.91003">
        <ele>232</ele>
        <time>2020-06-05T20:09:32Z</time>
      </trkpt>
      <trkpt lat="43.27837" lon="1.90927">
        <ele>237</ele>
        <time>2020-06-05T20:09:48Z</time>
      </trkpt>
      <trkpt lat="43.27823" lon="1.90914">
        <ele>239</ele>
        <time>2020-06-05T20:09:52Z</time>
      </trkpt>
      <trkpt lat="43.27797" lon="1.909">
        <ele>241</ele>
        <time>2020-06-05T20:09:58Z</time>
      </trkpt>
      <trkpt lat="43.27711" lon="1.90864">
        <ele>245</ele>
        <time>2020-06-05T20:10:19Z</time>
      </trkpt>
      <trkpt lat="43.27683" lon="1.90842">
        <ele>245</ele>
        <time>2020-06-05T20:10:27Z</time>
      </trkpt>
      <trkpt lat="43.27674" lon="1.90825">
        <ele>246</ele>
        <time>2020-06-05T20:10:30Z</time>
      </trkpt>
      <trkpt lat="43.27669" lon="1.90775">
        <ele>250</ele>
        <time>2020-06-05T20:10:39Z</time>
      </trkpt>
      <trkpt lat="43.2767" lon="1.90754">
        <ele>252</ele>
        <time>2020-06-05T20:10:42Z</time>
      </trkpt>
      <trkpt lat="43.27676" lon="1.90723">
        <ele>254</ele>
        <time>2020-06-05T20:10:48Z</time>
      </trkpt>
      <trkpt lat="43.27695" lon="1.90671">
        <ele>260</ele>
        <time>2020-06-05T20:10:58Z</time>
      </trkpt>
      <trkpt lat="43.277" lon="1.90631">
        <ele>263</ele>
        <time>2020-06-05T20:11:05Z</time>
      </trkpt>
      <trkpt lat="43.27699" lon="1.90615">
        <ele>263</ele>
        <time>2020-06-05T20:11:07Z</time>
      </trkpt>
      <trkpt lat="43.27694" lon="1.90594">
        <ele>264</ele>
        <time>2020-06-05T20:11:11Z</time>
      </trkpt>
      <trkpt lat="43.27675" lon="1.90563">
        <ele>264</ele>
        <time>2020-06-05T20:11:18Z</time>
      </trkpt>
      <trkpt lat="43.27632" lon="1.90508">
        <ele>270</ele>
        <time>2020-06-05T20:11:32Z</time>
      </trkpt>
      <trkpt lat="43.27589" lon="1.9047">
        <ele>273</ele>
        <time>2020-06-05T20:11:44Z</time>
      </trkpt>
      <trkpt lat="43.27582" lon="1.90455">
        <ele>276</ele>
        <time>2020-06-05T20:11:47Z</time>
      </trkpt>
      <trkpt lat="43.27564" lon="1.90431">
        <ele>281</ele>
        <time>2020-06-05T20:11:53Z</time>
      </trkpt>
      <trkpt lat="43.27553" lon="1.90407">
        <ele>285</ele>
        <time>2020-06-05T20:11:57Z</time>
      </trkpt>
      <trkpt lat="43.27537" lon="1.90385">
        <ele>288</ele>
        <time>2020-06-05T20:12:03Z</time>
      </trkpt>
      <trkpt lat="43.27517" lon="1.9034">
        <ele>292</ele>
        <time>2020-06-05T20:12:12Z</time>
      </trkpt>
      <trkpt lat="43.27481" lon="1.9037">
        <ele>291</ele>
        <time>2020-06-05T20:12:22Z</time>
      </trkpt>
      <trkpt lat="43.27456" lon="1.90381">
        <ele>293</ele>
        <time>2020-06-05T20:12:28Z</time>
      </trkpt>
      <trkpt lat="43.27448" lon="1.90391">
        <ele>294</ele>
        <time>2020-06-05T20:12:30Z</time>
      </trkpt>
      <trkpt lat="43.27384" lon="1.90485">
        <ele>300</ele>
        <time>2020-06-05T20:12:52Z</time>
      </trkpt>
      <trkpt lat="43.27367" lon="1.90532">
        <ele>301</ele>
        <time>2020-06-05T20:13:01Z</time>
      </trkpt>
      <trkpt lat="43.27362" lon="1.90557">
        <ele>302</ele>
        <time>2020-06-05T20:13:05Z</time>
      </trkpt>
      <trkpt lat="43.27355" lon="1.90576">
        <ele>304</ele>
        <time>2020-06-05T20:13:09Z</time>
      </trkpt>
      <trkpt lat="43.27331" lon="1.9061">
        <ele>308</ele>
        <time>2020-06-05T20:13:17Z</time>
      </trkpt>
      <trkpt lat="43.27318" lon="1.90635">
        <ele>306</ele>
        <time>2020-06-05T20:13:22Z</time>
      </trkpt>
      <trkpt lat="43.27307" lon="1.90673">
        <ele>304</ele>
        <time>2020-06-05T20:13:29Z</time>
      </trkpt>
      <trkpt lat="43.27297" lon="1.90748">
        <ele>306</ele>
        <time>2020-06-05T20:13:42Z</time>
      </trkpt>
      <trkpt lat="43.27282" lon="1.90801">
        <ele>309</ele>
        <time>2020-06-05T20:13:52Z</time>
      </trkpt>
      <trkpt lat="43.27271" lon="1.90827">
        <ele>312</ele>
        <time>2020-06-05T20:13:57Z</time>
      </trkpt>
      <trkpt lat="43.27253" lon="1.90885">
        <ele>315</ele>
        <time>2020-06-05T20:14:08Z</time>
      </trkpt>
      <trkpt lat="43.27242" lon="1.90897">
        <ele>314</ele>
        <time>2020-06-05T20:14:11Z</time>
      </trkpt>
      <trkpt lat="43.27233" lon="1.909">
        <ele>312</ele>
        <time>2020-06-05T20:14:13Z</time>
      </trkpt>
      <trkpt lat="43.27206" lon="1.90894">
        <ele>309</ele>
        <time>2020-06-05T20:14:20Z</time>
      </trkpt>
      <trkpt lat="43.27193" lon="1.90911">
        <ele>306</ele>
        <time>2020-06-05T20:14:24Z</time>
      </trkpt>
      <trkpt lat="43.27181" lon="1.9092">
        <ele>304</ele>
        <time>2020-06-05T20:14:27Z</time>
      </trkpt>
      <trkpt lat="43.27176" lon="1.90929">
        <ele>302</ele>
        <time>2020-06-05T20:14:29Z</time>
      </trkpt>
      <trkpt lat="43.27163" lon="1.90937">
        <ele>300</ele>
        <time>2020-06-05T20:14:32Z</time>
      </trkpt>
      <trkpt lat="43.27158" lon="1.90943">
        <ele>299</ele>
        <time>2020-06-05T20:14:34Z</time>
      </trkpt>
      <trkpt lat="43.27143" lon="1.90946">
        <ele>298</ele>
        <time>2020-06-05T20:14:37Z</time>
      </trkpt>
      <trkpt lat="43.27153" lon="1.90966">
        <ele>298</ele>
        <time>2020-06-05T20:14:41Z</time>
      </trkpt>
      <trkpt lat="43.27161" lon="1.91038">
        <ele>293</ele>
        <time>2020-06-05T20:14:54Z</time>
      </trkpt>
      <trkpt lat="43.27166" lon="1.91057">
        <ele>291</ele>
        <time>2020-06-05T20:14:57Z</time>
      </trkpt>
      <trkpt lat="43.27233" lon="1.9124">
        <ele>277</ele>
        <time>2020-06-05T20:15:32Z</time>
      </trkpt>
      <trkpt lat="43.2724" lon="1.91271">
        <ele>277</ele>
        <time>2020-06-05T20:15:38Z</time>
      </trkpt>
      <trkpt lat="43.27245" lon="1.91309">
        <ele>277</ele>
        <time>2020-06-05T20:15:44Z</time>
      </trkpt>
      <trkpt lat="43.27245" lon="1.91351">
        <ele>275</ele>
        <time>2020-06-05T20:15:51Z</time>
      </trkpt>
      <trkpt lat="43.27248" lon="1.91376">
        <ele>272</ele>
        <time>2020-06-05T20:15:56Z</time>
      </trkpt>
      <trkpt lat="43.27279" lon="1.91449">
        <ele>266</ele>
        <time>2020-06-05T20:16:10Z</time>
      </trkpt>
      <trkpt lat="43.2731" lon="1.91501">
        <ele>267</ele>
        <time>2020-06-05T20:16:21Z</time>
      </trkpt>
      <trkpt lat="43.27336" lon="1.91559">
        <ele>268</ele>
        <time>2020-06-05T20:16:33Z</time>
      </trkpt>
      <trkpt lat="43.27339" lon="1.91612">
        <ele>266</ele>
        <time>2020-06-05T20:16:42Z</time>
      </trkpt>
      <trkpt lat="43.27349" lon="1.91666">
        <ele>263</ele>
        <time>2020-06-05T20:16:51Z</time>
      </trkpt>
      <trkpt lat="43.27365" lon="1.9173">
        <ele>256</ele>
        <time>2020-06-05T20:17:03Z</time>
      </trkpt>
      <trkpt lat="43.27371" lon="1.91746">
        <ele>255</ele>
        <time>2020-06-05T20:17:06Z</time>
      </trkpt>
      <trkpt lat="43.27379" lon="1.91761">
        <ele>254</ele>
        <time>2020-06-05T20:17:09Z</time>
      </trkpt>
      <trkpt lat="43.27397" lon="1.91785">
        <ele>253</ele>
        <time>2020-06-05T20:17:15Z</time>
      </trkpt>
      <trkpt lat="43.27428" lon="1.91809">
        <ele>250</ele>
        <time>2020-06-05T20:17:23Z</time>
      </trkpt>
      <trkpt lat="43.27438" lon="1.91814">
        <ele>248</ele>
        <time>2020-06-05T20:17:26Z</time>
      </trkpt>
      <trkpt lat="43.27448" lon="1.91807">
        <ele>247</ele>
        <time>2020-06-05T20:17:28Z</time>
      </trkpt>
      <trkpt lat="43.27518" lon="1.91736">
        <ele>245</ele>
        <time>2020-06-05T20:17:49Z</time>
      </trkpt>
      <trkpt lat="43.27527" lon="1.9173">
        <ele>244</ele>
        <time>2020-06-05T20:17:51Z</time>
      </trkpt>
      <trkpt lat="43.27529" lon="1.91732">
        <ele>244</ele>
        <time>2020-06-05T20:17:52Z</time>
      </trkpt>
      <trkpt lat="43.27529" lon="1.91736">
        <ele>243</ele>
        <time>2020-06-05T20:17:52Z</time>
      </trkpt>
      <trkpt lat="43.27502" lon="1.91787">
        <ele>243</ele>
        <time>2020-06-05T20:18:03Z</time>
      </trkpt>
      <trkpt lat="43.27488" lon="1.9182">
        <ele>241</ele>
        <time>2020-06-05T20:18:10Z</time>
      </trkpt>
      <trkpt lat="43.27488" lon="1.91827">
        <ele>240</ele>
        <time>2020-06-05T20:18:11Z</time>
      </trkpt>
      <trkpt lat="43.27492" lon="1.91841">
        <ele>239</ele>
        <time>2020-06-05T20:18:13Z</time>
      </trkpt>
      <trkpt lat="43.27531" lon="1.91895">
        <ele>239</ele>
        <time>2020-06-05T20:18:26Z</time>
      </trkpt>
      <trkpt lat="43.27538" lon="1.91932">
        <ele>240</ele>
        <time>2020-06-05T20:18:33Z</time>
      </trkpt>
      <trkpt lat="43.27533" lon="1.91945">
        <ele>241</ele>
        <time>2020-06-05T20:18:35Z</time>
      </trkpt>
      <trkpt lat="43.27478" lon="1.92027">
        <ele>241</ele>
        <time>2020-06-05T20:18:54Z</time>
      </trkpt>
      <trkpt lat="43.2746" lon="1.92063">
        <ele>242</ele>
        <time>2020-06-05T20:19:02Z</time>
      </trkpt>
      <trkpt lat="43.27459" lon="1.92171">
        <ele>250</ele>
        <time>2020-06-05T20:19:20Z</time>
      </trkpt>
      <trkpt lat="43.27454" lon="1.92184">
        <ele>251</ele>
        <time>2020-06-05T20:19:23Z</time>
      </trkpt>
      <trkpt lat="43.27441" lon="1.92176">
        <ele>251</ele>
        <time>2020-06-05T20:19:26Z</time>
      </trkpt>
      <trkpt lat="43.27358" lon="1.92111">
        <ele>244</ele>
        <time>2020-06-05T20:19:48Z</time>
      </trkpt>
      <trkpt lat="43.27346" lon="1.9212">
        <ele>245</ele>
        <time>2020-06-05T20:19:51Z</time>
      </trkpt>
      <trkpt lat="43.27303" lon="1.92261">
        <ele>257</ele>
        <time>2020-06-05T20:20:17Z</time>
      </trkpt>
      <trkpt lat="43.27257" lon="1.92394">
        <ele>260</ele>
        <time>2020-06-05T20:20:42Z</time>
      </trkpt>
      <trkpt lat="43.27234" lon="1.92474">
        <ele>264</ele>
        <time>2020-06-05T20:20:57Z</time>
      </trkpt>
      <trkpt lat="43.27202" lon="1.92562">
        <ele>264</ele>
        <time>2020-06-05T20:21:14Z</time>
      </trkpt>
      <trkpt lat="43.27198" lon="1.92592">
        <ele>264</ele>
        <time>2020-06-05T20:21:19Z</time>
      </trkpt>
      <trkpt lat="43.27199" lon="1.92624">
        <ele>265</ele>
        <time>2020-06-05T20:21:24Z</time>
      </trkpt>
      <trkpt lat="43.27211" lon="1.92655">
        <ele>268</ele>
        <time>2020-06-05T20:21:30Z</time>
      </trkpt>
      <trkpt lat="43.27225" lon="1.92675">
        <ele>270</ele>
        <time>2020-06-05T20:21:35Z</time>
      </trkpt>
      <trkpt lat="43.27234" lon="1.92698">
        <ele>270</ele>
        <time>2020-06-05T20:21:40Z</time>
      </trkpt>
      <trkpt lat="43.27254" lon="1.92805">
        <ele>267</ele>
        <time>2020-06-05T20:21:58Z</time>
      </trkpt>
      <trkpt lat="43.2726" lon="1.9281">
        <ele>268</ele>
        <time>2020-06-05T20:22:00Z</time>
      </trkpt>
      <trkpt lat="43.27326" lon="1.9281">
        <ele>277</ele>
        <time>2020-06-05T20:22:15Z</time>
      </trkpt>
      <trkpt lat="43.27348" lon="1.92813">
        <ele>280</ele>
        <time>2020-06-05T20:22:21Z</time>
      </trkpt>
      <trkpt lat="43.27362" lon="1.92844">
        <ele>283</ele>
        <time>2020-06-05T20:22:27Z</time>
      </trkpt>
      <trkpt lat="43.27367" lon="1.92838">
        <ele>284</ele>
        <time>2020-06-05T20:22:28Z</time>
      </trkpt>
      <trkpt lat="43.2737" lon="1.92826">
        <ele>284</ele>
        <time>2020-06-05T20:22:30Z</time>
      </trkpt>
      <trkpt lat="43.27381" lon="1.92823">
        <ele>286</ele>
        <time>2020-06-05T20:22:33Z</time>
      </trkpt>
      <trkpt lat="43.2739" lon="1.92825">
        <ele>287</ele>
        <time>2020-06-05T20:22:35Z</time>
      </trkpt>
      <trkpt lat="43.27408" lon="1.92836">
        <ele>292</ele>
        <time>2020-06-05T20:22:40Z</time>
      </trkpt>
      <trkpt lat="43.2743" lon="1.92858">
        <ele>296</ele>
        <time>2020-06-05T20:22:46Z</time>
      </trkpt>
      <trkpt lat="43.27464" lon="1.92871">
        <ele>298</ele>
        <time>2020-06-05T20:22:54Z</time>
      </trkpt>
      <trkpt lat="43.27507" lon="1.92769">
        <ele>300</ele>
        <time>2020-06-05T20:23:14Z</time>
      </trkpt>
      <trkpt lat="43.27509" lon="1.9275">
        <ele>300</ele>
        <time>2020-06-05T20:23:18Z</time>
      </trkpt>
      <trkpt lat="43.27528" lon="1.92716">
        <ele>298</ele>
        <time>2020-06-05T20:23:25Z</time>
      </trkpt>
      <trkpt lat="43.27563" lon="1.9268">
        <ele>303</ele>
        <time>2020-06-05T20:23:35Z</time>
      </trkpt>
      <trkpt lat="43.27585" lon="1.92665">
        <ele>309</ele>
        <time>2020-06-05T20:23:41Z</time>
      </trkpt>
      <trkpt lat="43.27635" lon="1.92674">
        <ele>309</ele>
        <time>2020-06-05T20:23:53Z</time>
      </trkpt>
      <trkpt lat="43.27648" lon="1.92667">
        <ele>310</ele>
        <time>2020-06-05T20:23:56Z</time>
      </trkpt>
      <trkpt lat="43.27676" lon="1.92576">
        <ele>311</ele>
        <time>2020-06-05T20:24:13Z</time>
      </trkpt>
      <trkpt lat="43.27681" lon="1.92548">
        <ele>308</ele>
        <time>2020-06-05T20:24:18Z</time>
      </trkpt>
      <trkpt lat="43.27691" lon="1.92519">
        <ele>304</ele>
        <time>2020-06-05T20:24:23Z</time>
      </trkpt>
      <trkpt lat="43.27702" lon="1.92498">
        <ele>302</ele>
        <time>2020-06-05T20:24:28Z</time>
      </trkpt>
      <trkpt lat="43.27712" lon="1.92465">
        <ele>301</ele>
        <time>2020-06-05T20:24:34Z</time>
      </trkpt>
      <trkpt lat="43.27718" lon="1.92429">
        <ele>300</ele>
        <time>2020-06-05T20:24:40Z</time>
      </trkpt>
      <trkpt lat="43.27733" lon="1.92375">
        <ele>300</ele>
        <time>2020-06-05T20:24:50Z</time>
      </trkpt>
      <trkpt lat="43.27747" lon="1.92339">
        <ele>301</ele>
        <time>2020-06-05T20:24:57Z</time>
      </trkpt>
      <trkpt lat="43.27815" lon="1.92194">
        <ele>294</ele>
        <time>2020-06-05T20:25:26Z</time>
      </trkpt>
      <trkpt lat="43.27847" lon="1.92158">
        <ele>291</ele>
        <time>2020-06-05T20:25:36Z</time>
      </trkpt>
      <trkpt lat="43.27882" lon="1.92125">
        <ele>286</ele>
        <time>2020-06-05T20:25:46Z</time>
      </trkpt>
      <trkpt lat="43.27905" lon="1.92084">
        <ele>290</ele>
        <time>2020-06-05T20:25:54Z</time>
      </trkpt>
      <trkpt lat="43.27945" lon="1.92021">
        <ele>289</ele>
        <time>2020-06-05T20:26:09Z</time>
      </trkpt>
      <trkpt lat="43.27956" lon="1.91942">
        <ele>285</ele>
        <time>2020-06-05T20:26:22Z</time>
      </trkpt>
      <trkpt lat="43.27967" lon="1.91888">
        <ele>284</ele>
        <time>2020-06-05T20:26:32Z</time>
      </trkpt>
      <trkpt lat="43.28" lon="1.91785">
        <ele>290</ele>
        <time>2020-06-05T20:26:51Z</time>
      </trkpt>
      <trkpt lat="43.28021" lon="1.91745">
        <ele>285</ele>
        <time>2020-06-05T20:26:59Z</time>
      </trkpt>
      <trkpt lat="43.28053" lon="1.91697">
        <ele>279</ele>
        <time>2020-06-05T20:27:10Z</time>
      </trkpt>
      <trkpt lat="43.28071" lon="1.91659">
        <ele>280</ele>
        <time>2020-06-05T20:27:18Z</time>
      </trkpt>
      <trkpt lat="43.28099" lon="1.91612">
        <ele>278</ele>
        <time>2020-06-05T20:27:28Z</time>
      </trkpt>
      <trkpt lat="43.2812" lon="1.91569">
        <ele>275</ele>
        <time>2020-06-05T20:27:37Z</time>
      </trkpt>
      <trkpt lat="43.28146" lon="1.91492">
        <ele>266</ele>
        <time>2020-06-05T20:27:52Z</time>
      </trkpt>
      <trkpt lat="43.28164" lon="1.91467">
        <ele>262</ele>
        <time>2020-06-05T20:27:58Z</time>
      </trkpt>
      <trkpt lat="43.28167" lon="1.91467">
        <ele>262</ele>
        <time>2020-06-05T20:27:58Z</time>
      </trkpt>
      <trkpt lat="43.28173" lon="1.91483">
        <ele>263</ele>
        <time>2020-06-05T20:28:01Z</time>
      </trkpt>
      <trkpt lat="43.28191" lon="1.91496">
        <ele>261</ele>
        <time>2020-06-05T20:28:06Z</time>
      </trkpt>
      <trkpt lat="43.28215" lon="1.91502">
        <ele>256</ele>
        <time>2020-06-05T20:28:12Z</time>
      </trkpt>
      <trkpt lat="43.28237" lon="1.91492">
        <ele>249</ele>
        <time>2020-06-05T20:28:17Z</time>
      </trkpt>
      <trkpt lat="43.28247" lon="1.91492">
        <ele>247</ele>
        <time>2020-06-05T20:28:20Z</time>
      </trkpt>
      <trkpt lat="43.28256" lon="1.91488">
        <ele>244</ele>
        <time>2020-06-05T20:28:22Z</time>
      </trkpt>
      <trkpt lat="43.2827" lon="1.91503">
        <ele>242</ele>
        <time>2020-06-05T20:28:26Z</time>
      </trkpt>
      <trkpt lat="43.28273" lon="1.91531">
        <ele>241</ele>
        <time>2020-06-05T20:28:31Z</time>
      </trkpt>
      <trkpt lat="43.2827" lon="1.91557">
        <ele>241</ele>
        <time>2020-06-05T20:28:35Z</time>
      </trkpt>
      <trkpt lat="43.28273" lon="1.91617">
        <ele>238</ele>
        <time>2020-06-05T20:28:45Z</time>
      </trkpt>
      <trkpt lat="43.28281" lon="1.91627">
        <ele>236</ele>
        <time>2020-06-05T20:28:48Z</time>
      </trkpt>
      <trkpt lat="43.28292" lon="1.91602">
        <ele>235</ele>
        <time>2020-06-05T20:28:53Z</time>
      </trkpt>
      <trkpt lat="43.28312" lon="1.91534">
        <ele>232</ele>
        <time>2020-06-05T20:29:05Z</time>
      </trkpt>
      <trkpt lat="43.28326" lon="1.91506">
        <ele>229</ele>
        <time>2020-06-05T20:29:11Z</time>
      </trkpt>
      <trkpt lat="43.28338" lon="1.91491">
        <ele>227</ele>
        <time>2020-06-05T20:29:15Z</time>
      </trkpt>
      <trkpt lat="43.28363" lon="1.91427">
        <ele>221</ele>
        <time>2020-06-05T20:29:27Z</time>
      </trkpt>
      <trkpt lat="43.28381" lon="1.91388">
        <ele>217</ele>
        <time>2020-06-05T20:29:35Z</time>
      </trkpt>
      <trkpt lat="43.28395" lon="1.91367">
        <ele>215</ele>
        <time>2020-06-05T20:29:40Z</time>
      </trkpt>
      <trkpt lat="43.28403" lon="1.91367">
        <ele>214</ele>
        <time>2020-06-05T20:29:42Z</time>
      </trkpt>
      <trkpt lat="43.28441" lon="1.91402">
        <ele>213</ele>
        <time>2020-06-05T20:29:53Z</time>
      </trkpt>
      <trkpt lat="43.28515" lon="1.91478">
        <ele>214</ele>
        <time>2020-06-05T20:30:14Z</time>
      </trkpt>
      <trkpt lat="43.28509" lon="1.91484">
        <ele>215</ele>
        <time>2020-06-05T20:30:16Z</time>
      </trkpt>
      <trkpt lat="43.28478" lon="1.91472">
        <ele>216</ele>
        <time>2020-06-05T20:30:23Z</time>
      </trkpt>
      <trkpt lat="43.28471" lon="1.91474">
        <ele>217</ele>
        <time>2020-06-05T20:30:25Z</time>
      </trkpt>
      <trkpt lat="43.28451" lon="1.91496">
        <ele>220</ele>
        <time>2020-06-05T20:30:31Z</time>
      </trkpt>
      <trkpt lat="43.2844" lon="1.91503">
        <ele>222</ele>
        <time>2020-06-05T20:30:34Z</time>
      </trkpt>
      <trkpt lat="43.28407" lon="1.9154">
        <ele>229</ele>
        <time>2020-06-05T20:30:44Z</time>
      </trkpt>
      <trkpt lat="43.28391" lon="1.91566">
        <ele>231</ele>
        <time>2020-06-05T20:30:50Z</time>
      </trkpt>
      <trkpt lat="43.28359" lon="1.91642">
        <ele>234</ele>
        <time>2020-06-05T20:31:04Z</time>
      </trkpt>
      <trkpt lat="43.2833" lon="1.91728">
        <ele>241</ele>
        <time>2020-06-05T20:31:21Z</time>
      </trkpt>
      <trkpt lat="43.28319" lon="1.91748">
        <ele>243</ele>
        <time>2020-06-05T20:31:25Z</time>
      </trkpt>
      <trkpt lat="43.28301" lon="1.91763">
        <ele>243</ele>
        <time>2020-06-05T20:31:30Z</time>
      </trkpt>
      <trkpt lat="43.2828" lon="1.91775">
        <ele>244</ele>
        <time>2020-06-05T20:31:35Z</time>
      </trkpt>
      <trkpt lat="43.28268" lon="1.91787">
        <ele>245</ele>
        <time>2020-06-05T20:31:39Z</time>
      </trkpt>
      <trkpt lat="43.2826" lon="1.91798">
        <ele>246</ele>
        <time>2020-06-05T20:31:41Z</time>
      </trkpt>
      <trkpt lat="43.28258" lon="1.91809">
        <ele>248</ele>
        <time>2020-06-05T20:31:43Z</time>
      </trkpt>
      <trkpt lat="43.28262" lon="1.91811">
        <ele>248</ele>
        <time>2020-06-05T20:31:44Z</time>
      </trkpt>
      <trkpt lat="43.2828" lon="1.918">
        <ele>248</ele>
        <time>2020-06-05T20:31:49Z</time>
      </trkpt>
      <trkpt lat="43.28293" lon="1.91806">
        <ele>250</ele>
        <time>2020-06-05T20:31:52Z</time>
      </trkpt>
      <trkpt lat="43.28305" lon="1.91819">
        <ele>253</ele>
        <time>2020-06-05T20:31:55Z</time>
      </trkpt>
      <trkpt lat="43.28328" lon="1.91866">
        <ele>259</ele>
        <time>2020-06-05T20:32:05Z</time>
      </trkpt>
      <trkpt lat="43.28338" lon="1.91875">
        <ele>259</ele>
        <time>2020-06-05T20:32:08Z</time>
      </trkpt>
      <trkpt lat="43.28345" lon="1.91874">
        <ele>258</ele>
        <time>2020-06-05T20:32:10Z</time>
      </trkpt>
      <trkpt lat="43.28388" lon="1.91844">
        <ele>253</ele>
        <time>2020-06-05T20:32:21Z</time>
      </trkpt>
      <trkpt lat="43.2841" lon="1.91827">
        <ele>252</ele>
        <time>2020-06-05T20:32:27Z</time>
      </trkpt>
      <trkpt lat="43.28428" lon="1.91809">
        <ele>250</ele>
        <time>2020-06-05T20:32:32Z</time>
      </trkpt>
      <trkpt lat="43.28452" lon="1.91797">
        <ele>245</ele>
        <time>2020-06-05T20:32:38Z</time>
      </trkpt>
      <trkpt lat="43.28454" lon="1.91803">
        <ele>245</ele>
        <time>2020-06-05T20:32:39Z</time>
      </trkpt>
      <trkpt lat="43.28449" lon="1.91819">
        <ele>246</ele>
        <time>2020-06-05T20:32:42Z</time>
      </trkpt>
      <trkpt lat="43.28449" lon="1.91828">
        <ele>245</ele>
        <time>2020-06-05T20:32:43Z</time>
      </trkpt>
      <trkpt lat="43.28471" lon="1.91819">
        <ele>241</ele>
        <time>2020-06-05T20:32:49Z</time>
      </trkpt>
      <trkpt lat="43.28477" lon="1.91821">
        <ele>240</ele>
        <time>2020-06-05T20:32:50Z</time>
      </trkpt>
      <trkpt lat="43.28481" lon="1.91817">
        <ele>239</ele>
        <time>2020-06-05T20:32:51Z</time>
      </trkpt>
      <trkpt lat="43.28493" lon="1.91817">
        <ele>236</ele>
        <time>2020-06-05T20:32:54Z</time>
      </trkpt>
      <trkpt lat="43.28506" lon="1.91827">
        <ele>234</ele>
        <time>2020-06-05T20:32:58Z</time>
      </trkpt>
      <trkpt lat="43.28536" lon="1.91835">
        <ele>228</ele>
        <time>2020-06-05T20:33:05Z</time>
      </trkpt>
      <trkpt lat="43.28564" lon="1.91853">
        <ele>221</ele>
        <time>2020-06-05T20:33:12Z</time>
      </trkpt>
      <trkpt lat="43.28571" lon="1.91862">
        <ele>220</ele>
        <time>2020-06-05T20:33:14Z</time>
      </trkpt>
      <trkpt lat="43.28575" lon="1.91874">
        <ele>218</ele>
        <time>2020-06-05T20:33:17Z</time>
      </trkpt>
      <trkpt lat="43.28576" lon="1.91919">
        <ele>216</ele>
        <time>2020-06-05T20:33:24Z</time>
      </trkpt>
      <trkpt lat="43.28585" lon="1.9194">
        <ele>214</ele>
        <time>2020-06-05T20:33:28Z</time>
      </trkpt>
      <trkpt lat="43.28594" lon="1.9198">
        <ele>212</ele>
        <time>2020-06-05T20:33:35Z</time>
      </trkpt>
      <trkpt lat="43.28598" lon="1.91984">
        <ele>211</ele>
        <time>2020-06-05T20:33:37Z</time>
      </trkpt>
      <trkpt lat="43.28608" lon="1.92013">
        <ele>209</ele>
        <time>2020-06-05T20:33:42Z</time>
      </trkpt>
      <trkpt lat="43.28609" lon="1.92037">
        <ele>208</ele>
        <time>2020-06-05T20:33:46Z</time>
      </trkpt>
      <trkpt lat="43.28613" lon="1.92046">
        <ele>207</ele>
        <time>2020-06-05T20:33:48Z</time>
      </trkpt>
      <trkpt lat="43.28632" lon="1.9206">
        <ele>205</ele>
        <time>2020-06-05T20:33:53Z</time>
      </trkpt>
      <trkpt lat="43.28653" lon="1.92119">
        <ele>204</ele>
        <time>2020-06-05T20:34:04Z</time>
      </trkpt>
      <trkpt lat="43.28652" lon="1.92131">
        <ele>205</ele>
        <time>2020-06-05T20:34:06Z</time>
      </trkpt>
      <trkpt lat="43.28634" lon="1.9217">
        <ele>207</ele>
        <time>2020-06-05T20:34:14Z</time>
      </trkpt>
      <trkpt lat="43.28577" lon="1.92204">
        <ele>210</ele>
        <time>2020-06-05T20:34:29Z</time>
      </trkpt>
      <trkpt lat="43.28537" lon="1.92242">
        <ele>212</ele>
        <time>2020-06-05T20:34:40Z</time>
      </trkpt>
      <trkpt lat="43.28522" lon="1.9225">
        <ele>212</ele>
        <time>2020-06-05T20:34:44Z</time>
      </trkpt>
      <trkpt lat="43.28515" lon="1.92246">
        <ele>212</ele>
        <time>2020-06-05T20:34:45Z</time>
      </trkpt>
      <trkpt lat="43.28506" lon="1.92245">
        <ele>212</ele>
        <time>2020-06-05T20:34:48Z</time>
      </trkpt>
      <trkpt lat="43.28476" lon="1.92266">
        <ele>214</ele>
        <time>2020-06-05T20:34:55Z</time>
      </trkpt>
      <trkpt lat="43.28405" lon="1.92345">
        <ele>217</ele>
        <time>2020-06-05T20:35:17Z</time>
      </trkpt>
      <trkpt lat="43.28383" lon="1.92362">
        <ele>218</ele>
        <time>2020-06-05T20:35:23Z</time>
      </trkpt>
      <trkpt lat="43.28365" lon="1.9238">
        <ele>219</ele>
        <time>2020-06-05T20:35:28Z</time>
      </trkpt>
      <trkpt lat="43.28356" lon="1.92394">
        <ele>219</ele>
        <time>2020-06-05T20:35:31Z</time>
      </trkpt>
      <trkpt lat="43.28303" lon="1.92402">
        <ele>221</ele>
        <time>2020-06-05T20:35:44Z</time>
      </trkpt>
      <trkpt lat="43.28287" lon="1.92409">
        <ele>221</ele>
        <time>2020-06-05T20:35:47Z</time>
      </trkpt>
      <trkpt lat="43.28228" lon="1.92445">
        <ele>225</ele>
        <time>2020-06-05T20:36:03Z</time>
      </trkpt>
      <trkpt lat="43.28181" lon="1.92456">
        <ele>228</ele>
        <time>2020-06-05T20:36:14Z</time>
      </trkpt>
      <trkpt lat="43.28136" lon="1.92474">
        <ele>230</ele>
        <time>2020-06-05T20:36:25Z</time>
      </trkpt>
      <trkpt lat="43.28113" lon="1.92494">
        <ele>231</ele>
        <time>2020-06-05T20:36:31Z</time>
      </trkpt>
      <trkpt lat="43.28116" lon="1.92512">
        <ele>232</ele>
        <time>2020-06-05T20:36:34Z</time>
      </trkpt>
      <trkpt lat="43.28124" lon="1.92536">
        <ele>235</ele>
        <time>2020-06-05T20:36:39Z</time>
      </trkpt>
      <trkpt lat="43.28118" lon="1.92553">
        <ele>236</ele>
        <time>2020-06-05T20:36:42Z</time>
      </trkpt>
      <trkpt lat="43.28103" lon="1.92569">
        <ele>238</ele>
        <time>2020-06-05T20:36:46Z</time>
      </trkpt>
      <trkpt lat="43.28041" lon="1.92621">
        <ele>240</ele>
        <time>2020-06-05T20:37:03Z</time>
      </trkpt>
      <trkpt lat="43.28002" lon="1.92667">
        <ele>240</ele>
        <time>2020-06-05T20:37:15Z</time>
      </trkpt>
      <trkpt lat="43.27986" lon="1.92681">
        <ele>241</ele>
        <time>2020-06-05T20:37:20Z</time>
      </trkpt>
      <trkpt lat="43.2796" lon="1.92698">
        <ele>242</ele>
        <time>2020-06-05T20:37:26Z</time>
      </trkpt>
      <trkpt lat="43.27962" lon="1.92702">
        <ele>243</ele>
        <time>2020-06-05T20:37:27Z</time>
      </trkpt>
      <trkpt lat="43.2795" lon="1.92719">
        <ele>243</ele>
        <time>2020-06-05T20:37:31Z</time>
      </trkpt>
      <trkpt lat="43.27945" lon="1.92735">
        <ele>244</ele>
        <time>2020-06-05T20:37:34Z</time>
      </trkpt>
      <trkpt lat="43.27948" lon="1.92751">
        <ele>245</ele>
        <time>2020-06-05T20:37:37Z</time>
      </trkpt>
      <trkpt lat="43.27974" lon="1.92776">
        <ele>248</ele>
        <time>2020-06-05T20:37:44Z</time>
      </trkpt>
      <trkpt lat="43.27974" lon="1.92782">
        <ele>248</ele>
        <time>2020-06-05T20:37:45Z</time>
      </trkpt>
      <trkpt lat="43.27987" lon="1.92817">
        <ele>251</ele>
        <time>2020-06-05T20:37:52Z</time>
      </trkpt>
      <trkpt lat="43.27989" lon="1.92829">
        <ele>251</ele>
        <time>2020-06-05T20:37:54Z</time>
      </trkpt>
      <trkpt lat="43.27988" lon="1.92846">
        <ele>252</ele>
        <time>2020-06-05T20:37:57Z</time>
      </trkpt>
      <trkpt lat="43.27963" lon="1.92885">
        <ele>255</ele>
        <time>2020-06-05T20:38:06Z</time>
      </trkpt>
      <trkpt lat="43.27956" lon="1.929">
        <ele>257</ele>
        <time>2020-06-05T20:38:09Z</time>
      </trkpt>
      <trkpt lat="43.27952" lon="1.92936">
        <ele>260</ele>
        <time>2020-06-05T20:38:15Z</time>
      </trkpt>
      <trkpt lat="43.2794" lon="1.92987">
        <ele>265</ele>
        <time>2020-06-05T20:38:24Z</time>
      </trkpt>
      <trkpt lat="43.27929" lon="1.93003">
        <ele>269</ele>
        <time>2020-06-05T20:38:28Z</time>
      </trkpt>
      <trkpt lat="43.2789" lon="1.9309">
        <ele>271</ele>
        <time>2020-06-05T20:38:45Z</time>
      </trkpt>
      <trkpt lat="43.27862" lon="1.93146">
        <ele>273</ele>
        <time>2020-06-05T20:38:57Z</time>
      </trkpt>
      <trkpt lat="43.27847" lon="1.93166">
        <ele>276</ele>
        <time>2020-06-05T20:39:02Z</time>
      </trkpt>
      <trkpt lat="43.27823" lon="1.93189">
        <ele>278</ele>
        <time>2020-06-05T20:39:09Z</time>
      </trkpt>
      <trkpt lat="43.27811" lon="1.93214">
        <ele>279</ele>
        <time>2020-06-05T20:39:14Z</time>
      </trkpt>
      <trkpt lat="43.2776" lon="1.93285">
        <ele>284</ele>
        <time>2020-06-05T20:39:31Z</time>
      </trkpt>
      <trkpt lat="43.27729" lon="1.93335">
        <ele>284</ele>
        <time>2020-06-05T20:39:42Z</time>
      </trkpt>
      <trkpt lat="43.27723" lon="1.93353">
        <ele>280</ele>
        <time>2020-06-05T20:39:45Z</time>
      </trkpt>
      <trkpt lat="43.27709" lon="1.93364">
        <ele>278</ele>
        <time>2020-06-05T20:39:49Z</time>
      </trkpt>
      <trkpt lat="43.2769" lon="1.93354">
        <ele>282</ele>
        <time>2020-06-05T20:39:54Z</time>
      </trkpt>
      <trkpt lat="43.27648" lon="1.93352">
        <ele>285</ele>
        <time>2020-06-05T20:40:04Z</time>
      </trkpt>
      <trkpt lat="43.27614" lon="1.93361">
        <ele>287</ele>
        <time>2020-06-05T20:40:12Z</time>
      </trkpt>
      <trkpt lat="43.27602" lon="1.93368">
        <ele>287</ele>
        <time>2020-06-05T20:40:15Z</time>
      </trkpt>
      <trkpt lat="43.27588" lon="1.93366">
        <ele>289</ele>
        <time>2020-06-05T20:40:18Z</time>
      </trkpt>
      <trkpt lat="43.27568" lon="1.93344">
        <ele>289</ele>
        <time>2020-06-05T20:40:24Z</time>
      </trkpt>
      <trkpt lat="43.27558" lon="1.93329">
        <ele>289</ele>
        <time>2020-06-05T20:40:27Z</time>
      </trkpt>
      <trkpt lat="43.27549" lon="1.93314">
        <ele>289</ele>
        <time>2020-06-05T20:40:31Z</time>
      </trkpt>
      <trkpt lat="43.2754" lon="1.9329">
        <ele>289</ele>
        <time>2020-06-05T20:40:35Z</time>
      </trkpt>
      <trkpt lat="43.27533" lon="1.93266">
        <ele>290</ele>
        <time>2020-06-05T20:40:40Z</time>
      </trkpt>
      <trkpt lat="43.27526" lon="1.93208">
        <ele>297</ele>
        <time>2020-06-05T20:40:50Z</time>
      </trkpt>
      <trkpt lat="43.27523" lon="1.93149">
        <ele>303</ele>
        <time>2020-06-05T20:41:00Z</time>
      </trkpt>
      <trkpt lat="43.27501" lon="1.93126">
        <ele>306</ele>
        <time>2020-06-05T20:41:06Z</time>
      </trkpt>
      <trkpt lat="43.27479" lon="1.93118">
        <ele>307</ele>
        <time>2020-06-05T20:41:11Z</time>
      </trkpt>
      <trkpt lat="43.27439" lon="1.93117">
        <ele>307</ele>
        <time>2020-06-05T20:41:21Z</time>
      </trkpt>
      <trkpt lat="43.27421" lon="1.9312">
        <ele>306</ele>
        <time>2020-06-05T20:41:25Z</time>
      </trkpt>
      <trkpt lat="43.27405" lon="1.93132">
        <ele>304</ele>
        <time>2020-06-05T20:41:29Z</time>
      </trkpt>
      <trkpt lat="43.27377" lon="1.93185">
        <ele>298</ele>
        <time>2020-06-05T20:41:40Z</time>
      </trkpt>
      <trkpt lat="43.27369" lon="1.93206">
        <ele>296</ele>
        <time>2020-06-05T20:41:44Z</time>
      </trkpt>
      <trkpt lat="43.2734" lon="1.9325">
        <ele>296</ele>
        <time>2020-06-05T20:41:55Z</time>
      </trkpt>
      <trkpt lat="43.27323" lon="1.93303">
        <ele>292</ele>
        <time>2020-06-05T20:42:04Z</time>
      </trkpt>
      <trkpt lat="43.27316" lon="1.93312">
        <ele>290</ele>
        <time>2020-06-05T20:42:07Z</time>
      </trkpt>
      <trkpt lat="43.273" lon="1.93315">
        <ele>289</ele>
        <time>2020-06-05T20:42:10Z</time>
      </trkpt>
      <trkpt lat="43.27286" lon="1.93284">
        <ele>293</ele>
        <time>2020-06-05T20:42:17Z</time>
      </trkpt>
      <trkpt lat="43.27283" lon="1.93283">
        <ele>293</ele>
        <time>2020-06-05T20:42:17Z</time>
      </trkpt>
      <trkpt lat="43.27272" lon="1.93268">
        <ele>295</ele>
        <time>2020-06-05T20:42:21Z</time>
      </trkpt>
      <trkpt lat="43.2722" lon="1.93237">
        <ele>297</ele>
        <time>2020-06-05T20:42:34Z</time>
      </trkpt>
      <trkpt lat="43.27215" lon="1.93237">
        <ele>297</ele>
        <time>2020-06-05T20:42:35Z</time>
      </trkpt>
      <trkpt lat="43.27203" lon="1.93243">
        <ele>297</ele>
        <time>2020-06-05T20:42:38Z</time>
      </trkpt>
      <trkpt lat="43.27186" lon="1.93255">
        <ele>297</ele>
        <time>2020-06-05T20:42:43Z</time>
      </trkpt>
      <trkpt lat="43.27172" lon="1.93273">
        <ele>295</ele>
        <time>2020-06-05T20:42:47Z</time>
      </trkpt>
      <trkpt lat="43.2716" lon="1.93283">
        <ele>293</ele>
        <time>2020-06-05T20:42:51Z</time>
      </trkpt>
      <trkpt lat="43.27152" lon="1.93295">
        <ele>292</ele>
        <time>2020-06-05T20:42:53Z</time>
      </trkpt>
      <trkpt lat="43.27139" lon="1.93331">
        <ele>290</ele>
        <time>2020-06-05T20:43:00Z</time>
      </trkpt>
      <trkpt lat="43.2713" lon="1.93344">
        <ele>289</ele>
        <time>2020-06-05T20:43:03Z</time>
      </trkpt>
      <trkpt lat="43.27116" lon="1.93359">
        <ele>288</ele>
        <time>2020-06-05T20:43:07Z</time>
      </trkpt>
      <trkpt lat="43.27075" lon="1.93389">
        <ele>291</ele>
        <time>2020-06-05T20:43:18Z</time>
      </trkpt>
      <trkpt lat="43.27041" lon="1.93427">
        <ele>294</ele>
        <time>2020-06-05T20:43:28Z</time>
      </trkpt>
      <trkpt lat="43.27034" lon="1.9345">
        <ele>293</ele>
        <time>2020-06-05T20:43:33Z</time>
      </trkpt>
      <trkpt lat="43.27034" lon="1.93491">
        <ele>289</ele>
        <time>2020-06-05T20:43:40Z</time>
      </trkpt>
      <trkpt lat="43.27031" lon="1.93527">
        <ele>286</ele>
        <time>2020-06-05T20:43:46Z</time>
      </trkpt>
      <trkpt lat="43.27018" lon="1.93579">
        <ele>284</ele>
        <time>2020-06-05T20:43:55Z</time>
      </trkpt>
      <trkpt lat="43.27015" lon="1.93581">
        <ele>285</ele>
        <time>2020-06-05T20:43:56Z</time>
      </trkpt>
      <trkpt lat="43.27011" lon="1.93578">
        <ele>286</ele>
        <time>2020-06-05T20:43:57Z</time>
      </trkpt>
      <trkpt lat="43.27008" lon="1.93567">
        <ele>288</ele>
        <time>2020-06-05T20:43:59Z</time>
      </trkpt>
      <trkpt lat="43.26999" lon="1.93513">
        <ele>296</ele>
        <time>2020-06-05T20:44:08Z</time>
      </trkpt>
      <trkpt lat="43.26977" lon="1.93458">
        <ele>300</ele>
        <time>2020-06-05T20:44:19Z</time>
      </trkpt>
      <trkpt lat="43.26967" lon="1.93442">
        <ele>302</ele>
        <time>2020-06-05T20:44:23Z</time>
      </trkpt>
      <trkpt lat="43.26937" lon="1.93412">
        <ele>308</ele>
        <time>2020-06-05T20:44:31Z</time>
      </trkpt>
      <trkpt lat="43.26922" lon="1.93407">
        <ele>309</ele>
        <time>2020-06-05T20:44:35Z</time>
      </trkpt>
      <trkpt lat="43.26905" lon="1.93406">
        <ele>309</ele>
        <time>2020-06-05T20:44:39Z</time>
      </trkpt>
      <trkpt lat="43.26837" lon="1.93423">
        <ele>306</ele>
        <time>2020-06-05T20:44:55Z</time>
      </trkpt>
      <trkpt lat="43.26826" lon="1.93433">
        <ele>304</ele>
        <time>2020-06-05T20:44:58Z</time>
      </trkpt>
      <trkpt lat="43.26814" lon="1.93454">
        <ele>300</ele>
        <time>2020-06-05T20:45:03Z</time>
      </trkpt>
      <trkpt lat="43.26788" lon="1.93488">
        <ele>294</ele>
        <time>2020-06-05T20:45:11Z</time>
      </trkpt>
      <trkpt lat="43.26782" lon="1.93487">
        <ele>293</ele>
        <time>2020-06-05T20:45:13Z</time>
      </trkpt>
      <trkpt lat="43.26776" lon="1.93482">
        <ele>292</ele>
        <time>2020-06-05T20:45:14Z</time>
      </trkpt>
      <trkpt lat="43.26739" lon="1.93407">
        <ele>289</ele>
        <time>2020-06-05T20:45:30Z</time>
      </trkpt>
      <trkpt lat="43.2672" lon="1.93383">
        <ele>288</ele>
        <time>2020-06-05T20:45:36Z</time>
      </trkpt>
      <trkpt lat="43.26706" lon="1.93348">
        <ele>291</ele>
        <time>2020-06-05T20:45:42Z</time>
      </trkpt>
      <trkpt lat="43.26697" lon="1.93302">
        <ele>295</ele>
        <time>2020-06-05T20:45:50Z</time>
      </trkpt>
      <trkpt lat="43.26699" lon="1.93256">
        <ele>297</ele>
        <time>2020-06-05T20:45:58Z</time>
      </trkpt>
      <trkpt lat="43.26706" lon="1.93228">
        <ele>295</ele>
        <time>2020-06-05T20:46:03Z</time>
      </trkpt>
      <trkpt lat="43.26705" lon="1.93222">
        <ele>295</ele>
        <time>2020-06-05T20:46:04Z</time>
      </trkpt>
      <trkpt lat="43.26701" lon="1.93215">
        <ele>296</ele>
        <time>2020-06-05T20:46:06Z</time>
      </trkpt>
      <trkpt lat="43.26693" lon="1.9321">
        <ele>297</ele>
        <time>2020-06-05T20:46:08Z</time>
      </trkpt>
      <trkpt lat="43.26652" lon="1.93202">
        <ele>302</ele>
        <time>2020-06-05T20:46:18Z</time>
      </trkpt>
      <trkpt lat="43.26638" lon="1.93191">
        <ele>301</ele>
        <time>2020-06-05T20:46:21Z</time>
      </trkpt>
      <trkpt lat="43.26628" lon="1.93165">
        <ele>300</ele>
        <time>2020-06-05T20:46:26Z</time>
      </trkpt>
      <trkpt lat="43.26624" lon="1.93125">
        <ele>301</ele>
        <time>2020-06-05T20:46:33Z</time>
      </trkpt>
      <trkpt lat="43.26608" lon="1.93062">
        <ele>302</ele>
        <time>2020-06-05T20:46:45Z</time>
      </trkpt>
      <trkpt lat="43.26594" lon="1.93028">
        <ele>305</ele>
        <time>2020-06-05T20:46:51Z</time>
      </trkpt>
      <trkpt lat="43.26531" lon="1.92966">
        <ele>302</ele>
        <time>2020-06-05T20:47:09Z</time>
      </trkpt>
      <trkpt lat="43.26505" lon="1.92933">
        <ele>303</ele>
        <time>2020-06-05T20:47:18Z</time>
      </trkpt>
      <trkpt lat="43.26493" lon="1.92922">
        <ele>303</ele>
        <time>2020-06-05T20:47:21Z</time>
      </trkpt>
      <trkpt lat="43.26483" lon="1.92906">
        <ele>302</ele>
        <time>2020-06-05T20:47:25Z</time>
      </trkpt>
      <trkpt lat="43.26451" lon="1.92868">
        <ele>302</ele>
        <time>2020-06-05T20:47:34Z</time>
      </trkpt>
      <trkpt lat="43.26437" lon="1.92862">
        <ele>303</ele>
        <time>2020-06-05T20:47:38Z</time>
      </trkpt>
      <trkpt lat="43.26418" lon="1.92863">
        <ele>302</ele>
        <time>2020-06-05T20:47:42Z</time>
      </trkpt>
      <trkpt lat="43.26406" lon="1.92871">
        <ele>302</ele>
        <time>2020-06-05T20:47:45Z</time>
      </trkpt>
      <trkpt lat="43.26389" lon="1.92894">
        <ele>300</ele>
        <time>2020-06-05T20:47:51Z</time>
      </trkpt>
      <trkpt lat="43.26384" lon="1.92898">
        <ele>299</ele>
        <time>2020-06-05T20:47:52Z</time>
      </trkpt>
      <trkpt lat="43.26373" lon="1.92901">
        <ele>300</ele>
        <time>2020-06-05T20:47:55Z</time>
      </trkpt>
      <trkpt lat="43.2636" lon="1.92896">
        <ele>301</ele>
        <time>2020-06-05T20:47:58Z</time>
      </trkpt>
      <trkpt lat="43.26332" lon="1.92863">
        <ele>304</ele>
        <time>2020-06-05T20:48:07Z</time>
      </trkpt>
      <trkpt lat="43.26314" lon="1.92834">
        <ele>309</ele>
        <time>2020-06-05T20:48:13Z</time>
      </trkpt>
      <trkpt lat="43.26306" lon="1.92811">
        <ele>311</ele>
        <time>2020-06-05T20:48:18Z</time>
      </trkpt>
      <trkpt lat="43.26305" lon="1.92771">
        <ele>311</ele>
        <time>2020-06-05T20:48:24Z</time>
      </trkpt>
      <trkpt lat="43.26317" lon="1.92717">
        <ele>310</ele>
        <time>2020-06-05T20:48:34Z</time>
      </trkpt>
      <trkpt lat="43.26332" lon="1.92669">
        <ele>310</ele>
        <time>2020-06-05T20:48:43Z</time>
      </trkpt>
      <trkpt lat="43.26335" lon="1.92627">
        <ele>311</ele>
        <time>2020-06-05T20:48:50Z</time>
      </trkpt>
      <trkpt lat="43.26317" lon="1.92611">
        <ele>313</ele>
        <time>2020-06-05T20:48:55Z</time>
      </trkpt>
      <trkpt lat="43.26169" lon="1.92514">
        <ele>312</ele>
        <time>2020-06-05T20:49:33Z</time>
      </trkpt>
      <trkpt lat="43.26143" lon="1.92492">
        <ele>309</ele>
        <time>2020-06-05T20:49:40Z</time>
      </trkpt>
      <trkpt lat="43.26118" lon="1.92454">
        <ele>308</ele>
        <time>2020-06-05T20:49:49Z</time>
      </trkpt>
      <trkpt lat="43.26104" lon="1.92412">
        <ele>311</ele>
        <time>2020-06-05T20:49:57Z</time>
      </trkpt>
      <trkpt lat="43.26057" lon="1.92344">
        <ele>320</ele>
        <time>2020-06-05T20:50:13Z</time>
      </trkpt>
      <trkpt lat="43.26045" lon="1.92334">
        <ele>323</ele>
        <time>2020-06-05T20:50:16Z</time>
      </trkpt>
      <trkpt lat="43.26025" lon="1.92338">
        <ele>324</ele>
        <time>2020-06-05T20:50:21Z</time>
      </trkpt>
      <trkpt lat="43.26002" lon="1.92354">
        <ele>324</ele>
        <time>2020-06-05T20:50:27Z</time>
      </trkpt>
      <trkpt lat="43.25961" lon="1.92399">
        <ele>319</ele>
        <time>2020-06-05T20:50:39Z</time>
      </trkpt>
      <trkpt lat="43.25931" lon="1.92407">
        <ele>321</ele>
        <time>2020-06-05T20:50:46Z</time>
      </trkpt>
      <trkpt lat="43.25885" lon="1.92424">
        <ele>319</ele>
        <time>2020-06-05T20:50:58Z</time>
      </trkpt>
      <trkpt lat="43.25883" lon="1.92421">
        <ele>319</ele>
        <time>2020-06-05T20:50:58Z</time>
      </trkpt>
      <trkpt lat="43.25882" lon="1.92413">
        <ele>320</ele>
        <time>2020-06-05T20:51:00Z</time>
      </trkpt>
      <trkpt lat="43.25896" lon="1.92327">
        <ele>323</ele>
        <time>2020-06-05T20:51:15Z</time>
      </trkpt>
      <trkpt lat="43.25905" lon="1.92298">
        <ele>324</ele>
        <time>2020-06-05T20:51:20Z</time>
      </trkpt>
      <trkpt lat="43.2594" lon="1.92232">
        <ele>328</ele>
        <time>2020-06-05T20:51:34Z</time>
      </trkpt>
      <trkpt lat="43.25964" lon="1.92174">
        <ele>331</ele>
        <time>2020-06-05T20:51:45Z</time>
      </trkpt>
      <trkpt lat="43.25974" lon="1.92141">
        <ele>332</ele>
        <time>2020-06-05T20:51:51Z</time>
      </trkpt>
      <trkpt lat="43.25981" lon="1.92088">
        <ele>332</ele>
        <time>2020-06-05T20:52:00Z</time>
      </trkpt>
      <trkpt lat="43.2598" lon="1.92025">
        <ele>330</ele>
        <time>2020-06-05T20:52:11Z</time>
      </trkpt>
      <trkpt lat="43.25966" lon="1.9199">
        <ele>329</ele>
        <time>2020-06-05T20:52:18Z</time>
      </trkpt>
      <trkpt lat="43.25957" lon="1.9196">
        <ele>328</ele>
        <time>2020-06-05T20:52:23Z</time>
      </trkpt>
      <trkpt lat="43.25957" lon="1.91937">
        <ele>328</ele>
        <time>2020-06-05T20:52:27Z</time>
      </trkpt>
      <trkpt lat="43.25971" lon="1.91878">
        <ele>329</ele>
        <time>2020-06-05T20:52:38Z</time>
      </trkpt>
      <trkpt lat="43.25969" lon="1.9186">
        <ele>329</ele>
        <time>2020-06-05T20:52:41Z</time>
      </trkpt>
      <trkpt lat="43.25974" lon="1.91827">
        <ele>330</ele>
        <time>2020-06-05T20:52:47Z</time>
      </trkpt>
      <trkpt lat="43.25998" lon="1.91765">
        <ele>335</ele>
        <time>2020-06-05T20:52:59Z</time>
      </trkpt>
      <trkpt lat="43.2603" lon="1.91706">
        <ele>337</ele>
        <time>2020-06-05T20:53:11Z</time>
      </trkpt>
      <trkpt lat="43.26045" lon="1.91642">
        <ele>340</ele>
        <time>2020-06-05T20:53:23Z</time>
      </trkpt>
      <trkpt lat="43.26045" lon="1.91597">
        <ele>342</ele>
        <time>2020-06-05T20:53:30Z</time>
      </trkpt>
      <trkpt lat="43.26041" lon="1.91565">
        <ele>342</ele>
        <time>2020-06-05T20:53:36Z</time>
      </trkpt>
      <trkpt lat="43.26023" lon="1.91494">
        <ele>344</ele>
        <time>2020-06-05T20:53:49Z</time>
      </trkpt>
      <trkpt lat="43.26021" lon="1.91477">
        <ele>343</ele>
        <time>2020-06-05T20:53:51Z</time>
      </trkpt>
      <trkpt lat="43.26018" lon="1.91401">
        <ele>338</ele>
        <time>2020-06-05T20:54:04Z</time>
      </trkpt>
      <trkpt lat="43.26028" lon="1.91362">
        <ele>335</ele>
        <time>2020-06-05T20:54:11Z</time>
      </trkpt>
      <trkpt lat="43.26044" lon="1.91321">
        <ele>333</ele>
        <time>2020-06-05T20:54:19Z</time>
      </trkpt>
      <trkpt lat="43.26059" lon="1.9126">
        <ele>336</ele>
        <time>2020-06-05T20:54:30Z</time>
      </trkpt>
      <trkpt lat="43.2608" lon="1.9112">
        <ele>344</ele>
        <time>2020-06-05T20:54:55Z</time>
      </trkpt>
      <trkpt lat="43.26111" lon="1.91025">
        <ele>344</ele>
        <time>2020-06-05T20:55:12Z</time>
      </trkpt>
      <trkpt lat="43.2613" lon="1.90934">
        <ele>342</ele>
        <time>2020-06-05T20:55:28Z</time>
      </trkpt>
      <trkpt lat="43.26132" lon="1.90933">
        <ele>342</ele>
        <time>2020-06-05T20:55:29Z</time>
      </trkpt>
      <trkpt lat="43.26156" lon="1.90952">
        <ele>346</ele>
        <time>2020-06-05T20:55:35Z</time>
      </trkpt>
      <trkpt lat="43.26177" lon="1.90964">
        <ele>346</ele>
        <time>2020-06-05T20:55:41Z</time>
      </trkpt>
      <trkpt lat="43.2622" lon="1.90967">
        <ele>341</ele>
        <time>2020-06-05T20:55:51Z</time>
      </trkpt>
      <trkpt lat="43.26262" lon="1.90997">
        <ele>337</ele>
        <time>2020-06-05T20:56:02Z</time>
      </trkpt>
      <trkpt lat="43.26295" lon="1.91009">
        <ele>334</ele>
        <time>2020-06-05T20:56:10Z</time>
      </trkpt>
      <trkpt lat="43.26343" lon="1.91042">
        <ele>329</ele>
        <time>2020-06-05T20:56:22Z</time>
      </trkpt>
      <trkpt lat="43.26347" lon="1.91053">
        <ele>328</ele>
        <time>2020-06-05T20:56:24Z</time>
      </trkpt>
      <trkpt lat="43.26358" lon="1.91068">
        <ele>326</ele>
        <time>2020-06-05T20:56:28Z</time>
      </trkpt>
      <trkpt lat="43.26364" lon="1.91069">
        <ele>326</ele>
        <time>2020-06-05T20:56:29Z</time>
      </trkpt>
      <trkpt lat="43.26381" lon="1.91086">
        <ele>325</ele>
        <time>2020-06-05T20:56:34Z</time>
      </trkpt>
      <trkpt lat="43.2639" lon="1.91087">
        <ele>324</ele>
        <time>2020-06-05T20:56:36Z</time>
      </trkpt>
      <trkpt lat="43.26396" lon="1.91084">
        <ele>324</ele>
        <time>2020-06-05T20:56:38Z</time>
      </trkpt>
      <trkpt lat="43.26447" lon="1.91089">
        <ele>323</ele>
        <time>2020-06-05T20:56:50Z</time>
      </trkpt>
      <trkpt lat="43.26462" lon="1.91102">
        <ele>321</ele>
        <time>2020-06-05T20:56:54Z</time>
      </trkpt>
      <trkpt lat="43.26479" lon="1.91108">
        <ele>320</ele>
        <time>2020-06-05T20:56:58Z</time>
      </trkpt>
      <trkpt lat="43.26494" lon="1.91119">
        <ele>318</ele>
        <time>2020-06-05T20:57:02Z</time>
      </trkpt>
      <trkpt lat="43.26545" lon="1.9114">
        <ele>315</ele>
        <time>2020-06-05T20:57:15Z</time>
      </trkpt>
      <trkpt lat="43.26577" lon="1.91148">
        <ele>313</ele>
        <time>2020-06-05T20:57:22Z</time>
      </trkpt>
      <trkpt lat="43.26639" lon="1.91154">
        <ele>309</ele>
        <time>2020-06-05T20:57:37Z</time>
      </trkpt>
      <trkpt lat="43.26651" lon="1.91153">
        <ele>308</ele>
        <time>2020-06-05T20:57:39Z</time>
      </trkpt>
      <trkpt lat="43.26681" lon="1.91178">
        <ele>304</ele>
        <time>2020-06-05T20:57:48Z</time>
      </trkpt>
      <trkpt lat="43.26715" lon="1.91194">
        <ele>301</ele>
        <time>2020-06-05T20:57:56Z</time>
      </trkpt>
      <trkpt lat="43.26755" lon="1.91219">
        <ele>298</ele>
        <time>2020-06-05T20:58:06Z</time>
      </trkpt>
      <trkpt lat="43.26841" lon="1.91267">
        <ele>293</ele>
        <time>2020-06-05T20:58:28Z</time>
      </trkpt>
      <trkpt lat="43.26871" lon="1.91269">
        <ele>293</ele>
        <time>2020-06-05T20:58:35Z</time>
      </trkpt>
      <trkpt lat="43.26888" lon="1.91278">
        <ele>292</ele>
        <time>2020-06-05T20:58:39Z</time>
      </trkpt>
      <trkpt lat="43.26919" lon="1.91289">
        <ele>291</ele>
        <time>2020-06-05T20:58:47Z</time>
      </trkpt>
      <trkpt lat="43.26929" lon="1.91287">
        <ele>291</ele>
        <time>2020-06-05T20:58:49Z</time>
      </trkpt>
      <trkpt lat="43.26942" lon="1.9125">
        <ele>294</ele>
        <time>2020-06-05T20:58:56Z</time>
      </trkpt>
      <trkpt lat="43.26955" lon="1.91231">
        <ele>294</ele>
        <time>2020-06-05T20:59:01Z</time>
      </trkpt>
      <trkpt lat="43.26995" lon="1.91197">
        <ele>295</ele>
        <time>2020-06-05T20:59:12Z</time>
      </trkpt>
      <trkpt lat="43.27012" lon="1.91175">
        <ele>295</ele>
        <time>2020-06-05T20:59:17Z</time>
      </trkpt>
      <trkpt lat="43.27049" lon="1.91104">
        <ele>296</ele>
        <time>2020-06-05T20:59:32Z</time>
      </trkpt>
      <trkpt lat="43.27055" lon="1.91095">
        <ele>297</ele>
        <time>2020-06-05T20:59:34Z</time>
      </trkpt>
      <trkpt lat="43.27083" lon="1.91069">
        <ele>299</ele>
        <time>2020-06-05T20:59:42Z</time>
      </trkpt>
      <trkpt lat="43.271" lon="1.91041">
        <ele>297</ele>
        <time>2020-06-05T20:59:48Z</time>
      </trkpt>
      <trkpt lat="43.27118" lon="1.90999">
        <ele>297</ele>
        <time>2020-06-05T20:59:56Z</time>
      </trkpt>
      <trkpt lat="43.27125" lon="1.9095">
        <ele>297</ele>
        <time>2020-06-05T21:00:05Z</time>
      </trkpt>
      <trkpt lat="43.27127" lon="1.90916">
        <ele>297</ele>
        <time>2020-06-05T21:00:11Z</time>
      </trkpt>
      <trkpt lat="43.27129" lon="1.90916">
        <ele>297</ele>
        <time>2020-06-05T21:00:11Z</time>
      </trkpt>
      <trkpt lat="43.27143" lon="1.90942">
        <ele>298</ele>
        <time>2020-06-05T21:00:17Z</time>
      </trkpt>
      <trkpt lat="43.27154" lon="1.90945">
        <ele>299</ele>
        <time>2020-06-05T21:00:19Z</time>
      </trkpt>
      <trkpt lat="43.27163" lon="1.90936">
        <ele>300</ele>
        <time>2020-06-05T21:00:22Z</time>
      </trkpt>
      <trkpt lat="43.27178" lon="1.90928">
        <ele>303</ele>
        <time>2020-06-05T21:00:26Z</time>
      </trkpt>
      <trkpt lat="43.27195" lon="1.90911">
        <ele>306</ele>
        <time>2020-06-05T21:00:30Z</time>
      </trkpt>
      <trkpt lat="43.27206" lon="1.90894">
        <ele>309</ele>
        <time>2020-06-05T21:00:34Z</time>
      </trkpt>
      <trkpt lat="43.27213" lon="1.90893">
        <ele>310</ele>
        <time>2020-06-05T21:00:36Z</time>
      </trkpt>
      <trkpt lat="43.27226" lon="1.90901">
        <ele>311</ele>
        <time>2020-06-05T21:00:39Z</time>
      </trkpt>
      <trkpt lat="43.27245" lon="1.90896">
        <ele>314</ele>
        <time>2020-06-05T21:00:44Z</time>
      </trkpt>
      <trkpt lat="43.27254" lon="1.90886">
        <ele>314</ele>
        <time>2020-06-05T21:00:46Z</time>
      </trkpt>
      <trkpt lat="43.27294" lon="1.90766">
        <ele>306</ele>
        <time>2020-06-05T21:01:09Z</time>
      </trkpt>
      <trkpt lat="43.27304" lon="1.90686">
        <ele>304</ele>
        <time>2020-06-05T21:01:23Z</time>
      </trkpt>
      <trkpt lat="43.27322" lon="1.90627">
        <ele>306</ele>
        <time>2020-06-05T21:01:34Z</time>
      </trkpt>
      <trkpt lat="43.27353" lon="1.9058">
        <ele>304</ele>
        <time>2020-06-05T21:01:44Z</time>
      </trkpt>
      <trkpt lat="43.27362" lon="1.90553">
        <ele>302</ele>
        <time>2020-06-05T21:01:49Z</time>
      </trkpt>
      <trkpt lat="43.27365" lon="1.90532">
        <ele>302</ele>
        <time>2020-06-05T21:01:53Z</time>
      </trkpt>
      <trkpt lat="43.27385" lon="1.90485">
        <ele>300</ele>
        <time>2020-06-05T21:02:02Z</time>
      </trkpt>
      <trkpt lat="43.27449" lon="1.90386">
        <ele>293</ele>
        <time>2020-06-05T21:02:25Z</time>
      </trkpt>
      <trkpt lat="43.27456" lon="1.9038">
        <ele>293</ele>
        <time>2020-06-05T21:02:27Z</time>
      </trkpt>
      <trkpt lat="43.27471" lon="1.90375">
        <ele>292</ele>
        <time>2020-06-05T21:02:30Z</time>
      </trkpt>
      <trkpt lat="43.27505" lon="1.90352">
        <ele>291</ele>
        <time>2020-06-05T21:02:39Z</time>
      </trkpt>
      <trkpt lat="43.2752" lon="1.90338">
        <ele>292</ele>
        <time>2020-06-05T21:02:43Z</time>
      </trkpt>
      <trkpt lat="43.27555" lon="1.90322">
        <ele>293</ele>
        <time>2020-06-05T21:02:52Z</time>
      </trkpt>
      <trkpt lat="43.27586" lon="1.90304">
        <ele>295</ele>
        <time>2020-06-05T21:03:00Z</time>
      </trkpt>
      <trkpt lat="43.27595" lon="1.9029">
        <ele>294</ele>
        <time>2020-06-05T21:03:03Z</time>
      </trkpt>
      <trkpt lat="43.27611" lon="1.90249">
        <ele>295</ele>
        <time>2020-06-05T21:03:11Z</time>
      </trkpt>
      <trkpt lat="43.27632" lon="1.90221">
        <ele>294</ele>
        <time>2020-06-05T21:03:18Z</time>
      </trkpt>
      <trkpt lat="43.27638" lon="1.90191">
        <ele>294</ele>
        <time>2020-06-05T21:03:23Z</time>
      </trkpt>
      <trkpt lat="43.27651" lon="1.90058">
        <ele>290</ele>
        <time>2020-06-05T21:03:46Z</time>
      </trkpt>
      <trkpt lat="43.27667" lon="1.89992">
        <ele>292</ele>
        <time>2020-06-05T21:03:58Z</time>
      </trkpt>
      <trkpt lat="43.2768" lon="1.89969">
        <ele>292</ele>
        <time>2020-06-05T21:04:03Z</time>
      </trkpt>
      <trkpt lat="43.27712" lon="1.89937">
        <ele>294</ele>
        <time>2020-06-05T21:04:12Z</time>
      </trkpt>
      <trkpt lat="43.27723" lon="1.89931">
        <ele>295</ele>
        <time>2020-06-05T21:04:15Z</time>
      </trkpt>
      <trkpt lat="43.2774" lon="1.89928">
        <ele>297</ele>
        <time>2020-06-05T21:04:19Z</time>
      </trkpt>
      <trkpt lat="43.2777" lon="1.89935">
        <ele>295</ele>
        <time>2020-06-05T21:04:26Z</time>
      </trkpt>
      <trkpt lat="43.27776" lon="1.89934">
        <ele>295</ele>
        <time>2020-06-05T21:04:27Z</time>
      </trkpt>
      <trkpt lat="43.27788" lon="1.89928">
        <ele>295</ele>
        <time>2020-06-05T21:04:30Z</time>
      </trkpt>
      <trkpt lat="43.27803" lon="1.89912">
        <ele>295</ele>
        <time>2020-06-05T21:04:35Z</time>
      </trkpt>
      <trkpt lat="43.27833" lon="1.89909">
        <ele>293</ele>
        <time>2020-06-05T21:04:42Z</time>
      </trkpt>
      <trkpt lat="43.27849" lon="1.89903">
        <ele>293</ele>
        <time>2020-06-05T21:04:46Z</time>
      </trkpt>
      <trkpt lat="43.27862" lon="1.89901">
        <ele>292</ele>
        <time>2020-06-05T21:04:49Z</time>
      </trkpt>
      <trkpt lat="43.27873" lon="1.89893">
        <ele>293</ele>
        <time>2020-06-05T21:04:52Z</time>
      </trkpt>
      <trkpt lat="43.27892" lon="1.89859">
        <ele>296</ele>
        <time>2020-06-05T21:04:59Z</time>
      </trkpt>
      <trkpt lat="43.27928" lon="1.89812">
        <ele>300</ele>
        <time>2020-06-05T21:05:10Z</time>
      </trkpt>
      <trkpt lat="43.27962" lon="1.89721">
        <ele>301</ele>
        <time>2020-06-05T21:05:28Z</time>
      </trkpt>
      <trkpt lat="43.2797" lon="1.89706">
        <ele>302</ele>
        <time>2020-06-05T21:05:31Z</time>
      </trkpt>
      <trkpt lat="43.27981" lon="1.89691">
        <ele>303</ele>
        <time>2020-06-05T21:05:35Z</time>
      </trkpt>
      <trkpt lat="43.27996" lon="1.89677">
        <ele>306</ele>
        <time>2020-06-05T21:05:39Z</time>
      </trkpt>
      <trkpt lat="43.28017" lon="1.89663">
        <ele>307</ele>
        <time>2020-06-05T21:05:44Z</time>
      </trkpt>
      <trkpt lat="43.28034" lon="1.89658">
        <ele>308</ele>
        <time>2020-06-05T21:05:48Z</time>
      </trkpt>
      <trkpt lat="43.28055" lon="1.8964">
        <ele>308</ele>
        <time>2020-06-05T21:05:54Z</time>
      </trkpt>
      <trkpt lat="43.28072" lon="1.89618">
        <ele>308</ele>
        <time>2020-06-05T21:06:00Z</time>
      </trkpt>
      <trkpt lat="43.28102" lon="1.89592">
        <ele>307</ele>
        <time>2020-06-05T21:06:08Z</time>
      </trkpt>
      <trkpt lat="43.28119" lon="1.89565">
        <ele>307</ele>
        <time>2020-06-05T21:06:14Z</time>
      </trkpt>
      <trkpt lat="43.28152" lon="1.89537">
        <ele>308</ele>
        <time>2020-06-05T21:06:23Z</time>
      </trkpt>
      <trkpt lat="43.28196" lon="1.89437">
        <ele>307</ele>
        <time>2020-06-05T21:06:43Z</time>
      </trkpt>
      <trkpt lat="43.28231" lon="1.89374">
        <ele>307</ele>
        <time>2020-06-05T21:06:56Z</time>
      </trkpt>
      <trkpt lat="43.28279" lon="1.89308">
        <ele>306</ele>
        <time>2020-06-05T21:07:12Z</time>
      </trkpt>
      <trkpt lat="43.28294" lon="1.89297">
        <ele>305</ele>
        <time>2020-06-05T21:07:16Z</time>
      </trkpt>
      <trkpt lat="43.28301" lon="1.89295">
        <ele>304</ele>
        <time>2020-06-05T21:07:18Z</time>
      </trkpt>
      <trkpt lat="43.28336" lon="1.89238">
        <ele>305</ele>
        <time>2020-06-05T21:07:31Z</time>
      </trkpt>
      <trkpt lat="43.28341" lon="1.89222">
        <ele>303</ele>
        <time>2020-06-05T21:07:33Z</time>
      </trkpt>
      <trkpt lat="43.28364" lon="1.8919">
        <ele>300</ele>
        <time>2020-06-05T21:07:41Z</time>
      </trkpt>
      <trkpt lat="43.28377" lon="1.89201">
        <ele>298</ele>
        <time>2020-06-05T21:07:45Z</time>
      </trkpt>
      <trkpt lat="43.28386" lon="1.8919">
        <ele>298</ele>
        <time>2020-06-05T21:07:47Z</time>
      </trkpt>
      <trkpt lat="43.28417" lon="1.89134">
        <ele>298</ele>
        <time>2020-06-05T21:07:59Z</time>
      </trkpt>
      <trkpt lat="43.28429" lon="1.89085">
        <ele>299</ele>
        <time>2020-06-05T21:08:08Z</time>
      </trkpt>
      <trkpt lat="43.28468" lon="1.8898">
        <ele>300</ele>
        <time>2020-06-05T21:08:28Z</time>
      </trkpt>
      <trkpt lat="43.28484" lon="1.8896">
        <ele>303</ele>
        <time>2020-06-05T21:08:33Z</time>
      </trkpt>
      <trkpt lat="43.28526" lon="1.88938">
        <ele>309</ele>
        <time>2020-06-05T21:08:44Z</time>
      </trkpt>
      <trkpt lat="43.28564" lon="1.88925">
        <ele>315</ele>
        <time>2020-06-05T21:08:53Z</time>
      </trkpt>
      <trkpt lat="43.28586" lon="1.88907">
        <ele>318</ele>
        <time>2020-06-05T21:08:59Z</time>
      </trkpt>
      <trkpt lat="43.2859" lon="1.88891">
        <ele>317</ele>
        <time>2020-06-05T21:09:02Z</time>
      </trkpt>
      <trkpt lat="43.28619" lon="1.88834">
        <ele>313</ele>
        <time>2020-06-05T21:09:14Z</time>
      </trkpt>
      <trkpt lat="43.28631" lon="1.88819">
        <ele>311</ele>
        <time>2020-06-05T21:09:17Z</time>
      </trkpt>
      <trkpt lat="43.28649" lon="1.88812">
        <ele>309</ele>
        <time>2020-06-05T21:09:22Z</time>
      </trkpt>
      <trkpt lat="43.28686" lon="1.88765">
        <ele>302</ele>
        <time>2020-06-05T21:09:34Z</time>
      </trkpt>
      <trkpt lat="43.28697" lon="1.88757">
        <ele>301</ele>
        <time>2020-06-05T21:09:36Z</time>
      </trkpt>
      <trkpt lat="43.28707" lon="1.88728">
        <ele>299</ele>
        <time>2020-06-05T21:09:42Z</time>
      </trkpt>
      <trkpt lat="43.28707" lon="1.88717">
        <ele>299</ele>
        <time>2020-06-05T21:09:44Z</time>
      </trkpt>
      <trkpt lat="43.2872" lon="1.88669">
        <ele>299</ele>
        <time>2020-06-05T21:09:53Z</time>
      </trkpt>
      <trkpt lat="43.28734" lon="1.88628">
        <ele>303</ele>
        <time>2020-06-05T21:10:00Z</time>
      </trkpt>
      <trkpt lat="43.28735" lon="1.88612">
        <ele>304</ele>
        <time>2020-06-05T21:10:03Z</time>
      </trkpt>
      <trkpt lat="43.28747" lon="1.88576">
        <ele>308</ele>
        <time>2020-06-05T21:10:10Z</time>
      </trkpt>
      <trkpt lat="43.28755" lon="1.8853">
        <ele>309</ele>
        <time>2020-06-05T21:10:18Z</time>
      </trkpt>
      <trkpt lat="43.28771" lon="1.88509">
        <ele>309</ele>
        <time>2020-06-05T21:10:23Z</time>
      </trkpt>
      <trkpt lat="43.28783" lon="1.88486">
        <ele>309</ele>
        <time>2020-06-05T21:10:28Z</time>
      </trkpt>
      <trkpt lat="43.28789" lon="1.88458">
        <ele>310</ele>
        <time>2020-06-05T21:10:33Z</time>
      </trkpt>
      <trkpt lat="43.2881" lon="1.88401">
        <ele>312</ele>
        <time>2020-06-05T21:10:44Z</time>
      </trkpt>
      <trkpt lat="43.28844" lon="1.88361">
        <ele>314</ele>
        <time>2020-06-05T21:10:54Z</time>
      </trkpt>
      <trkpt lat="43.28864" lon="1.88326">
        <ele>313</ele>
        <time>2020-06-05T21:11:02Z</time>
      </trkpt>
      <trkpt lat="43.28886" lon="1.88273">
        <ele>309</ele>
        <time>2020-06-05T21:11:12Z</time>
      </trkpt>
      <trkpt lat="43.28918" lon="1.88169">
        <ele>309</ele>
        <time>2020-06-05T21:11:31Z</time>
      </trkpt>
      <trkpt lat="43.2893" lon="1.88152">
        <ele>306</ele>
        <time>2020-06-05T21:11:35Z</time>
      </trkpt>
      <trkpt lat="43.28963" lon="1.88048">
        <ele>298</ele>
        <time>2020-06-05T21:11:54Z</time>
      </trkpt>
      <trkpt lat="43.28978" lon="1.87989">
        <ele>297</ele>
        <time>2020-06-05T21:12:05Z</time>
      </trkpt>
      <trkpt lat="43.28982" lon="1.8795">
        <ele>295</ele>
        <time>2020-06-05T21:12:12Z</time>
      </trkpt>
      <trkpt lat="43.2898" lon="1.87902">
        <ele>292</ele>
        <time>2020-06-05T21:12:20Z</time>
      </trkpt>
      <trkpt lat="43.28985" lon="1.87858">
        <ele>291</ele>
        <time>2020-06-05T21:12:27Z</time>
      </trkpt>
      <trkpt lat="43.28985" lon="1.87823">
        <ele>289</ele>
        <time>2020-06-05T21:12:33Z</time>
      </trkpt>
      <trkpt lat="43.28994" lon="1.87686">
        <ele>291</ele>
        <time>2020-06-05T21:12:57Z</time>
      </trkpt>
      <trkpt lat="43.28992" lon="1.87646">
        <ele>291</ele>
        <time>2020-06-05T21:13:04Z</time>
      </trkpt>
      <trkpt lat="43.28981" lon="1.87589">
        <ele>291</ele>
        <time>2020-06-05T21:13:14Z</time>
      </trkpt>
      <trkpt lat="43.28985" lon="1.87575">
        <ele>291</ele>
        <time>2020-06-05T21:13:16Z</time>
      </trkpt>
      <trkpt lat="43.29014" lon="1.8752">
        <ele>285</ele>
        <time>2020-06-05T21:13:28Z</time>
      </trkpt>
      <trkpt lat="43.29037" lon="1.87461">
        <ele>278</ele>
        <time>2020-06-05T21:13:39Z</time>
      </trkpt>
      <trkpt lat="43.29076" lon="1.8735">
        <ele>271</ele>
        <time>2020-06-05T21:14:00Z</time>
      </trkpt>
      <trkpt lat="43.29082" lon="1.87327">
        <ele>269</ele>
        <time>2020-06-05T21:14:04Z</time>
      </trkpt>
      <trkpt lat="43.29085" lon="1.87255">
        <ele>263</ele>
        <time>2020-06-05T21:14:16Z</time>
      </trkpt>
      <trkpt lat="43.29082" lon="1.8724">
        <ele>263</ele>
        <time>2020-06-05T21:14:19Z</time>
      </trkpt>
      <trkpt lat="43.2907" lon="1.87226">
        <ele>262</ele>
        <time>2020-06-05T21:14:23Z</time>
      </trkpt>
      <trkpt lat="43.29059" lon="1.8722">
        <ele>262</ele>
        <time>2020-06-05T21:14:26Z</time>
      </trkpt>
      <trkpt lat="43.28827" lon="1.8714">
        <ele>254</ele>
        <time>2020-06-05T21:15:21Z</time>
      </trkpt>
      <trkpt lat="43.2882" lon="1.87135">
        <ele>254</ele>
        <time>2020-06-05T21:15:23Z</time>
      </trkpt>
      <trkpt lat="43.28816" lon="1.87127">
        <ele>253</ele>
        <time>2020-06-05T21:15:25Z</time>
      </trkpt>
      <trkpt lat="43.28815" lon="1.87116">
        <ele>253</ele>
        <time>2020-06-05T21:15:27Z</time>
      </trkpt>
      <trkpt lat="43.28827" lon="1.8705">
        <ele>252</ele>
        <time>2020-06-05T21:15:38Z</time>
      </trkpt>
      <trkpt lat="43.28833" lon="1.8699">
        <ele>252</ele>
        <time>2020-06-05T21:15:49Z</time>
      </trkpt>
      <trkpt lat="43.2884" lon="1.86973">
        <ele>253</ele>
        <time>2020-06-05T21:15:52Z</time>
      </trkpt>
      <trkpt lat="43.28847" lon="1.86927">
        <ele>256</ele>
        <time>2020-06-05T21:16:00Z</time>
      </trkpt>
      <trkpt lat="43.28872" lon="1.86872">
        <ele>260</ele>
        <time>2020-06-05T21:16:11Z</time>
      </trkpt>
      <trkpt lat="43.28895" lon="1.86839">
        <ele>263</ele>
        <time>2020-06-05T21:16:19Z</time>
      </trkpt>
      <trkpt lat="43.28924" lon="1.86812">
        <ele>265</ele>
        <time>2020-06-05T21:16:27Z</time>
      </trkpt>
      <trkpt lat="43.28956" lon="1.8681">
        <ele>269</ele>
        <time>2020-06-05T21:16:34Z</time>
      </trkpt>
      <trkpt lat="43.28975" lon="1.86804">
        <ele>271</ele>
        <time>2020-06-05T21:16:39Z</time>
      </trkpt>
      <trkpt lat="43.28989" lon="1.86805">
        <ele>273</ele>
        <time>2020-06-05T21:16:42Z</time>
      </trkpt>
      <trkpt lat="43.29001" lon="1.86809">
        <ele>275</ele>
        <time>2020-06-05T21:16:45Z</time>
      </trkpt>
      <trkpt lat="43.29011" lon="1.86813">
        <ele>277</ele>
        <time>2020-06-05T21:16:48Z</time>
      </trkpt>
      <trkpt lat="43.29021" lon="1.86821">
        <ele>279</ele>
        <time>2020-06-05T21:16:50Z</time>
      </trkpt>
      <trkpt lat="43.29029" lon="1.86822">
        <ele>281</ele>
        <time>2020-06-05T21:16:52Z</time>
      </trkpt>
      <trkpt lat="43.29032" lon="1.8682">
        <ele>281</ele>
        <time>2020-06-05T21:16:53Z</time>
      </trkpt>
      <trkpt lat="43.29036" lon="1.86813">
        <ele>281</ele>
        <time>2020-06-05T21:16:54Z</time>
      </trkpt>
      <trkpt lat="43.29047" lon="1.86772">
        <ele>280</ele>
        <time>2020-06-05T21:17:02Z</time>
      </trkpt>
      <trkpt lat="43.29047" lon="1.8673">
        <ele>278</ele>
        <time>2020-06-05T21:17:09Z</time>
      </trkpt>
      <trkpt lat="43.29049" lon="1.86717">
        <ele>279</ele>
        <time>2020-06-05T21:17:11Z</time>
      </trkpt>
      <trkpt lat="43.29052" lon="1.8672">
        <ele>279</ele>
        <time>2020-06-05T21:17:12Z</time>
      </trkpt>
      <trkpt lat="43.29065" lon="1.86782">
        <ele>284</ele>
        <time>2020-06-05T21:17:23Z</time>
      </trkpt>
      <trkpt lat="43.29077" lon="1.8681">
        <ele>288</ele>
        <time>2020-06-05T21:17:29Z</time>
      </trkpt>
      <trkpt lat="43.29103" lon="1.86895">
        <ele>288</ele>
        <time>2020-06-05T21:17:44Z</time>
      </trkpt>
      <trkpt lat="43.29116" lon="1.86918">
        <ele>287</ele>
        <time>2020-06-05T21:17:49Z</time>
      </trkpt>
      <trkpt lat="43.2918" lon="1.87005">
        <ele>284</ele>
        <time>2020-06-05T21:18:10Z</time>
      </trkpt>
      <trkpt lat="43.29206" lon="1.87036">
        <ele>283</ele>
        <time>2020-06-05T21:18:18Z</time>
      </trkpt>
      <trkpt lat="43.29231" lon="1.87064">
        <ele>285</ele>
        <time>2020-06-05T21:18:26Z</time>
      </trkpt>
      <trkpt lat="43.29255" lon="1.87082">
        <ele>288</ele>
        <time>2020-06-05T21:18:32Z</time>
      </trkpt>
      <trkpt lat="43.29269" lon="1.87096">
        <ele>288</ele>
        <time>2020-06-05T21:18:36Z</time>
      </trkpt>
      <trkpt lat="43.29292" lon="1.87136">
        <ele>288</ele>
        <time>2020-06-05T21:18:45Z</time>
      </trkpt>
      <trkpt lat="43.29302" lon="1.8716">
        <ele>288</ele>
        <time>2020-06-05T21:18:50Z</time>
      </trkpt>
      <trkpt lat="43.29304" lon="1.87194">
        <ele>288</ele>
        <time>2020-06-05T21:18:55Z</time>
      </trkpt>
      <trkpt lat="43.29299" lon="1.87304">
        <ele>288</ele>
        <time>2020-06-05T21:19:14Z</time>
      </trkpt>
      <trkpt lat="43.29305" lon="1.87357">
        <ele>291</ele>
        <time>2020-06-05T21:19:23Z</time>
      </trkpt>
      <trkpt lat="43.29337" lon="1.87434">
        <ele>299</ele>
        <time>2020-06-05T21:19:38Z</time>
      </trkpt>
      <trkpt lat="43.2938" lon="1.87512">
        <ele>297</ele>
        <time>2020-06-05T21:19:55Z</time>
      </trkpt>
      <trkpt lat="43.29447" lon="1.87644">
        <ele>302</ele>
        <time>2020-06-05T21:20:22Z</time>
      </trkpt>
      <trkpt lat="43.2948" lon="1.877">
        <ele>307</ele>
        <time>2020-06-05T21:20:35Z</time>
      </trkpt>
      <trkpt lat="43.29499" lon="1.87743">
        <ele>312</ele>
        <time>2020-06-05T21:20:43Z</time>
      </trkpt>
      <trkpt lat="43.29517" lon="1.87755">
        <ele>314</ele>
        <time>2020-06-05T21:20:48Z</time>
      </trkpt>
      <trkpt lat="43.29559" lon="1.87761">
        <ele>315</ele>
        <time>2020-06-05T21:20:58Z</time>
      </trkpt>
      <trkpt lat="43.29574" lon="1.87758">
        <ele>316</ele>
        <time>2020-06-05T21:21:01Z</time>
      </trkpt>
      <trkpt lat="43.2959" lon="1.87741">
        <ele>316</ele>
        <time>2020-06-05T21:21:06Z</time>
      </trkpt>
      <trkpt lat="43.29643" lon="1.87659">
        <ele>320</ele>
        <time>2020-06-05T21:21:25Z</time>
      </trkpt>
      <trkpt lat="43.29731" lon="1.87495">
        <ele>318</ele>
        <time>2020-06-05T21:21:59Z</time>
      </trkpt>
      <trkpt lat="43.29801" lon="1.87405">
        <ele>316</ele>
        <time>2020-06-05T21:22:22Z</time>
      </trkpt>
      <trkpt lat="43.29837" lon="1.87352">
        <ele>320</ele>
        <time>2020-06-05T21:22:34Z</time>
      </trkpt>
      <trkpt lat="43.29844" lon="1.87351">
        <ele>319</ele>
        <time>2020-06-05T21:22:36Z</time>
      </trkpt>
      <trkpt lat="43.29867" lon="1.8734">
        <ele>319</ele>
        <time>2020-06-05T21:22:41Z</time>
      </trkpt>
      <trkpt lat="43.29949" lon="1.87318">
        <ele>314</ele>
        <time>2020-06-05T21:23:01Z</time>
      </trkpt>
      <trkpt lat="43.29962" lon="1.87309">
        <ele>313</ele>
        <time>2020-06-05T21:23:04Z</time>
      </trkpt>
      <trkpt lat="43.29984" lon="1.87286">
        <ele>313</ele>
        <time>2020-06-05T21:23:11Z</time>
      </trkpt>
      <trkpt lat="43.29991" lon="1.87282">
        <ele>313</ele>
        <time>2020-06-05T21:23:12Z</time>
      </trkpt>
      <trkpt lat="43.30009" lon="1.87283">
        <ele>312</ele>
        <time>2020-06-05T21:23:17Z</time>
      </trkpt>
      <trkpt lat="43.30019" lon="1.8729">
        <ele>312</ele>
        <time>2020-06-05T21:23:19Z</time>
      </trkpt>
      <trkpt lat="43.30039" lon="1.87353">
        <ele>308</ele>
        <time>2020-06-05T21:23:31Z</time>
      </trkpt>
      <trkpt lat="43.30041" lon="1.87354">
        <ele>308</ele>
        <time>2020-06-05T21:23:31Z</time>
      </trkpt>
      <trkpt lat="43.30022" lon="1.87298">
        <ele>311</ele>
        <time>2020-06-05T21:23:42Z</time>
      </trkpt>
      <trkpt lat="43.30019" lon="1.87296">
        <ele>311</ele>
        <time>2020-06-05T21:23:43Z</time>
      </trkpt>
      <trkpt lat="43.30015" lon="1.87307">
        <ele>310</ele>
        <time>2020-06-05T21:23:45Z</time>
      </trkpt>
      <trkpt lat="43.30017" lon="1.87337">
        <ele>307</ele>
        <time>2020-06-05T21:23:50Z</time>
      </trkpt>
      <trkpt lat="43.30013" lon="1.87373">
        <ele>305</ele>
        <time>2020-06-05T21:23:56Z</time>
      </trkpt>
      <trkpt lat="43.29999" lon="1.87417">
        <ele>302</ele>
        <time>2020-06-05T21:24:04Z</time>
      </trkpt>
      <trkpt lat="43.29937" lon="1.87571">
        <ele>290</ele>
        <time>2020-06-05T21:24:34Z</time>
      </trkpt>
      <trkpt lat="43.29929" lon="1.87605">
        <ele>285</ele>
        <time>2020-06-05T21:24:40Z</time>
      </trkpt>
      <trkpt lat="43.29929" lon="1.87663">
        <ele>282</ele>
        <time>2020-06-05T21:24:50Z</time>
      </trkpt>
      <trkpt lat="43.29931" lon="1.87698">
        <ele>281</ele>
        <time>2020-06-05T21:24:56Z</time>
      </trkpt>
      <trkpt lat="43.29936" lon="1.87721">
        <ele>282</ele>
        <time>2020-06-05T21:25:00Z</time>
      </trkpt>
      <trkpt lat="43.29936" lon="1.8774">
        <ele>281</ele>
        <time>2020-06-05T21:25:03Z</time>
      </trkpt>
      <trkpt lat="43.2993" lon="1.87759">
        <ele>278</ele>
        <time>2020-06-05T21:25:07Z</time>
      </trkpt>
      <trkpt lat="43.29916" lon="1.87782">
        <ele>273</ele>
        <time>2020-06-05T21:25:12Z</time>
      </trkpt>
      <trkpt lat="43.29909" lon="1.87803">
        <ele>273</ele>
        <time>2020-06-05T21:25:16Z</time>
      </trkpt>
      <trkpt lat="43.29899" lon="1.8785">
        <ele>271</ele>
        <time>2020-06-05T21:25:24Z</time>
      </trkpt>
      <trkpt lat="43.29893" lon="1.87867">
        <ele>269</ele>
        <time>2020-06-05T21:25:27Z</time>
      </trkpt>
      <trkpt lat="43.29885" lon="1.8792">
        <ele>266</ele>
        <time>2020-06-05T21:25:37Z</time>
      </trkpt>
      <trkpt lat="43.29886" lon="1.87949">
        <ele>264</ele>
        <time>2020-06-05T21:25:42Z</time>
      </trkpt>
      <trkpt lat="43.29899" lon="1.87989">
        <ele>261</ele>
        <time>2020-06-05T21:25:49Z</time>
      </trkpt>
      <trkpt lat="43.29923" lon="1.88104">
        <ele>253</ele>
        <time>2020-06-05T21:26:09Z</time>
      </trkpt>
      <trkpt lat="43.29951" lon="1.88203">
        <ele>247</ele>
        <time>2020-06-05T21:26:27Z</time>
      </trkpt>
      <trkpt lat="43.2997" lon="1.88258">
        <ele>244</ele>
        <time>2020-06-05T21:26:38Z</time>
      </trkpt>
      <trkpt lat="43.29982" lon="1.88305">
        <ele>244</ele>
        <time>2020-06-05T21:26:46Z</time>
      </trkpt>
      <trkpt lat="43.2998" lon="1.88424">
        <ele>243</ele>
        <time>2020-06-05T21:27:06Z</time>
      </trkpt>
      <trkpt lat="43.29978" lon="1.88458">
        <ele>243</ele>
        <time>2020-06-05T21:27:12Z</time>
      </trkpt>
      <trkpt lat="43.29969" lon="1.88524">
        <ele>241</ele>
        <time>2020-06-05T21:27:24Z</time>
      </trkpt>
      <trkpt lat="43.29966" lon="1.88668">
        <ele>233</ele>
        <time>2020-06-05T21:27:48Z</time>
      </trkpt>
      <trkpt lat="43.29962" lon="1.8871">
        <ele>232</ele>
        <time>2020-06-05T21:27:55Z</time>
      </trkpt>
      <trkpt lat="43.29966" lon="1.88716">
        <ele>232</ele>
        <time>2020-06-05T21:27:57Z</time>
      </trkpt>
      <trkpt lat="43.29978" lon="1.88717">
        <ele>232</ele>
        <time>2020-06-05T21:28:00Z</time>
      </trkpt>
      <trkpt lat="43.29983" lon="1.88716">
        <ele>232</ele>
        <time>2020-06-05T21:28:01Z</time>
      </trkpt>
      <trkpt lat="43.29997" lon="1.88705">
        <ele>233</ele>
        <time>2020-06-05T21:28:04Z</time>
      </trkpt>
      <trkpt lat="43.30034" lon="1.88623">
        <ele>242</ele>
        <time>2020-06-05T21:28:21Z</time>
      </trkpt>
      <trkpt lat="43.30053" lon="1.88573">
        <ele>247</ele>
        <time>2020-06-05T21:28:30Z</time>
      </trkpt>
      <trkpt lat="43.30079" lon="1.88548">
        <ele>251</ele>
        <time>2020-06-05T21:28:38Z</time>
      </trkpt>
      <trkpt lat="43.30092" lon="1.88548">
        <ele>254</ele>
        <time>2020-06-05T21:28:41Z</time>
      </trkpt>
      <trkpt lat="43.30112" lon="1.88539">
        <ele>258</ele>
        <time>2020-06-05T21:28:46Z</time>
      </trkpt>
      <trkpt lat="43.30125" lon="1.88522">
        <ele>260</ele>
        <time>2020-06-05T21:28:50Z</time>
      </trkpt>
      <trkpt lat="43.3013" lon="1.88506">
        <ele>261</ele>
        <time>2020-06-05T21:28:53Z</time>
      </trkpt>
      <trkpt lat="43.30132" lon="1.88484">
        <ele>261</ele>
        <time>2020-06-05T21:28:57Z</time>
      </trkpt>
      <trkpt lat="43.3014" lon="1.88464">
        <ele>262</ele>
        <time>2020-06-05T21:29:01Z</time>
      </trkpt>
      <trkpt lat="43.30152" lon="1.88449">
        <ele>263</ele>
        <time>2020-06-05T21:29:04Z</time>
      </trkpt>
      <trkpt lat="43.30189" lon="1.88374">
        <ele>267</ele>
        <time>2020-06-05T21:29:20Z</time>
      </trkpt>
      <trkpt lat="43.30205" lon="1.88338">
        <ele>270</ele>
        <time>2020-06-05T21:29:27Z</time>
      </trkpt>
      <trkpt lat="43.30214" lon="1.88309">
        <ele>271</ele>
        <time>2020-06-05T21:29:32Z</time>
      </trkpt>
      <trkpt lat="43.30232" lon="1.88279">
        <ele>274</ele>
        <time>2020-06-05T21:29:39Z</time>
      </trkpt>
      <trkpt lat="43.30257" lon="1.88249">
        <ele>277</ele>
        <time>2020-06-05T21:29:47Z</time>
      </trkpt>
      <trkpt lat="43.30265" lon="1.88233">
        <ele>277</ele>
        <time>2020-06-05T21:29:50Z</time>
      </trkpt>
      <trkpt lat="43.30274" lon="1.88204">
        <ele>278</ele>
        <time>2020-06-05T21:29:55Z</time>
      </trkpt>
      <trkpt lat="43.30281" lon="1.88195">
        <ele>278</ele>
        <time>2020-06-05T21:29:58Z</time>
      </trkpt>
      <trkpt lat="43.30283" lon="1.88202">
        <ele>278</ele>
        <time>2020-06-05T21:29:59Z</time>
      </trkpt>
      <trkpt lat="43.30271" lon="1.88234">
        <ele>276</ele>
        <time>2020-06-05T21:30:05Z</time>
      </trkpt>
      <trkpt lat="43.3027" lon="1.88259">
        <ele>276</ele>
        <time>2020-06-05T21:30:09Z</time>
      </trkpt>
      <trkpt lat="43.30279" lon="1.88279">
        <ele>275</ele>
        <time>2020-06-05T21:30:13Z</time>
      </trkpt>
      <trkpt lat="43.30292" lon="1.88291">
        <ele>274</ele>
        <time>2020-06-05T21:30:17Z</time>
      </trkpt>
      <trkpt lat="43.30314" lon="1.88298">
        <ele>272</ele>
        <time>2020-06-05T21:30:22Z</time>
      </trkpt>
      <trkpt lat="43.30321" lon="1.88303">
        <ele>271</ele>
        <time>2020-06-05T21:30:24Z</time>
      </trkpt>
      <trkpt lat="43.30338" lon="1.88329">
        <ele>269</ele>
        <time>2020-06-05T21:30:30Z</time>
      </trkpt>
      <trkpt lat="43.30344" lon="1.88349">
        <ele>268</ele>
        <time>2020-06-05T21:30:34Z</time>
      </trkpt>
      <trkpt lat="43.30343" lon="1.88378">
        <ele>269</ele>
        <time>2020-06-05T21:30:39Z</time>
      </trkpt>
      <trkpt lat="43.30347" lon="1.88408">
        <ele>268</ele>
        <time>2020-06-05T21:30:44Z</time>
      </trkpt>
      <trkpt lat="43.30381" lon="1.88532">
        <ele>268</ele>
        <time>2020-06-05T21:31:06Z</time>
      </trkpt>
      <trkpt lat="43.30407" lon="1.88567">
        <ele>270</ele>
        <time>2020-06-05T21:31:15Z</time>
      </trkpt>
      <trkpt lat="43.30424" lon="1.88599">
        <ele>269</ele>
        <time>2020-06-05T21:31:21Z</time>
      </trkpt>
      <trkpt lat="43.30447" lon="1.88633">
        <ele>266</ele>
        <time>2020-06-05T21:31:29Z</time>
      </trkpt>
      <trkpt lat="43.30482" lon="1.88659">
        <ele>264</ele>
        <time>2020-06-05T21:31:39Z</time>
      </trkpt>
      <trkpt lat="43.30487" lon="1.88667">
        <ele>264</ele>
        <time>2020-06-05T21:31:40Z</time>
      </trkpt>
      <trkpt lat="43.30491" lon="1.88684">
        <ele>263</ele>
        <time>2020-06-05T21:31:43Z</time>
      </trkpt>
      <trkpt lat="43.305" lon="1.88705">
        <ele>262</ele>
        <time>2020-06-05T21:31:48Z</time>
      </trkpt>
      <trkpt lat="43.30506" lon="1.8873">
        <ele>259</ele>
        <time>2020-06-05T21:31:52Z</time>
      </trkpt>
      <trkpt lat="43.30505" lon="1.88782">
        <ele>257</ele>
        <time>2020-06-05T21:32:01Z</time>
      </trkpt>
      <trkpt lat="43.30509" lon="1.88858">
        <ele>252</ele>
        <time>2020-06-05T21:32:14Z</time>
      </trkpt>
      <trkpt lat="43.30517" lon="1.88887">
        <ele>249</ele>
        <time>2020-06-05T21:32:19Z</time>
      </trkpt>
      <trkpt lat="43.3053" lon="1.88907">
        <ele>246</ele>
        <time>2020-06-05T21:32:24Z</time>
      </trkpt>
      <trkpt lat="43.30549" lon="1.88951">
        <ele>242</ele>
        <time>2020-06-05T21:32:32Z</time>
      </trkpt>
      <trkpt lat="43.30556" lon="1.88962">
        <ele>241</ele>
        <time>2020-06-05T21:32:35Z</time>
      </trkpt>
      <trkpt lat="43.30557" lon="1.88976">
        <ele>240</ele>
        <time>2020-06-05T21:32:37Z</time>
      </trkpt>
      <trkpt lat="43.30564" lon="1.89005">
        <ele>238</ele>
        <time>2020-06-05T21:32:42Z</time>
      </trkpt>
      <trkpt lat="43.30561" lon="1.89059">
        <ele>234</ele>
        <time>2020-06-05T21:32:52Z</time>
      </trkpt>
      <trkpt lat="43.30567" lon="1.89068">
        <ele>234</ele>
        <time>2020-06-05T21:32:54Z</time>
      </trkpt>
      <trkpt lat="43.30579" lon="1.89073">
        <ele>234</ele>
        <time>2020-06-05T21:32:57Z</time>
      </trkpt>
      <trkpt lat="43.30587" lon="1.89073">
        <ele>233</ele>
        <time>2020-06-05T21:32:59Z</time>
      </trkpt>
      <trkpt lat="43.30606" lon="1.88999">
        <ele>232</ele>
        <time>2020-06-05T21:33:12Z</time>
      </trkpt>
      <trkpt lat="43.30608" lon="1.88979">
        <ele>233</ele>
        <time>2020-06-05T21:33:15Z</time>
      </trkpt>
      <trkpt lat="43.30604" lon="1.88966">
        <ele>234</ele>
        <time>2020-06-05T21:33:18Z</time>
      </trkpt>
      <trkpt lat="43.30576" lon="1.8891">
        <ele>243</ele>
        <time>2020-06-05T21:33:29Z</time>
      </trkpt>
      <trkpt lat="43.30577" lon="1.88892">
        <ele>243</ele>
        <time>2020-06-05T21:33:32Z</time>
      </trkpt>
      <trkpt lat="43.30599" lon="1.88829">
        <ele>239</ele>
        <time>2020-06-05T21:33:44Z</time>
      </trkpt>
      <trkpt lat="43.30606" lon="1.88829">
        <ele>237</ele>
        <time>2020-06-05T21:33:46Z</time>
      </trkpt>
      <trkpt lat="43.30615" lon="1.88839">
        <ele>234</ele>
        <time>2020-06-05T21:33:49Z</time>
      </trkpt>
      <trkpt lat="43.30618" lon="1.88835">
        <ele>233</ele>
        <time>2020-06-05T21:33:50Z</time>
      </trkpt>
      <trkpt lat="43.30634" lon="1.88787">
        <ele>230</ele>
        <time>2020-06-05T21:33:58Z</time>
      </trkpt>
      <trkpt lat="43.30642" lon="1.88771">
        <ele>229</ele>
        <time>2020-06-05T21:34:02Z</time>
      </trkpt>
      <trkpt lat="43.30643" lon="1.88761">
        <ele>229</ele>
        <time>2020-06-05T21:34:04Z</time>
      </trkpt>
      <trkpt lat="43.30658" lon="1.88714">
        <ele>228</ele>
        <time>2020-06-05T21:34:12Z</time>
      </trkpt>
      <trkpt lat="43.30674" lon="1.88643">
        <ele>226</ele>
        <time>2020-06-05T21:34:25Z</time>
      </trkpt>
      <trkpt lat="43.30679" lon="1.88606">
        <ele>224</ele>
        <time>2020-06-05T21:34:31Z</time>
      </trkpt>
      <trkpt lat="43.30678" lon="1.88593">
        <ele>223</ele>
        <time>2020-06-05T21:34:33Z</time>
      </trkpt>
      <trkpt lat="43.30671" lon="1.88579">
        <ele>223</ele>
        <time>2020-06-05T21:34:36Z</time>
      </trkpt>
      <trkpt lat="43.30642" lon="1.88541">
        <ele>227</ele>
        <time>2020-06-05T21:34:46Z</time>
      </trkpt>
      <trkpt lat="43.30641" lon="1.88523">
        <ele>226</ele>
        <time>2020-06-05T21:34:49Z</time>
      </trkpt>
      <trkpt lat="43.30654" lon="1.88499">
        <ele>223</ele>
        <time>2020-06-05T21:34:54Z</time>
      </trkpt>
      <trkpt lat="43.30685" lon="1.88453">
        <ele>223</ele>
        <time>2020-06-05T21:35:05Z</time>
      </trkpt>
      <trkpt lat="43.3069" lon="1.88441">
        <ele>223</ele>
        <time>2020-06-05T21:35:07Z</time>
      </trkpt>
      <trkpt lat="43.30685" lon="1.88382">
        <ele>229</ele>
        <time>2020-06-05T21:35:17Z</time>
      </trkpt>
      <trkpt lat="43.30681" lon="1.88361">
        <ele>232</ele>
        <time>2020-06-05T21:35:21Z</time>
      </trkpt>
      <trkpt lat="43.30688" lon="1.88359">
        <ele>232</ele>
        <time>2020-06-05T21:35:22Z</time>
      </trkpt>
      <trkpt lat="43.3069" lon="1.88352">
        <ele>232</ele>
        <time>2020-06-05T21:35:24Z</time>
      </trkpt>
      <trkpt lat="43.307" lon="1.88341">
        <ele>233</ele>
        <time>2020-06-05T21:35:27Z</time>
      </trkpt>
      <trkpt lat="43.30727" lon="1.88317">
        <ele>235</ele>
        <time>2020-06-05T21:35:34Z</time>
      </trkpt>
      <trkpt lat="43.3074" lon="1.88302">
        <ele>237</ele>
        <time>2020-06-05T21:35:38Z</time>
      </trkpt>
      <trkpt lat="43.30756" lon="1.88274">
        <ele>240</ele>
        <time>2020-06-05T21:35:44Z</time>
      </trkpt>
      <trkpt lat="43.30766" lon="1.88264">
        <ele>240</ele>
        <time>2020-06-05T21:35:47Z</time>
      </trkpt>
      <trkpt lat="43.30778" lon="1.88258">
        <ele>240</ele>
        <time>2020-06-05T21:35:50Z</time>
      </trkpt>
      <trkpt lat="43.30792" lon="1.88246">
        <ele>239</ele>
        <time>2020-06-05T21:35:54Z</time>
      </trkpt>
      <trkpt lat="43.308" lon="1.88232">
        <ele>240</ele>
        <time>2020-06-05T21:35:57Z</time>
      </trkpt>
      <trkpt lat="43.3078" lon="1.88198">
        <ele>247</ele>
        <time>2020-06-05T21:36:04Z</time>
      </trkpt>
      <trkpt lat="43.30768" lon="1.88162">
        <ele>252</ele>
        <time>2020-06-05T21:36:11Z</time>
      </trkpt>
      <trkpt lat="43.30769" lon="1.8815">
        <ele>251</ele>
        <time>2020-06-05T21:36:13Z</time>
      </trkpt>
      <trkpt lat="43.30816" lon="1.88103">
        <ele>246</ele>
        <time>2020-06-05T21:36:27Z</time>
      </trkpt>
      <trkpt lat="43.30867" lon="1.88065">
        <ele>241</ele>
        <time>2020-06-05T21:36:40Z</time>
      </trkpt>
      <trkpt lat="43.30924" lon="1.88029">
        <ele>235</ele>
        <time>2020-06-05T21:36:55Z</time>
      </trkpt>
      <trkpt lat="43.30965" lon="1.8799">
        <ele>230</ele>
        <time>2020-06-05T21:37:07Z</time>
      </trkpt>
      <trkpt lat="43.30974" lon="1.87986">
        <ele>229</ele>
        <time>2020-06-05T21:37:09Z</time>
      </trkpt>
      <trkpt lat="43.30989" lon="1.87985">
        <ele>228</ele>
        <time>2020-06-05T21:37:12Z</time>
      </trkpt>
      <trkpt lat="43.31011" lon="1.87989">
        <ele>224</ele>
        <time>2020-06-05T21:37:17Z</time>
      </trkpt>
      <trkpt lat="43.31037" lon="1.87988">
        <ele>219</ele>
        <time>2020-06-05T21:37:23Z</time>
      </trkpt>
      <trkpt lat="43.31082" lon="1.87973">
        <ele>212</ele>
        <time>2020-06-05T21:37:34Z</time>
      </trkpt>
      <trkpt lat="43.3118" lon="1.88">
        <ele>203</ele>
        <time>2020-06-05T21:37:58Z</time>
      </trkpt>
      <trkpt lat="43.31186" lon="1.87993">
        <ele>203</ele>
        <time>2020-06-05T21:37:59Z</time>
      </trkpt>
      <trkpt lat="43.31207" lon="1.879">
        <ele>205</ele>
        <time>2020-06-05T21:38:16Z</time>
      </trkpt>
      <trkpt lat="43.31212" lon="1.8789">
        <ele>205</ele>
        <time>2020-06-05T21:38:18Z</time>
      </trkpt>
      <trkpt lat="43.31235" lon="1.87875">
        <ele>203</ele>
        <time>2020-06-05T21:38:24Z</time>
      </trkpt>
      <trkpt lat="43.31242" lon="1.87863">
        <ele>203</ele>
        <time>2020-06-05T21:38:27Z</time>
      </trkpt>
      <trkpt lat="43.31263" lon="1.87772">
        <ele>204</ele>
        <time>2020-06-05T21:38:43Z</time>
      </trkpt>
      <trkpt lat="43.31282" lon="1.87725">
        <ele>205</ele>
        <time>2020-06-05T21:38:52Z</time>
      </trkpt>
      <trkpt lat="43.31288" lon="1.87725">
        <ele>205</ele>
        <time>2020-06-05T21:38:53Z</time>
      </trkpt>
      <trkpt lat="43.31309" lon="1.87739">
        <ele>203</ele>
        <time>2020-06-05T21:38:59Z</time>
      </trkpt>
      <trkpt lat="43.31313" lon="1.87739">
        <ele>203</ele>
        <time>2020-06-05T21:39:00Z</time>
      </trkpt>
      <trkpt lat="43.31319" lon="1.87732">
        <ele>204</ele>
        <time>2020-06-05T21:39:02Z</time>
      </trkpt>
      <trkpt lat="43.31333" lon="1.87739">
        <ele>203</ele>
        <time>2020-06-05T21:39:05Z</time>
      </trkpt>
      <trkpt lat="43.31338" lon="1.87736">
        <ele>203</ele>
        <time>2020-06-05T21:39:06Z</time>
      </trkpt>
      <trkpt lat="43.31342" lon="1.8774">
        <ele>202</ele>
        <time>2020-06-05T21:39:08Z</time>
      </trkpt>
    </trkseg>
  </trk>
</gpx>